<?xml version="1.0" encoding="UTF-8" standalone="no" ?>
<gpx xmlns="http://www.topografix.com/GPX/1/1" xmlns:xsi="http://www.w3.org/2001/XMLSchema-instance" xsi:schemaLocation="http://www.topografix.com/GPX/1/1 http://www.topografix.com/GPX/1/1/gpx.xsd" version="1.1" creator="VisuGPX - https://www.visugpx.com">
  <metadata>
    <name>trace pagnol</name>
    <desc><![CDATA[Sortie du 13 septembre 2021. RandoJp pour Gransrandonnée (http://gransrandonnee.e-monsite.com/)]]></desc>
  </metadata>
  <trk>
    <name><![CDATA[trace pagnol]]></name>
    <trkseg>
      <trkpt lat="43.31486" lon="5.53675">
        <ele>275.55505371094</ele>
        <time>2021-09-13T07:29:07Z</time>
      </trkpt>
      <trkpt lat="43.31487" lon="5.53675">
        <ele>275.55505371094</ele>
        <time>2021-09-13T07:29:08Z</time>
      </trkpt>
      <trkpt lat="43.31502" lon="5.53675">
        <ele>275.55505371094</ele>
        <time>2021-09-13T07:29:23Z</time>
      </trkpt>
      <trkpt lat="43.31518" lon="5.5367">
        <ele>276.03564453125</ele>
        <time>2021-09-13T07:29:37Z</time>
      </trkpt>
      <trkpt lat="43.31532" lon="5.53665">
        <ele>276.03564453125</ele>
        <time>2021-09-13T07:29:50Z</time>
      </trkpt>
      <trkpt lat="43.31548" lon="5.53662">
        <ele>276.03564453125</ele>
        <time>2021-09-13T07:30:05Z</time>
      </trkpt>
      <trkpt lat="43.31552" lon="5.53661">
        <ele>276.03564453125</ele>
        <time>2021-09-13T07:30:09Z</time>
      </trkpt>
      <trkpt lat="43.31555" lon="5.53646">
        <ele>275.55505371094</ele>
        <time>2021-09-13T07:30:21Z</time>
      </trkpt>
      <trkpt lat="43.3155" lon="5.53631">
        <ele>276.51635742188</ele>
        <time>2021-09-13T07:30:36Z</time>
      </trkpt>
      <trkpt lat="43.31531" lon="5.53627">
        <ele>278.91967773438</ele>
        <time>2021-09-13T07:30:58Z</time>
      </trkpt>
      <trkpt lat="43.3153" lon="5.53627">
        <ele>279.40026855469</ele>
        <time>2021-09-13T07:31:13Z</time>
      </trkpt>
      <trkpt lat="43.3153" lon="5.53626">
        <ele>278.91967773438</ele>
        <time>2021-09-13T07:31:56Z</time>
      </trkpt>
      <trkpt lat="43.31532" lon="5.53626">
        <ele>278.91967773438</ele>
        <time>2021-09-13T07:32:18Z</time>
      </trkpt>
      <trkpt lat="43.31537" lon="5.53614">
        <ele>278.43896484375</ele>
        <time>2021-09-13T07:32:34Z</time>
      </trkpt>
      <trkpt lat="43.31547" lon="5.53614">
        <ele>277.47766113281</ele>
        <time>2021-09-13T07:32:44Z</time>
      </trkpt>
      <trkpt lat="43.31555" lon="5.53613">
        <ele>276.51635742188</ele>
        <time>2021-09-13T07:32:49Z</time>
      </trkpt>
      <trkpt lat="43.31558" lon="5.53606">
        <ele>275.55505371094</ele>
        <time>2021-09-13T07:32:54Z</time>
      </trkpt>
      <trkpt lat="43.31559" lon="5.53601">
        <ele>275.55505371094</ele>
        <time>2021-09-13T07:32:58Z</time>
      </trkpt>
      <trkpt lat="43.31562" lon="5.53578">
        <ele>275.07446289062</ele>
        <time>2021-09-13T07:33:14Z</time>
      </trkpt>
      <trkpt lat="43.31562" lon="5.53575">
        <ele>275.07446289062</ele>
        <time>2021-09-13T07:33:16Z</time>
      </trkpt>
      <trkpt lat="43.31563" lon="5.53566">
        <ele>275.07446289062</ele>
        <time>2021-09-13T07:33:21Z</time>
      </trkpt>
      <trkpt lat="43.31564" lon="5.53549">
        <ele>275.07446289062</ele>
        <time>2021-09-13T07:33:31Z</time>
      </trkpt>
      <trkpt lat="43.31564" lon="5.5354">
        <ele>275.55505371094</ele>
        <time>2021-09-13T07:33:38Z</time>
      </trkpt>
      <trkpt lat="43.31563" lon="5.5353">
        <ele>275.55505371094</ele>
        <time>2021-09-13T07:33:44Z</time>
      </trkpt>
      <trkpt lat="43.31564" lon="5.53522">
        <ele>275.55505371094</ele>
        <time>2021-09-13T07:33:50Z</time>
      </trkpt>
      <trkpt lat="43.31563" lon="5.53514">
        <ele>275.55505371094</ele>
        <time>2021-09-13T07:33:55Z</time>
      </trkpt>
      <trkpt lat="43.31567" lon="5.53492">
        <ele>276.03564453125</ele>
        <time>2021-09-13T07:34:12Z</time>
      </trkpt>
      <trkpt lat="43.3157" lon="5.5347">
        <ele>276.03564453125</ele>
        <time>2021-09-13T07:34:23Z</time>
      </trkpt>
      <trkpt lat="43.31578" lon="5.53457">
        <ele>276.9970703125</ele>
        <time>2021-09-13T07:34:32Z</time>
      </trkpt>
      <trkpt lat="43.31587" lon="5.53454">
        <ele>277.95825195312</ele>
        <time>2021-09-13T07:34:44Z</time>
      </trkpt>
      <trkpt lat="43.31591" lon="5.53454">
        <ele>277.95825195312</ele>
        <time>2021-09-13T07:34:47Z</time>
      </trkpt>
      <trkpt lat="43.31601" lon="5.53457">
        <ele>278.43896484375</ele>
        <time>2021-09-13T07:34:54Z</time>
      </trkpt>
      <trkpt lat="43.31609" lon="5.53462">
        <ele>278.91967773438</ele>
        <time>2021-09-13T07:35:01Z</time>
      </trkpt>
      <trkpt lat="43.31618" lon="5.53468">
        <ele>279.880859375</ele>
        <time>2021-09-13T07:35:09Z</time>
      </trkpt>
      <trkpt lat="43.31631" lon="5.5348">
        <ele>280.84240722656</ele>
        <time>2021-09-13T07:35:26Z</time>
      </trkpt>
      <trkpt lat="43.31634" lon="5.53483">
        <ele>281.80358886719</ele>
        <time>2021-09-13T07:35:30Z</time>
      </trkpt>
      <trkpt lat="43.3164" lon="5.53486">
        <ele>281.80358886719</ele>
        <time>2021-09-13T07:35:37Z</time>
      </trkpt>
      <trkpt lat="43.31649" lon="5.53491">
        <ele>282.76501464844</ele>
        <time>2021-09-13T07:35:45Z</time>
      </trkpt>
      <trkpt lat="43.31659" lon="5.53493">
        <ele>283.72619628906</ele>
        <time>2021-09-13T07:35:56Z</time>
      </trkpt>
      <trkpt lat="43.3167" lon="5.5348">
        <ele>284.68762207031</ele>
        <time>2021-09-13T07:36:07Z</time>
      </trkpt>
      <trkpt lat="43.31679" lon="5.53454">
        <ele>285.16821289062</ele>
        <time>2021-09-13T07:36:28Z</time>
      </trkpt>
      <trkpt lat="43.31679" lon="5.53433">
        <ele>285.16821289062</ele>
        <time>2021-09-13T07:36:43Z</time>
      </trkpt>
      <trkpt lat="43.3168" lon="5.53405">
        <ele>284.68762207031</ele>
        <time>2021-09-13T07:37:03Z</time>
      </trkpt>
      <trkpt lat="43.31679" lon="5.53403">
        <ele>284.68762207031</ele>
        <time>2021-09-13T07:37:05Z</time>
      </trkpt>
      <trkpt lat="43.31678" lon="5.53398">
        <ele>284.68762207031</ele>
        <time>2021-09-13T07:37:09Z</time>
      </trkpt>
      <trkpt lat="43.31675" lon="5.53394">
        <ele>284.68762207031</ele>
        <time>2021-09-13T07:37:13Z</time>
      </trkpt>
      <trkpt lat="43.31666" lon="5.53362">
        <ele>283.72619628906</ele>
        <time>2021-09-13T07:37:36Z</time>
      </trkpt>
      <trkpt lat="43.31657" lon="5.5333">
        <ele>283.24560546875</ele>
        <time>2021-09-13T07:37:56Z</time>
      </trkpt>
      <trkpt lat="43.31653" lon="5.53313">
        <ele>283.24560546875</ele>
        <time>2021-09-13T07:38:07Z</time>
      </trkpt>
      <trkpt lat="43.31651" lon="5.53294">
        <ele>282.76501464844</ele>
        <time>2021-09-13T07:38:19Z</time>
      </trkpt>
      <trkpt lat="43.31658" lon="5.53275">
        <ele>282.28430175781</ele>
        <time>2021-09-13T07:38:32Z</time>
      </trkpt>
      <trkpt lat="43.31678" lon="5.53258">
        <ele>281.80358886719</ele>
        <time>2021-09-13T07:38:47Z</time>
      </trkpt>
      <trkpt lat="43.31681" lon="5.53255">
        <ele>281.80358886719</ele>
        <time>2021-09-13T07:38:52Z</time>
      </trkpt>
      <trkpt lat="43.31686" lon="5.5325">
        <ele>281.32299804688</ele>
        <time>2021-09-13T07:38:58Z</time>
      </trkpt>
      <trkpt lat="43.31702" lon="5.53236">
        <ele>281.32299804688</ele>
        <time>2021-09-13T07:39:13Z</time>
      </trkpt>
      <trkpt lat="43.31709" lon="5.53222">
        <ele>281.32299804688</ele>
        <time>2021-09-13T07:39:24Z</time>
      </trkpt>
      <trkpt lat="43.31709" lon="5.53218">
        <ele>280.84240722656</ele>
        <time>2021-09-13T07:39:28Z</time>
      </trkpt>
      <trkpt lat="43.31715" lon="5.5321">
        <ele>280.84240722656</ele>
        <time>2021-09-13T07:39:32Z</time>
      </trkpt>
      <trkpt lat="43.31716" lon="5.53207">
        <ele>280.36169433594</ele>
        <time>2021-09-13T07:39:37Z</time>
      </trkpt>
      <trkpt lat="43.31719" lon="5.53203">
        <ele>280.84240722656</ele>
        <time>2021-09-13T07:39:40Z</time>
      </trkpt>
      <trkpt lat="43.31726" lon="5.5319">
        <ele>280.84240722656</ele>
        <time>2021-09-13T07:39:50Z</time>
      </trkpt>
      <trkpt lat="43.31727" lon="5.53186">
        <ele>280.84240722656</ele>
        <time>2021-09-13T07:39:53Z</time>
      </trkpt>
      <trkpt lat="43.31733" lon="5.53177">
        <ele>280.84240722656</ele>
        <time>2021-09-13T07:40:00Z</time>
      </trkpt>
      <trkpt lat="43.31738" lon="5.53165">
        <ele>280.36169433594</ele>
        <time>2021-09-13T07:40:08Z</time>
      </trkpt>
      <trkpt lat="43.31741" lon="5.53151">
        <ele>280.36169433594</ele>
        <time>2021-09-13T07:40:20Z</time>
      </trkpt>
      <trkpt lat="43.31741" lon="5.53143">
        <ele>279.880859375</ele>
        <time>2021-09-13T07:40:26Z</time>
      </trkpt>
      <trkpt lat="43.3174" lon="5.53137">
        <ele>280.36169433594</ele>
        <time>2021-09-13T07:40:31Z</time>
      </trkpt>
      <trkpt lat="43.31739" lon="5.53135">
        <ele>279.880859375</ele>
        <time>2021-09-13T07:40:33Z</time>
      </trkpt>
      <trkpt lat="43.31748" lon="5.53111">
        <ele>279.40026855469</ele>
        <time>2021-09-13T07:40:48Z</time>
      </trkpt>
      <trkpt lat="43.31753" lon="5.53094">
        <ele>278.91967773438</ele>
        <time>2021-09-13T07:41:00Z</time>
      </trkpt>
      <trkpt lat="43.3176" lon="5.53093">
        <ele>278.91967773438</ele>
        <time>2021-09-13T07:41:04Z</time>
      </trkpt>
      <trkpt lat="43.31766" lon="5.53092">
        <ele>278.43896484375</ele>
        <time>2021-09-13T07:41:08Z</time>
      </trkpt>
      <trkpt lat="43.31769" lon="5.53085">
        <ele>278.91967773438</ele>
        <time>2021-09-13T07:41:11Z</time>
      </trkpt>
      <trkpt lat="43.31787" lon="5.53077">
        <ele>278.43896484375</ele>
        <time>2021-09-13T07:41:23Z</time>
      </trkpt>
      <trkpt lat="43.31805" lon="5.53078">
        <ele>278.43896484375</ele>
        <time>2021-09-13T07:41:37Z</time>
      </trkpt>
      <trkpt lat="43.31814" lon="5.53091">
        <ele>278.91967773438</ele>
        <time>2021-09-13T07:41:49Z</time>
      </trkpt>
      <trkpt lat="43.31823" lon="5.53115">
        <ele>279.880859375</ele>
        <time>2021-09-13T07:42:06Z</time>
      </trkpt>
      <trkpt lat="43.31825" lon="5.53127">
        <ele>280.36169433594</ele>
        <time>2021-09-13T07:42:15Z</time>
      </trkpt>
      <trkpt lat="43.31831" lon="5.53139">
        <ele>281.80358886719</ele>
        <time>2021-09-13T07:42:25Z</time>
      </trkpt>
      <trkpt lat="43.31841" lon="5.53147">
        <ele>282.76501464844</ele>
        <time>2021-09-13T07:42:39Z</time>
      </trkpt>
      <trkpt lat="43.31849" lon="5.53145">
        <ele>284.68762207031</ele>
        <time>2021-09-13T07:42:51Z</time>
      </trkpt>
      <trkpt lat="43.31858" lon="5.53129">
        <ele>286.61022949219</ele>
        <time>2021-09-13T07:43:07Z</time>
      </trkpt>
      <trkpt lat="43.31862" lon="5.53108">
        <ele>288.05224609375</ele>
        <time>2021-09-13T07:43:23Z</time>
      </trkpt>
      <trkpt lat="43.31863" lon="5.53103">
        <ele>288.53295898438</ele>
        <time>2021-09-13T07:43:27Z</time>
      </trkpt>
      <trkpt lat="43.31867" lon="5.53085">
        <ele>289.97485351562</ele>
        <time>2021-09-13T07:43:40Z</time>
      </trkpt>
      <trkpt lat="43.31873" lon="5.53072">
        <ele>291.8974609375</ele>
        <time>2021-09-13T07:43:54Z</time>
      </trkpt>
      <trkpt lat="43.31883" lon="5.53058">
        <ele>292.85876464844</ele>
        <time>2021-09-13T07:44:08Z</time>
      </trkpt>
      <trkpt lat="43.31894" lon="5.53046">
        <ele>295.26196289062</ele>
        <time>2021-09-13T07:44:22Z</time>
      </trkpt>
      <trkpt lat="43.31895" lon="5.53045">
        <ele>295.74267578125</ele>
        <time>2021-09-13T07:44:23Z</time>
      </trkpt>
      <trkpt lat="43.31908" lon="5.53038">
        <ele>296.7041015625</ele>
        <time>2021-09-13T07:44:37Z</time>
      </trkpt>
      <trkpt lat="43.31912" lon="5.53039">
        <ele>296.7041015625</ele>
        <time>2021-09-13T07:44:41Z</time>
      </trkpt>
      <trkpt lat="43.31928" lon="5.53045">
        <ele>298.14611816406</ele>
        <time>2021-09-13T07:44:54Z</time>
      </trkpt>
      <trkpt lat="43.31943" lon="5.53064">
        <ele>299.10729980469</ele>
        <time>2021-09-13T07:45:13Z</time>
      </trkpt>
      <trkpt lat="43.31947" lon="5.53072">
        <ele>300.06872558594</ele>
        <time>2021-09-13T07:45:28Z</time>
      </trkpt>
      <trkpt lat="43.31947" lon="5.53072">
        <ele>300.54931640625</ele>
        <time>2021-09-13T07:45:42Z</time>
      </trkpt>
      <trkpt lat="43.3195" lon="5.53076">
        <ele>300.54931640625</ele>
        <time>2021-09-13T07:46:01Z</time>
      </trkpt>
      <trkpt lat="43.31954" lon="5.53078">
        <ele>301.02990722656</ele>
        <time>2021-09-13T07:46:08Z</time>
      </trkpt>
      <trkpt lat="43.31963" lon="5.53074">
        <ele>301.99133300781</ele>
        <time>2021-09-13T07:46:22Z</time>
      </trkpt>
      <trkpt lat="43.31965" lon="5.53049">
        <ele>303.91394042969</ele>
        <time>2021-09-13T07:46:41Z</time>
      </trkpt>
      <trkpt lat="43.31966" lon="5.53044">
        <ele>304.87524414062</ele>
        <time>2021-09-13T07:46:45Z</time>
      </trkpt>
      <trkpt lat="43.31977" lon="5.53031">
        <ele>307.27856445312</ele>
        <time>2021-09-13T07:47:01Z</time>
      </trkpt>
      <trkpt lat="43.31985" lon="5.53032">
        <ele>307.75927734375</ele>
        <time>2021-09-13T07:47:07Z</time>
      </trkpt>
      <trkpt lat="43.32" lon="5.53042">
        <ele>309.68188476562</ele>
        <time>2021-09-13T07:47:25Z</time>
      </trkpt>
      <trkpt lat="43.32011" lon="5.53052">
        <ele>311.12377929688</ele>
        <time>2021-09-13T07:47:40Z</time>
      </trkpt>
      <trkpt lat="43.32026" lon="5.5305">
        <ele>312.56579589844</ele>
        <time>2021-09-13T07:47:55Z</time>
      </trkpt>
      <trkpt lat="43.32041" lon="5.53044">
        <ele>314.96911621094</ele>
        <time>2021-09-13T07:48:13Z</time>
      </trkpt>
      <trkpt lat="43.32056" lon="5.53035">
        <ele>316.89172363281</ele>
        <time>2021-09-13T07:48:30Z</time>
      </trkpt>
      <trkpt lat="43.32066" lon="5.5302">
        <ele>319.29504394531</ele>
        <time>2021-09-13T07:48:47Z</time>
      </trkpt>
      <trkpt lat="43.32069" lon="5.53013">
        <ele>319.77563476562</ele>
        <time>2021-09-13T07:48:53Z</time>
      </trkpt>
      <trkpt lat="43.32076" lon="5.52996">
        <ele>320.73706054688</ele>
        <time>2021-09-13T07:49:09Z</time>
      </trkpt>
      <trkpt lat="43.32082" lon="5.52993">
        <ele>320.25634765625</ele>
        <time>2021-09-13T07:49:26Z</time>
      </trkpt>
      <trkpt lat="43.32081" lon="5.52992">
        <ele>319.77563476562</ele>
        <time>2021-09-13T07:49:50Z</time>
      </trkpt>
      <trkpt lat="43.32081" lon="5.52989">
        <ele>320.25634765625</ele>
        <time>2021-09-13T07:49:52Z</time>
      </trkpt>
      <trkpt lat="43.32093" lon="5.52965">
        <ele>318.33361816406</ele>
        <time>2021-09-13T07:50:12Z</time>
      </trkpt>
      <trkpt lat="43.32108" lon="5.52942">
        <ele>315.44982910156</ele>
        <time>2021-09-13T07:50:33Z</time>
      </trkpt>
      <trkpt lat="43.32115" lon="5.52932">
        <ele>314.48840332031</ele>
        <time>2021-09-13T07:50:43Z</time>
      </trkpt>
      <trkpt lat="43.32131" lon="5.5291">
        <ele>313.04650878906</ele>
        <time>2021-09-13T07:51:03Z</time>
      </trkpt>
      <trkpt lat="43.32133" lon="5.52908">
        <ele>312.56579589844</ele>
        <time>2021-09-13T07:51:06Z</time>
      </trkpt>
      <trkpt lat="43.32141" lon="5.52892">
        <ele>310.16247558594</ele>
        <time>2021-09-13T07:51:21Z</time>
      </trkpt>
      <trkpt lat="43.32141" lon="5.52892">
        <ele>310.16247558594</ele>
        <time>2021-09-13T07:51:22Z</time>
      </trkpt>
      <trkpt lat="43.32138" lon="5.52889">
        <ele>310.16247558594</ele>
        <time>2021-09-13T07:51:25Z</time>
      </trkpt>
      <trkpt lat="43.32137" lon="5.52886">
        <ele>309.68188476562</ele>
        <time>2021-09-13T07:51:27Z</time>
      </trkpt>
      <trkpt lat="43.32129" lon="5.52873">
        <ele>308.72045898438</ele>
        <time>2021-09-13T07:51:38Z</time>
      </trkpt>
      <trkpt lat="43.32128" lon="5.52868">
        <ele>308.23986816406</ele>
        <time>2021-09-13T07:51:41Z</time>
      </trkpt>
      <trkpt lat="43.32128" lon="5.52865">
        <ele>308.23986816406</ele>
        <time>2021-09-13T07:51:43Z</time>
      </trkpt>
      <trkpt lat="43.32127" lon="5.5286">
        <ele>307.75927734375</ele>
        <time>2021-09-13T07:51:47Z</time>
      </trkpt>
      <trkpt lat="43.32127" lon="5.52843">
        <ele>306.31726074219</ele>
        <time>2021-09-13T07:51:58Z</time>
      </trkpt>
      <trkpt lat="43.32131" lon="5.5283">
        <ele>303.91394042969</ele>
        <time>2021-09-13T07:52:06Z</time>
      </trkpt>
      <trkpt lat="43.32137" lon="5.52821">
        <ele>302.95251464844</ele>
        <time>2021-09-13T07:52:15Z</time>
      </trkpt>
      <trkpt lat="43.32145" lon="5.52804">
        <ele>299.58801269531</ele>
        <time>2021-09-13T07:52:29Z</time>
      </trkpt>
      <trkpt lat="43.32149" lon="5.52797">
        <ele>298.62670898438</ele>
        <time>2021-09-13T07:52:35Z</time>
      </trkpt>
      <trkpt lat="43.32149" lon="5.5279">
        <ele>298.14611816406</ele>
        <time>2021-09-13T07:52:40Z</time>
      </trkpt>
      <trkpt lat="43.32145" lon="5.52771">
        <ele>298.14611816406</ele>
        <time>2021-09-13T07:52:51Z</time>
      </trkpt>
      <trkpt lat="43.32146" lon="5.52749">
        <ele>299.58801269531</ele>
        <time>2021-09-13T07:53:07Z</time>
      </trkpt>
      <trkpt lat="43.32147" lon="5.52742">
        <ele>300.06872558594</ele>
        <time>2021-09-13T07:53:22Z</time>
      </trkpt>
      <trkpt lat="43.32148" lon="5.52744">
        <ele>300.06872558594</ele>
        <time>2021-09-13T07:53:39Z</time>
      </trkpt>
      <trkpt lat="43.32148" lon="5.52744">
        <ele>299.58801269531</ele>
        <time>2021-09-13T07:53:50Z</time>
      </trkpt>
      <trkpt lat="43.32143" lon="5.52731">
        <ele>300.06872558594</ele>
        <time>2021-09-13T07:54:02Z</time>
      </trkpt>
      <trkpt lat="43.32138" lon="5.52729">
        <ele>299.58801269531</ele>
        <time>2021-09-13T07:54:09Z</time>
      </trkpt>
      <trkpt lat="43.32136" lon="5.52733">
        <ele>299.10729980469</ele>
        <time>2021-09-13T07:54:22Z</time>
      </trkpt>
      <trkpt lat="43.32136" lon="5.52731">
        <ele>299.10729980469</ele>
        <time>2021-09-13T07:54:41Z</time>
      </trkpt>
      <trkpt lat="43.32137" lon="5.52734">
        <ele>299.10729980469</ele>
        <time>2021-09-13T07:55:09Z</time>
      </trkpt>
      <trkpt lat="43.32138" lon="5.5273">
        <ele>299.10729980469</ele>
        <time>2021-09-13T07:55:23Z</time>
      </trkpt>
      <trkpt lat="43.3214" lon="5.52729">
        <ele>299.58801269531</ele>
        <time>2021-09-13T07:55:42Z</time>
      </trkpt>
      <trkpt lat="43.32142" lon="5.52729">
        <ele>299.58801269531</ele>
        <time>2021-09-13T07:55:56Z</time>
      </trkpt>
      <trkpt lat="43.32142" lon="5.5273">
        <ele>299.58801269531</ele>
        <time>2021-09-13T07:55:58Z</time>
      </trkpt>
      <trkpt lat="43.32149" lon="5.52734">
        <ele>301.02990722656</ele>
        <time>2021-09-13T07:56:11Z</time>
      </trkpt>
      <trkpt lat="43.32157" lon="5.52736">
        <ele>301.51062011719</ele>
        <time>2021-09-13T07:56:28Z</time>
      </trkpt>
      <trkpt lat="43.32166" lon="5.52741">
        <ele>302.47192382812</ele>
        <time>2021-09-13T07:56:41Z</time>
      </trkpt>
      <trkpt lat="43.32173" lon="5.52745">
        <ele>302.95251464844</ele>
        <time>2021-09-13T07:56:49Z</time>
      </trkpt>
      <trkpt lat="43.32185" lon="5.52754">
        <ele>303.43322753906</ele>
        <time>2021-09-13T07:57:03Z</time>
      </trkpt>
      <trkpt lat="43.32191" lon="5.52761">
        <ele>303.91394042969</ele>
        <time>2021-09-13T07:57:14Z</time>
      </trkpt>
      <trkpt lat="43.32193" lon="5.52768">
        <ele>304.39465332031</ele>
        <time>2021-09-13T07:57:31Z</time>
      </trkpt>
      <trkpt lat="43.32197" lon="5.52769">
        <ele>304.87524414062</ele>
        <time>2021-09-13T07:57:44Z</time>
      </trkpt>
      <trkpt lat="43.32212" lon="5.52776">
        <ele>305.83666992188</ele>
        <time>2021-09-13T07:58:01Z</time>
      </trkpt>
      <trkpt lat="43.32218" lon="5.52775">
        <ele>306.31726074219</ele>
        <time>2021-09-13T07:58:07Z</time>
      </trkpt>
      <trkpt lat="43.32227" lon="5.52779">
        <ele>307.27856445312</ele>
        <time>2021-09-13T07:58:22Z</time>
      </trkpt>
      <trkpt lat="43.32236" lon="5.52776">
        <ele>308.72045898438</ele>
        <time>2021-09-13T07:58:34Z</time>
      </trkpt>
      <trkpt lat="43.32247" lon="5.52774">
        <ele>310.16247558594</ele>
        <time>2021-09-13T07:58:46Z</time>
      </trkpt>
      <trkpt lat="43.32261" lon="5.52776">
        <ele>312.56579589844</ele>
        <time>2021-09-13T07:59:01Z</time>
      </trkpt>
      <trkpt lat="43.32268" lon="5.52778">
        <ele>314.0078125</ele>
        <time>2021-09-13T07:59:10Z</time>
      </trkpt>
      <trkpt lat="43.32273" lon="5.5278">
        <ele>314.0078125</ele>
        <time>2021-09-13T07:59:14Z</time>
      </trkpt>
      <trkpt lat="43.32278" lon="5.52778">
        <ele>315.93041992188</ele>
        <time>2021-09-13T07:59:22Z</time>
      </trkpt>
      <trkpt lat="43.32293" lon="5.52773">
        <ele>317.85302734375</ele>
        <time>2021-09-13T07:59:40Z</time>
      </trkpt>
      <trkpt lat="43.32294" lon="5.52772">
        <ele>317.85302734375</ele>
        <time>2021-09-13T07:59:42Z</time>
      </trkpt>
      <trkpt lat="43.32311" lon="5.52767">
        <ele>320.25634765625</ele>
        <time>2021-09-13T07:59:58Z</time>
      </trkpt>
      <trkpt lat="43.32322" lon="5.52764">
        <ele>321.2177734375</ele>
        <time>2021-09-13T08:00:11Z</time>
      </trkpt>
      <trkpt lat="43.32327" lon="5.52759">
        <ele>321.2177734375</ele>
        <time>2021-09-13T08:00:18Z</time>
      </trkpt>
      <trkpt lat="43.32334" lon="5.52755">
        <ele>322.17895507812</ele>
        <time>2021-09-13T08:00:25Z</time>
      </trkpt>
      <trkpt lat="43.32347" lon="5.52747">
        <ele>324.1015625</ele>
        <time>2021-09-13T08:00:41Z</time>
      </trkpt>
      <trkpt lat="43.32361" lon="5.52743">
        <ele>325.54357910156</ele>
        <time>2021-09-13T08:00:58Z</time>
      </trkpt>
      <trkpt lat="43.32362" lon="5.52743">
        <ele>326.02416992188</ele>
        <time>2021-09-13T08:01:15Z</time>
      </trkpt>
      <trkpt lat="43.32362" lon="5.52742">
        <ele>326.02416992188</ele>
        <time>2021-09-13T08:01:29Z</time>
      </trkpt>
      <trkpt lat="43.32361" lon="5.52741">
        <ele>326.02416992188</ele>
        <time>2021-09-13T08:02:01Z</time>
      </trkpt>
      <trkpt lat="43.32362" lon="5.52743">
        <ele>326.5048828125</ele>
        <time>2021-09-13T08:02:30Z</time>
      </trkpt>
      <trkpt lat="43.3236" lon="5.52744">
        <ele>326.02416992188</ele>
        <time>2021-09-13T08:03:06Z</time>
      </trkpt>
      <trkpt lat="43.32362" lon="5.52755">
        <ele>326.5048828125</ele>
        <time>2021-09-13T08:03:19Z</time>
      </trkpt>
      <trkpt lat="43.32361" lon="5.5276">
        <ele>326.98559570312</ele>
        <time>2021-09-13T08:03:35Z</time>
      </trkpt>
      <trkpt lat="43.32361" lon="5.5276">
        <ele>326.98559570312</ele>
        <time>2021-09-13T08:04:24Z</time>
      </trkpt>
      <trkpt lat="43.32363" lon="5.5277">
        <ele>327.94677734375</ele>
        <time>2021-09-13T08:04:41Z</time>
      </trkpt>
      <trkpt lat="43.32368" lon="5.52791">
        <ele>328.90832519531</ele>
        <time>2021-09-13T08:04:59Z</time>
      </trkpt>
      <trkpt lat="43.32374" lon="5.52817">
        <ele>331.3115234375</ele>
        <time>2021-09-13T08:05:19Z</time>
      </trkpt>
      <trkpt lat="43.3238" lon="5.52841">
        <ele>332.75354003906</ele>
        <time>2021-09-13T08:05:40Z</time>
      </trkpt>
      <trkpt lat="43.3238" lon="5.52849">
        <ele>333.71472167969</ele>
        <time>2021-09-13T08:05:47Z</time>
      </trkpt>
      <trkpt lat="43.32382" lon="5.52871">
        <ele>334.67614746094</ele>
        <time>2021-09-13T08:06:05Z</time>
      </trkpt>
      <trkpt lat="43.32383" lon="5.52897">
        <ele>337.07946777344</ele>
        <time>2021-09-13T08:06:24Z</time>
      </trkpt>
      <trkpt lat="43.32386" lon="5.52916">
        <ele>339.48266601562</ele>
        <time>2021-09-13T08:06:40Z</time>
      </trkpt>
      <trkpt lat="43.32392" lon="5.52927">
        <ele>340.92468261719</ele>
        <time>2021-09-13T08:06:53Z</time>
      </trkpt>
      <trkpt lat="43.32403" lon="5.52947">
        <ele>343.80859375</ele>
        <time>2021-09-13T08:07:14Z</time>
      </trkpt>
      <trkpt lat="43.32409" lon="5.52962">
        <ele>345.73132324219</ele>
        <time>2021-09-13T08:07:29Z</time>
      </trkpt>
      <trkpt lat="43.32416" lon="5.52976">
        <ele>347.65393066406</ele>
        <time>2021-09-13T08:07:45Z</time>
      </trkpt>
      <trkpt lat="43.32418" lon="5.52989">
        <ele>349.57653808594</ele>
        <time>2021-09-13T08:07:58Z</time>
      </trkpt>
      <trkpt lat="43.32422" lon="5.53005">
        <ele>351.97985839844</ele>
        <time>2021-09-13T08:08:15Z</time>
      </trkpt>
      <trkpt lat="43.32425" lon="5.5302">
        <ele>353.90258789062</ele>
        <time>2021-09-13T08:08:30Z</time>
      </trkpt>
      <trkpt lat="43.32427" lon="5.53038">
        <ele>356.78637695312</ele>
        <time>2021-09-13T08:08:51Z</time>
      </trkpt>
      <trkpt lat="43.3243" lon="5.53055">
        <ele>359.18969726562</ele>
        <time>2021-09-13T08:09:09Z</time>
      </trkpt>
      <trkpt lat="43.3243" lon="5.53067">
        <ele>362.07373046875</ele>
        <time>2021-09-13T08:09:24Z</time>
      </trkpt>
      <trkpt lat="43.32435" lon="5.53079">
        <ele>364.47692871094</ele>
        <time>2021-09-13T08:09:41Z</time>
      </trkpt>
      <trkpt lat="43.3244" lon="5.53092">
        <ele>366.88024902344</ele>
        <time>2021-09-13T08:09:58Z</time>
      </trkpt>
      <trkpt lat="43.32449" lon="5.53104">
        <ele>369.76428222656</ele>
        <time>2021-09-13T08:10:17Z</time>
      </trkpt>
      <trkpt lat="43.32459" lon="5.53113">
        <ele>372.16748046875</ele>
        <time>2021-09-13T08:10:35Z</time>
      </trkpt>
      <trkpt lat="43.32472" lon="5.53122">
        <ele>374.57080078125</ele>
        <time>2021-09-13T08:10:56Z</time>
      </trkpt>
      <trkpt lat="43.32481" lon="5.53136">
        <ele>377.45483398438</ele>
        <time>2021-09-13T08:11:15Z</time>
      </trkpt>
      <trkpt lat="43.32488" lon="5.53143">
        <ele>379.37744140625</ele>
        <time>2021-09-13T08:11:31Z</time>
      </trkpt>
      <trkpt lat="43.32495" lon="5.53155">
        <ele>382.26135253906</ele>
        <time>2021-09-13T08:11:48Z</time>
      </trkpt>
      <trkpt lat="43.32499" lon="5.53152">
        <ele>382.74206542969</ele>
        <time>2021-09-13T08:12:08Z</time>
      </trkpt>
      <trkpt lat="43.325" lon="5.53152">
        <ele>383.22265625</ele>
        <time>2021-09-13T08:12:25Z</time>
      </trkpt>
      <trkpt lat="43.325" lon="5.53152">
        <ele>383.22265625</ele>
        <time>2021-09-13T08:12:53Z</time>
      </trkpt>
      <trkpt lat="43.325" lon="5.53153">
        <ele>383.70324707031</ele>
        <time>2021-09-13T08:13:12Z</time>
      </trkpt>
      <trkpt lat="43.32501" lon="5.53154">
        <ele>384.18408203125</ele>
        <time>2021-09-13T08:13:31Z</time>
      </trkpt>
      <trkpt lat="43.32501" lon="5.53154">
        <ele>384.18408203125</ele>
        <time>2021-09-13T08:14:10Z</time>
      </trkpt>
      <trkpt lat="43.32502" lon="5.53155">
        <ele>384.18408203125</ele>
        <time>2021-09-13T08:14:48Z</time>
      </trkpt>
      <trkpt lat="43.32502" lon="5.53155">
        <ele>384.66479492188</ele>
        <time>2021-09-13T08:15:13Z</time>
      </trkpt>
      <trkpt lat="43.32503" lon="5.53158">
        <ele>385.14538574219</ele>
        <time>2021-09-13T08:15:43Z</time>
      </trkpt>
      <trkpt lat="43.32507" lon="5.53164">
        <ele>385.6259765625</ele>
        <time>2021-09-13T08:15:56Z</time>
      </trkpt>
      <trkpt lat="43.32522" lon="5.53178">
        <ele>389.47119140625</ele>
        <time>2021-09-13T08:16:13Z</time>
      </trkpt>
      <trkpt lat="43.32531" lon="5.53191">
        <ele>392.8359375</ele>
        <time>2021-09-13T08:16:27Z</time>
      </trkpt>
      <trkpt lat="43.32536" lon="5.53201">
        <ele>394.27795410156</ele>
        <time>2021-09-13T08:16:40Z</time>
      </trkpt>
      <trkpt lat="43.32547" lon="5.53207">
        <ele>397.16174316406</ele>
        <time>2021-09-13T08:16:58Z</time>
      </trkpt>
      <trkpt lat="43.32558" lon="5.53218">
        <ele>400.52648925781</ele>
        <time>2021-09-13T08:17:18Z</time>
      </trkpt>
      <trkpt lat="43.3257" lon="5.53232">
        <ele>403.41040039062</ele>
        <time>2021-09-13T08:17:39Z</time>
      </trkpt>
      <trkpt lat="43.32587" lon="5.53246">
        <ele>406.29431152344</ele>
        <time>2021-09-13T08:18:04Z</time>
      </trkpt>
      <trkpt lat="43.32602" lon="5.53254">
        <ele>409.65905761719</ele>
        <time>2021-09-13T08:18:27Z</time>
      </trkpt>
      <trkpt lat="43.32618" lon="5.53261">
        <ele>412.54284667969</ele>
        <time>2021-09-13T08:18:50Z</time>
      </trkpt>
      <trkpt lat="43.3263" lon="5.53266">
        <ele>414.94616699219</ele>
        <time>2021-09-13T08:19:11Z</time>
      </trkpt>
      <trkpt lat="43.32637" lon="5.53274">
        <ele>417.83020019531</ele>
        <time>2021-09-13T08:19:26Z</time>
      </trkpt>
      <trkpt lat="43.32646" lon="5.53283">
        <ele>419.27221679688</ele>
        <time>2021-09-13T08:19:41Z</time>
      </trkpt>
      <trkpt lat="43.32647" lon="5.53283">
        <ele>419.27221679688</ele>
        <time>2021-09-13T08:19:42Z</time>
      </trkpt>
      <trkpt lat="43.32657" lon="5.53283">
        <ele>420.71411132812</ele>
        <time>2021-09-13T08:19:57Z</time>
      </trkpt>
      <trkpt lat="43.32675" lon="5.53275">
        <ele>423.11743164062</ele>
        <time>2021-09-13T08:20:14Z</time>
      </trkpt>
      <trkpt lat="43.32699" lon="5.53266">
        <ele>425.52075195312</ele>
        <time>2021-09-13T08:20:38Z</time>
      </trkpt>
      <trkpt lat="43.32721" lon="5.53257">
        <ele>429.36596679688</ele>
        <time>2021-09-13T08:20:59Z</time>
      </trkpt>
      <trkpt lat="43.32737" lon="5.53266">
        <ele>431.76916503906</ele>
        <time>2021-09-13T08:21:20Z</time>
      </trkpt>
      <trkpt lat="43.32736" lon="5.53268">
        <ele>432.25</ele>
        <time>2021-09-13T08:21:22Z</time>
      </trkpt>
      <trkpt lat="43.32735" lon="5.53275">
        <ele>432.73071289062</ele>
        <time>2021-09-13T08:21:27Z</time>
      </trkpt>
      <trkpt lat="43.32729" lon="5.53286">
        <ele>434.17260742188</ele>
        <time>2021-09-13T08:21:36Z</time>
      </trkpt>
      <trkpt lat="43.32721" lon="5.53309">
        <ele>436.57592773438</ele>
        <time>2021-09-13T08:21:54Z</time>
      </trkpt>
      <trkpt lat="43.32717" lon="5.53337">
        <ele>439.45971679688</ele>
        <time>2021-09-13T08:22:17Z</time>
      </trkpt>
      <trkpt lat="43.32714" lon="5.53363">
        <ele>442.34387207031</ele>
        <time>2021-09-13T08:22:38Z</time>
      </trkpt>
      <trkpt lat="43.32711" lon="5.53385">
        <ele>444.26647949219</ele>
        <time>2021-09-13T08:22:59Z</time>
      </trkpt>
      <trkpt lat="43.32711" lon="5.53385">
        <ele>444.7470703125</ele>
        <time>2021-09-13T08:23:22Z</time>
      </trkpt>
      <trkpt lat="43.32711" lon="5.53384">
        <ele>444.26647949219</ele>
        <time>2021-09-13T08:23:40Z</time>
      </trkpt>
      <trkpt lat="43.3271" lon="5.53384">
        <ele>443.78576660156</ele>
        <time>2021-09-13T08:24:02Z</time>
      </trkpt>
      <trkpt lat="43.3271" lon="5.53384">
        <ele>444.26647949219</ele>
        <time>2021-09-13T08:24:55Z</time>
      </trkpt>
      <trkpt lat="43.32711" lon="5.53383">
        <ele>444.7470703125</ele>
        <time>2021-09-13T08:26:04Z</time>
      </trkpt>
      <trkpt lat="43.32711" lon="5.53384">
        <ele>444.7470703125</ele>
        <time>2021-09-13T08:26:40Z</time>
      </trkpt>
      <trkpt lat="43.32711" lon="5.53384">
        <ele>445.22766113281</ele>
        <time>2021-09-13T08:27:28Z</time>
      </trkpt>
      <trkpt lat="43.32711" lon="5.53385">
        <ele>445.22766113281</ele>
        <time>2021-09-13T08:28:06Z</time>
      </trkpt>
      <trkpt lat="43.32711" lon="5.53385">
        <ele>445.22766113281</ele>
        <time>2021-09-13T08:28:53Z</time>
      </trkpt>
      <trkpt lat="43.32709" lon="5.53383">
        <ele>445.70837402344</ele>
        <time>2021-09-13T08:29:35Z</time>
      </trkpt>
      <trkpt lat="43.32711" lon="5.53383">
        <ele>445.22766113281</ele>
        <time>2021-09-13T08:29:48Z</time>
      </trkpt>
      <trkpt lat="43.32712" lon="5.53386">
        <ele>445.70837402344</ele>
        <time>2021-09-13T08:30:06Z</time>
      </trkpt>
      <trkpt lat="43.32712" lon="5.53386">
        <ele>445.70837402344</ele>
        <time>2021-09-13T08:30:16Z</time>
      </trkpt>
      <trkpt lat="43.32719" lon="5.53388">
        <ele>446.18908691406</ele>
        <time>2021-09-13T08:30:23Z</time>
      </trkpt>
      <trkpt lat="43.3272" lon="5.53391">
        <ele>447.15026855469</ele>
        <time>2021-09-13T08:30:25Z</time>
      </trkpt>
      <trkpt lat="43.32732" lon="5.534">
        <ele>450.03442382812</ele>
        <time>2021-09-13T08:30:35Z</time>
      </trkpt>
      <trkpt lat="43.32743" lon="5.53412">
        <ele>452.91821289062</ele>
        <time>2021-09-13T08:30:47Z</time>
      </trkpt>
      <trkpt lat="43.32758" lon="5.53424">
        <ele>456.28295898438</ele>
        <time>2021-09-13T08:31:01Z</time>
      </trkpt>
      <trkpt lat="43.32763" lon="5.53426">
        <ele>456.76354980469</ele>
        <time>2021-09-13T08:31:05Z</time>
      </trkpt>
      <trkpt lat="43.32765" lon="5.53429">
        <ele>457.72497558594</ele>
        <time>2021-09-13T08:31:08Z</time>
      </trkpt>
      <trkpt lat="43.32783" lon="5.53441">
        <ele>461.08947753906</ele>
        <time>2021-09-13T08:31:26Z</time>
      </trkpt>
      <trkpt lat="43.32799" lon="5.53454">
        <ele>464.4541015625</ele>
        <time>2021-09-13T08:31:45Z</time>
      </trkpt>
      <trkpt lat="43.32815" lon="5.53469">
        <ele>467.33813476562</ele>
        <time>2021-09-13T08:32:05Z</time>
      </trkpt>
      <trkpt lat="43.32831" lon="5.53486">
        <ele>469.74133300781</ele>
        <time>2021-09-13T08:32:25Z</time>
      </trkpt>
      <trkpt lat="43.32845" lon="5.53502">
        <ele>472.14465332031</ele>
        <time>2021-09-13T08:32:43Z</time>
      </trkpt>
      <trkpt lat="43.32857" lon="5.53513">
        <ele>474.54797363281</ele>
        <time>2021-09-13T08:32:57Z</time>
      </trkpt>
      <trkpt lat="43.3287" lon="5.53528">
        <ele>476.95129394531</ele>
        <time>2021-09-13T08:33:14Z</time>
      </trkpt>
      <trkpt lat="43.32887" lon="5.53542">
        <ele>479.83508300781</ele>
        <time>2021-09-13T08:33:35Z</time>
      </trkpt>
      <trkpt lat="43.32898" lon="5.53547">
        <ele>481.7578125</ele>
        <time>2021-09-13T08:33:49Z</time>
      </trkpt>
      <trkpt lat="43.32904" lon="5.53544">
        <ele>482.71923828125</ele>
        <time>2021-09-13T08:33:56Z</time>
      </trkpt>
      <trkpt lat="43.32905" lon="5.53538">
        <ele>482.71923828125</ele>
        <time>2021-09-13T08:34:00Z</time>
      </trkpt>
      <trkpt lat="43.32911" lon="5.53529">
        <ele>481.7578125</ele>
        <time>2021-09-13T08:34:16Z</time>
      </trkpt>
      <trkpt lat="43.32908" lon="5.53528">
        <ele>481.7578125</ele>
        <time>2021-09-13T08:35:16Z</time>
      </trkpt>
      <trkpt lat="43.32907" lon="5.53529">
        <ele>481.27722167969</ele>
        <time>2021-09-13T08:35:47Z</time>
      </trkpt>
      <trkpt lat="43.32904" lon="5.53538">
        <ele>482.23852539062</ele>
        <time>2021-09-13T08:35:54Z</time>
      </trkpt>
      <trkpt lat="43.32901" lon="5.53553">
        <ele>483.19982910156</ele>
        <time>2021-09-13T08:36:06Z</time>
      </trkpt>
      <trkpt lat="43.32917" lon="5.53569">
        <ele>486.564453125</ele>
        <time>2021-09-13T08:36:27Z</time>
      </trkpt>
      <trkpt lat="43.32933" lon="5.53578">
        <ele>489.92907714844</ele>
        <time>2021-09-13T08:36:50Z</time>
      </trkpt>
      <trkpt lat="43.3295" lon="5.5359">
        <ele>493.29357910156</ele>
        <time>2021-09-13T08:37:15Z</time>
      </trkpt>
      <trkpt lat="43.32965" lon="5.53602">
        <ele>495.69689941406</ele>
        <time>2021-09-13T08:37:37Z</time>
      </trkpt>
      <trkpt lat="43.32984" lon="5.53611">
        <ele>498.10034179688</ele>
        <time>2021-09-13T08:38:02Z</time>
      </trkpt>
      <trkpt lat="43.32994" lon="5.53606">
        <ele>500.02294921875</ele>
        <time>2021-09-13T08:38:19Z</time>
      </trkpt>
      <trkpt lat="43.33001" lon="5.53589">
        <ele>499.54223632812</ele>
        <time>2021-09-13T08:38:36Z</time>
      </trkpt>
      <trkpt lat="43.33004" lon="5.53587">
        <ele>498.58093261719</ele>
        <time>2021-09-13T08:38:56Z</time>
      </trkpt>
      <trkpt lat="43.33004" lon="5.53587">
        <ele>498.58093261719</ele>
        <time>2021-09-13T08:39:31Z</time>
      </trkpt>
      <trkpt lat="43.33004" lon="5.53586">
        <ele>499.0615234375</ele>
        <time>2021-09-13T08:40:04Z</time>
      </trkpt>
      <trkpt lat="43.33004" lon="5.53586">
        <ele>498.58093261719</ele>
        <time>2021-09-13T08:40:40Z</time>
      </trkpt>
      <trkpt lat="43.33005" lon="5.53587">
        <ele>498.58093261719</ele>
        <time>2021-09-13T08:41:03Z</time>
      </trkpt>
      <trkpt lat="43.33004" lon="5.53587">
        <ele>499.54223632812</ele>
        <time>2021-09-13T08:41:41Z</time>
      </trkpt>
      <trkpt lat="43.33004" lon="5.53587">
        <ele>499.54223632812</ele>
        <time>2021-09-13T08:41:59Z</time>
      </trkpt>
      <trkpt lat="43.32996" lon="5.53595">
        <ele>500.98413085938</ele>
        <time>2021-09-13T08:42:11Z</time>
      </trkpt>
      <trkpt lat="43.32994" lon="5.5361">
        <ele>500.50354003906</ele>
        <time>2021-09-13T08:42:23Z</time>
      </trkpt>
      <trkpt lat="43.33005" lon="5.53622">
        <ele>500.98413085938</ele>
        <time>2021-09-13T08:42:40Z</time>
      </trkpt>
      <trkpt lat="43.33007" lon="5.53623">
        <ele>501.46484375</ele>
        <time>2021-09-13T08:42:42Z</time>
      </trkpt>
      <trkpt lat="43.33028" lon="5.53641">
        <ele>504.34887695312</ele>
        <time>2021-09-13T08:43:07Z</time>
      </trkpt>
      <trkpt lat="43.33035" lon="5.5366">
        <ele>506.75207519531</ele>
        <time>2021-09-13T08:43:24Z</time>
      </trkpt>
      <trkpt lat="43.3303" lon="5.53671">
        <ele>508.19409179688</ele>
        <time>2021-09-13T08:43:34Z</time>
      </trkpt>
      <trkpt lat="43.33019" lon="5.53681">
        <ele>509.63610839844</ele>
        <time>2021-09-13T08:43:46Z</time>
      </trkpt>
      <trkpt lat="43.3301" lon="5.53697">
        <ele>511.55871582031</ele>
        <time>2021-09-13T08:44:03Z</time>
      </trkpt>
      <trkpt lat="43.33005" lon="5.53722">
        <ele>513.00073242188</ele>
        <time>2021-09-13T08:44:22Z</time>
      </trkpt>
      <trkpt lat="43.33005" lon="5.53754">
        <ele>515.40405273438</ele>
        <time>2021-09-13T08:44:44Z</time>
      </trkpt>
      <trkpt lat="43.33005" lon="5.53788">
        <ele>517.80725097656</ele>
        <time>2021-09-13T08:45:07Z</time>
      </trkpt>
      <trkpt lat="43.33005" lon="5.5382">
        <ele>520.21057128906</ele>
        <time>2021-09-13T08:45:29Z</time>
      </trkpt>
      <trkpt lat="43.33006" lon="5.53862">
        <ele>522.61389160156</ele>
        <time>2021-09-13T08:45:59Z</time>
      </trkpt>
      <trkpt lat="43.33005" lon="5.53892">
        <ele>524.53649902344</ele>
        <time>2021-09-13T08:46:20Z</time>
      </trkpt>
      <trkpt lat="43.32998" lon="5.53919">
        <ele>525.97839355469</ele>
        <time>2021-09-13T08:46:40Z</time>
      </trkpt>
      <trkpt lat="43.32992" lon="5.53946">
        <ele>527.90100097656</ele>
        <time>2021-09-13T08:47:01Z</time>
      </trkpt>
      <trkpt lat="43.32998" lon="5.53978">
        <ele>530.30444335938</ele>
        <time>2021-09-13T08:47:25Z</time>
      </trkpt>
      <trkpt lat="43.3301" lon="5.54005">
        <ele>532.70776367188</ele>
        <time>2021-09-13T08:47:48Z</time>
      </trkpt>
      <trkpt lat="43.33016" lon="5.54032">
        <ele>534.14965820312</ele>
        <time>2021-09-13T08:48:09Z</time>
      </trkpt>
      <trkpt lat="43.33015" lon="5.54059">
        <ele>537.03369140625</ele>
        <time>2021-09-13T08:48:31Z</time>
      </trkpt>
      <trkpt lat="43.33015" lon="5.54077">
        <ele>538.95629882812</ele>
        <time>2021-09-13T08:48:47Z</time>
      </trkpt>
      <trkpt lat="43.33017" lon="5.54096">
        <ele>540.87890625</ele>
        <time>2021-09-13T08:49:05Z</time>
      </trkpt>
      <trkpt lat="43.33029" lon="5.54113">
        <ele>543.28210449219</ele>
        <time>2021-09-13T08:49:24Z</time>
      </trkpt>
      <trkpt lat="43.33046" lon="5.54135">
        <ele>546.16625976562</ele>
        <time>2021-09-13T08:49:51Z</time>
      </trkpt>
      <trkpt lat="43.33059" lon="5.5415">
        <ele>548.0888671875</ele>
        <time>2021-09-13T08:50:13Z</time>
      </trkpt>
      <trkpt lat="43.33072" lon="5.54163">
        <ele>550.97265625</ele>
        <time>2021-09-13T08:50:34Z</time>
      </trkpt>
      <trkpt lat="43.33081" lon="5.5417">
        <ele>552.89526367188</ele>
        <time>2021-09-13T08:50:50Z</time>
      </trkpt>
      <trkpt lat="43.3309" lon="5.54179">
        <ele>555.29858398438</ele>
        <time>2021-09-13T08:51:07Z</time>
      </trkpt>
      <trkpt lat="43.331" lon="5.54185">
        <ele>557.7021484375</ele>
        <time>2021-09-13T08:51:24Z</time>
      </trkpt>
      <trkpt lat="43.33112" lon="5.54193">
        <ele>560.10522460938</ele>
        <time>2021-09-13T08:51:43Z</time>
      </trkpt>
      <trkpt lat="43.3312" lon="5.54198">
        <ele>562.50854492188</ele>
        <time>2021-09-13T08:52:02Z</time>
      </trkpt>
      <trkpt lat="43.33121" lon="5.54198">
        <ele>562.50854492188</ele>
        <time>2021-09-13T08:52:21Z</time>
      </trkpt>
      <trkpt lat="43.33127" lon="5.54204">
        <ele>563.46997070312</ele>
        <time>2021-09-13T08:53:43Z</time>
      </trkpt>
      <trkpt lat="43.33138" lon="5.54209">
        <ele>565.87329101562</ele>
        <time>2021-09-13T08:54:00Z</time>
      </trkpt>
      <trkpt lat="43.33151" lon="5.54217">
        <ele>567.79565429688</ele>
        <time>2021-09-13T08:54:20Z</time>
      </trkpt>
      <trkpt lat="43.33156" lon="5.5422">
        <ele>568.2763671875</ele>
        <time>2021-09-13T08:54:27Z</time>
      </trkpt>
      <trkpt lat="43.33171" lon="5.54227">
        <ele>570.6796875</ele>
        <time>2021-09-13T08:54:46Z</time>
      </trkpt>
      <trkpt lat="43.33188" lon="5.54232">
        <ele>573.56396484375</ele>
        <time>2021-09-13T08:55:08Z</time>
      </trkpt>
      <trkpt lat="43.33206" lon="5.54234">
        <ele>576.44775390625</ele>
        <time>2021-09-13T08:55:31Z</time>
      </trkpt>
      <trkpt lat="43.33223" lon="5.54244">
        <ele>579.33154296875</ele>
        <time>2021-09-13T08:55:52Z</time>
      </trkpt>
      <trkpt lat="43.3324" lon="5.54262">
        <ele>580.29296875</ele>
        <time>2021-09-13T08:56:15Z</time>
      </trkpt>
      <trkpt lat="43.33259" lon="5.54284">
        <ele>581.73486328125</ele>
        <time>2021-09-13T08:56:40Z</time>
      </trkpt>
      <trkpt lat="43.33275" lon="5.54306">
        <ele>583.1767578125</ele>
        <time>2021-09-13T08:57:04Z</time>
      </trkpt>
      <trkpt lat="43.33288" lon="5.54332">
        <ele>585.580078125</ele>
        <time>2021-09-13T08:57:26Z</time>
      </trkpt>
      <trkpt lat="43.33298" lon="5.54355">
        <ele>587.9833984375</ele>
        <time>2021-09-13T08:57:46Z</time>
      </trkpt>
      <trkpt lat="43.33307" lon="5.54386">
        <ele>589.90625</ele>
        <time>2021-09-13T08:58:10Z</time>
      </trkpt>
      <trkpt lat="43.33317" lon="5.54419">
        <ele>591.82885742188</ele>
        <time>2021-09-13T08:58:35Z</time>
      </trkpt>
      <trkpt lat="43.33325" lon="5.54444">
        <ele>594.23217773438</ele>
        <time>2021-09-13T08:58:55Z</time>
      </trkpt>
      <trkpt lat="43.33338" lon="5.54471">
        <ele>597.11596679688</ele>
        <time>2021-09-13T08:59:19Z</time>
      </trkpt>
      <trkpt lat="43.33356" lon="5.54504">
        <ele>599.51928710938</ele>
        <time>2021-09-13T08:59:47Z</time>
      </trkpt>
      <trkpt lat="43.33368" lon="5.54541">
        <ele>601.44189453125</ele>
        <time>2021-09-13T09:00:14Z</time>
      </trkpt>
      <trkpt lat="43.33369" lon="5.54576">
        <ele>602.8837890625</ele>
        <time>2021-09-13T09:00:37Z</time>
      </trkpt>
      <trkpt lat="43.33369" lon="5.54621">
        <ele>604.806640625</ele>
        <time>2021-09-13T09:01:07Z</time>
      </trkpt>
      <trkpt lat="43.33387" lon="5.54653">
        <ele>604.806640625</ele>
        <time>2021-09-13T09:01:33Z</time>
      </trkpt>
      <trkpt lat="43.3341" lon="5.54679">
        <ele>605.76806640625</ele>
        <time>2021-09-13T09:01:58Z</time>
      </trkpt>
      <trkpt lat="43.3343" lon="5.54697">
        <ele>607.2099609375</ele>
        <time>2021-09-13T09:02:19Z</time>
      </trkpt>
      <trkpt lat="43.33435" lon="5.54729">
        <ele>608.65185546875</ele>
        <time>2021-09-13T09:02:40Z</time>
      </trkpt>
      <trkpt lat="43.33432" lon="5.54761">
        <ele>608.65185546875</ele>
        <time>2021-09-13T09:02:59Z</time>
      </trkpt>
      <trkpt lat="43.3343" lon="5.548">
        <ele>607.69067382812</ele>
        <time>2021-09-13T09:03:23Z</time>
      </trkpt>
      <trkpt lat="43.33429" lon="5.54851">
        <ele>604.806640625</ele>
        <time>2021-09-13T09:03:52Z</time>
      </trkpt>
      <trkpt lat="43.33431" lon="5.54895">
        <ele>605.28735351562</ele>
        <time>2021-09-13T09:04:18Z</time>
      </trkpt>
      <trkpt lat="43.3344" lon="5.54929">
        <ele>607.2099609375</ele>
        <time>2021-09-13T09:04:41Z</time>
      </trkpt>
      <trkpt lat="43.33443" lon="5.54948">
        <ele>608.17138671875</ele>
        <time>2021-09-13T09:05:00Z</time>
      </trkpt>
      <trkpt lat="43.33441" lon="5.54948">
        <ele>608.65185546875</ele>
        <time>2021-09-13T09:05:30Z</time>
      </trkpt>
      <trkpt lat="43.33441" lon="5.54948">
        <ele>608.65185546875</ele>
        <time>2021-09-13T09:06:29Z</time>
      </trkpt>
      <trkpt lat="43.33442" lon="5.54948">
        <ele>608.65185546875</ele>
        <time>2021-09-13T09:06:55Z</time>
      </trkpt>
      <trkpt lat="43.33444" lon="5.54948">
        <ele>608.65185546875</ele>
        <time>2021-09-13T09:08:38Z</time>
      </trkpt>
      <trkpt lat="43.33445" lon="5.54947">
        <ele>609.61328125</ele>
        <time>2021-09-13T09:11:46Z</time>
      </trkpt>
      <trkpt lat="43.33445" lon="5.54947">
        <ele>609.61328125</ele>
        <time>2021-09-13T09:12:44Z</time>
      </trkpt>
      <trkpt lat="43.33445" lon="5.54946">
        <ele>610.09375</ele>
        <time>2021-09-13T09:13:37Z</time>
      </trkpt>
      <trkpt lat="43.33445" lon="5.54946">
        <ele>610.57446289062</ele>
        <time>2021-09-13T09:15:22Z</time>
      </trkpt>
      <trkpt lat="43.33445" lon="5.54946">
        <ele>611.05517578125</ele>
        <time>2021-09-13T09:16:01Z</time>
      </trkpt>
      <trkpt lat="43.33445" lon="5.54946">
        <ele>611.05517578125</ele>
        <time>2021-09-13T09:16:34Z</time>
      </trkpt>
      <trkpt lat="43.33447" lon="5.54956">
        <ele>610.57446289062</ele>
        <time>2021-09-13T09:16:49Z</time>
      </trkpt>
      <trkpt lat="43.33453" lon="5.54984">
        <ele>611.05517578125</ele>
        <time>2021-09-13T09:17:11Z</time>
      </trkpt>
      <trkpt lat="43.33452" lon="5.54988">
        <ele>611.05517578125</ele>
        <time>2021-09-13T09:17:16Z</time>
      </trkpt>
      <trkpt lat="43.33451" lon="5.54989">
        <ele>611.53588867188</ele>
        <time>2021-09-13T09:17:30Z</time>
      </trkpt>
      <trkpt lat="43.33453" lon="5.54993">
        <ele>611.05517578125</ele>
        <time>2021-09-13T09:17:42Z</time>
      </trkpt>
      <trkpt lat="43.33458" lon="5.55019">
        <ele>612.4970703125</ele>
        <time>2021-09-13T09:18:03Z</time>
      </trkpt>
      <trkpt lat="43.3346" lon="5.55024">
        <ele>612.97778320312</ele>
        <time>2021-09-13T09:18:09Z</time>
      </trkpt>
      <trkpt lat="43.33465" lon="5.55038">
        <ele>614.41967773438</ele>
        <time>2021-09-13T09:18:23Z</time>
      </trkpt>
      <trkpt lat="43.33472" lon="5.55049">
        <ele>615.86181640625</ele>
        <time>2021-09-13T09:18:37Z</time>
      </trkpt>
      <trkpt lat="43.33484" lon="5.55067">
        <ele>617.3037109375</ele>
        <time>2021-09-13T09:18:56Z</time>
      </trkpt>
      <trkpt lat="43.33492" lon="5.55077">
        <ele>619.22631835938</ele>
        <time>2021-09-13T09:19:09Z</time>
      </trkpt>
      <trkpt lat="43.33511" lon="5.55096">
        <ele>621.14916992188</ele>
        <time>2021-09-13T09:19:32Z</time>
      </trkpt>
      <trkpt lat="43.33514" lon="5.5512">
        <ele>621.14916992188</ele>
        <time>2021-09-13T09:19:51Z</time>
      </trkpt>
      <trkpt lat="43.33513" lon="5.55131">
        <ele>621.14916992188</ele>
        <time>2021-09-13T09:20:00Z</time>
      </trkpt>
      <trkpt lat="43.33511" lon="5.55144">
        <ele>620.66845703125</ele>
        <time>2021-09-13T09:20:09Z</time>
      </trkpt>
      <trkpt lat="43.33505" lon="5.55161">
        <ele>621.14916992188</ele>
        <time>2021-09-13T09:20:23Z</time>
      </trkpt>
      <trkpt lat="43.33503" lon="5.55163">
        <ele>621.62963867188</ele>
        <time>2021-09-13T09:20:41Z</time>
      </trkpt>
      <trkpt lat="43.335" lon="5.55172">
        <ele>621.62963867188</ele>
        <time>2021-09-13T09:20:55Z</time>
      </trkpt>
      <trkpt lat="43.33498" lon="5.55187">
        <ele>623.07177734375</ele>
        <time>2021-09-13T09:21:08Z</time>
      </trkpt>
      <trkpt lat="43.33493" lon="5.55206">
        <ele>625.95556640625</ele>
        <time>2021-09-13T09:21:27Z</time>
      </trkpt>
      <trkpt lat="43.33489" lon="5.55217">
        <ele>628.83959960938</ele>
        <time>2021-09-13T09:21:43Z</time>
      </trkpt>
      <trkpt lat="43.33489" lon="5.55221">
        <ele>630.28149414062</ele>
        <time>2021-09-13T09:21:58Z</time>
      </trkpt>
      <trkpt lat="43.33489" lon="5.55222">
        <ele>629.80078125</ele>
        <time>2021-09-13T09:22:27Z</time>
      </trkpt>
      <trkpt lat="43.33485" lon="5.55219">
        <ele>629.80078125</ele>
        <time>2021-09-13T09:22:45Z</time>
      </trkpt>
      <trkpt lat="43.33476" lon="5.55222">
        <ele>633.16528320312</ele>
        <time>2021-09-13T09:23:00Z</time>
      </trkpt>
      <trkpt lat="43.33469" lon="5.55226">
        <ele>636.04956054688</ele>
        <time>2021-09-13T09:23:13Z</time>
      </trkpt>
      <trkpt lat="43.33468" lon="5.55225">
        <ele>637.0107421875</ele>
        <time>2021-09-13T09:23:14Z</time>
      </trkpt>
      <trkpt lat="43.33459" lon="5.55223">
        <ele>637.0107421875</ele>
        <time>2021-09-13T09:23:32Z</time>
      </trkpt>
      <trkpt lat="43.33451" lon="5.55217">
        <ele>638.93359375</ele>
        <time>2021-09-13T09:23:45Z</time>
      </trkpt>
      <trkpt lat="43.33449" lon="5.55225">
        <ele>641.8173828125</ele>
        <time>2021-09-13T09:23:59Z</time>
      </trkpt>
      <trkpt lat="43.33455" lon="5.5523">
        <ele>644.701171875</ele>
        <time>2021-09-13T09:24:13Z</time>
      </trkpt>
      <trkpt lat="43.3345" lon="5.55236">
        <ele>646.6240234375</ele>
        <time>2021-09-13T09:24:27Z</time>
      </trkpt>
      <trkpt lat="43.33449" lon="5.55236">
        <ele>647.1044921875</ele>
        <time>2021-09-13T09:24:29Z</time>
      </trkpt>
      <trkpt lat="43.33443" lon="5.55239">
        <ele>649.5078125</ele>
        <time>2021-09-13T09:24:42Z</time>
      </trkpt>
      <trkpt lat="43.33439" lon="5.55245">
        <ele>651.9111328125</ele>
        <time>2021-09-13T09:24:55Z</time>
      </trkpt>
      <trkpt lat="43.33435" lon="5.55249">
        <ele>654.79516601562</ele>
        <time>2021-09-13T09:25:10Z</time>
      </trkpt>
      <trkpt lat="43.33437" lon="5.55254">
        <ele>656.7177734375</ele>
        <time>2021-09-13T09:25:23Z</time>
      </trkpt>
      <trkpt lat="43.33432" lon="5.55257">
        <ele>659.60180664062</ele>
        <time>2021-09-13T09:25:51Z</time>
      </trkpt>
      <trkpt lat="43.33432" lon="5.55267">
        <ele>662.00512695312</ele>
        <time>2021-09-13T09:26:04Z</time>
      </trkpt>
      <trkpt lat="43.3343" lon="5.55277">
        <ele>664.408203125</ele>
        <time>2021-09-13T09:26:19Z</time>
      </trkpt>
      <trkpt lat="43.33429" lon="5.55282">
        <ele>666.33081054688</ele>
        <time>2021-09-13T09:26:33Z</time>
      </trkpt>
      <trkpt lat="43.33426" lon="5.55288">
        <ele>667.77270507812</ele>
        <time>2021-09-13T09:26:48Z</time>
      </trkpt>
      <trkpt lat="43.33425" lon="5.55299">
        <ele>670.17626953125</ele>
        <time>2021-09-13T09:27:02Z</time>
      </trkpt>
      <trkpt lat="43.33417" lon="5.55297">
        <ele>671.6181640625</ele>
        <time>2021-09-13T09:27:15Z</time>
      </trkpt>
      <trkpt lat="43.3341" lon="5.55299">
        <ele>674.50219726562</ele>
        <time>2021-09-13T09:27:33Z</time>
      </trkpt>
      <trkpt lat="43.33409" lon="5.55308">
        <ele>676.90551757812</ele>
        <time>2021-09-13T09:27:47Z</time>
      </trkpt>
      <trkpt lat="43.33408" lon="5.55316">
        <ele>678.34741210938</ele>
        <time>2021-09-13T09:28:02Z</time>
      </trkpt>
      <trkpt lat="43.33406" lon="5.55321">
        <ele>679.30859375</ele>
        <time>2021-09-13T09:28:17Z</time>
      </trkpt>
      <trkpt lat="43.33407" lon="5.55331">
        <ele>681.7119140625</ele>
        <time>2021-09-13T09:28:40Z</time>
      </trkpt>
      <trkpt lat="43.33401" lon="5.55341">
        <ele>684.11547851562</ele>
        <time>2021-09-13T09:29:00Z</time>
      </trkpt>
      <trkpt lat="43.33397" lon="5.55346">
        <ele>686.0380859375</ele>
        <time>2021-09-13T09:29:20Z</time>
      </trkpt>
      <trkpt lat="43.33392" lon="5.55353">
        <ele>688.44140625</ele>
        <time>2021-09-13T09:29:35Z</time>
      </trkpt>
      <trkpt lat="43.33385" lon="5.55358">
        <ele>689.40258789062</ele>
        <time>2021-09-13T09:29:48Z</time>
      </trkpt>
      <trkpt lat="43.33377" lon="5.55362">
        <ele>691.3251953125</ele>
        <time>2021-09-13T09:30:02Z</time>
      </trkpt>
      <trkpt lat="43.33369" lon="5.55361">
        <ele>692.28662109375</ele>
        <time>2021-09-13T09:30:16Z</time>
      </trkpt>
      <trkpt lat="43.33355" lon="5.55362">
        <ele>693.728515625</ele>
        <time>2021-09-13T09:30:32Z</time>
      </trkpt>
      <trkpt lat="43.33342" lon="5.55362">
        <ele>694.20922851562</ele>
        <time>2021-09-13T09:30:51Z</time>
      </trkpt>
      <trkpt lat="43.3333" lon="5.55354">
        <ele>696.1318359375</ele>
        <time>2021-09-13T09:31:07Z</time>
      </trkpt>
      <trkpt lat="43.33327" lon="5.55356">
        <ele>696.61254882812</ele>
        <time>2021-09-13T09:31:26Z</time>
      </trkpt>
      <trkpt lat="43.33309" lon="5.55356">
        <ele>698.53491210938</ele>
        <time>2021-09-13T09:31:45Z</time>
      </trkpt>
      <trkpt lat="43.33308" lon="5.55354">
        <ele>699.015625</ele>
        <time>2021-09-13T09:31:47Z</time>
      </trkpt>
      <trkpt lat="43.33303" lon="5.55352">
        <ele>699.97705078125</ele>
        <time>2021-09-13T09:31:52Z</time>
      </trkpt>
      <trkpt lat="43.33288" lon="5.55356">
        <ele>701.89990234375</ele>
        <time>2021-09-13T09:32:12Z</time>
      </trkpt>
      <trkpt lat="43.33287" lon="5.55355">
        <ele>701.89990234375</ele>
        <time>2021-09-13T09:32:39Z</time>
      </trkpt>
      <trkpt lat="43.33288" lon="5.55353">
        <ele>700.9384765625</ele>
        <time>2021-09-13T09:33:43Z</time>
      </trkpt>
      <trkpt lat="43.33287" lon="5.55356">
        <ele>701.89990234375</ele>
        <time>2021-09-13T09:34:09Z</time>
      </trkpt>
      <trkpt lat="43.33288" lon="5.55356">
        <ele>701.89990234375</ele>
        <time>2021-09-13T09:34:44Z</time>
      </trkpt>
      <trkpt lat="43.33289" lon="5.55357">
        <ele>701.41918945312</ele>
        <time>2021-09-13T09:35:09Z</time>
      </trkpt>
      <trkpt lat="43.3329" lon="5.55357">
        <ele>701.89990234375</ele>
        <time>2021-09-13T09:35:43Z</time>
      </trkpt>
      <trkpt lat="43.33289" lon="5.55355">
        <ele>701.41918945312</ele>
        <time>2021-09-13T09:35:58Z</time>
      </trkpt>
      <trkpt lat="43.33287" lon="5.55353">
        <ele>701.41918945312</ele>
        <time>2021-09-13T09:36:23Z</time>
      </trkpt>
      <trkpt lat="43.33287" lon="5.55354">
        <ele>701.89990234375</ele>
        <time>2021-09-13T09:37:26Z</time>
      </trkpt>
      <trkpt lat="43.33287" lon="5.55353">
        <ele>701.41918945312</ele>
        <time>2021-09-13T09:37:54Z</time>
      </trkpt>
      <trkpt lat="43.33288" lon="5.55353">
        <ele>702.86108398438</ele>
        <time>2021-09-13T09:38:38Z</time>
      </trkpt>
      <trkpt lat="43.33288" lon="5.55354">
        <ele>702.38037109375</ele>
        <time>2021-09-13T09:39:07Z</time>
      </trkpt>
      <trkpt lat="43.33287" lon="5.55353">
        <ele>701.89990234375</ele>
        <time>2021-09-13T09:39:39Z</time>
      </trkpt>
      <trkpt lat="43.33288" lon="5.55354">
        <ele>702.38037109375</ele>
        <time>2021-09-13T09:40:18Z</time>
      </trkpt>
      <trkpt lat="43.33288" lon="5.55354">
        <ele>702.86108398438</ele>
        <time>2021-09-13T09:40:38Z</time>
      </trkpt>
      <trkpt lat="43.33287" lon="5.55354">
        <ele>702.38037109375</ele>
        <time>2021-09-13T09:41:02Z</time>
      </trkpt>
      <trkpt lat="43.33287" lon="5.55354">
        <ele>702.86108398438</ele>
        <time>2021-09-13T09:41:35Z</time>
      </trkpt>
      <trkpt lat="43.33288" lon="5.55354">
        <ele>702.38037109375</ele>
        <time>2021-09-13T09:42:33Z</time>
      </trkpt>
      <trkpt lat="43.33288" lon="5.55353">
        <ele>703.341796875</ele>
        <time>2021-09-13T09:42:56Z</time>
      </trkpt>
      <trkpt lat="43.33294" lon="5.55351">
        <ele>702.86108398438</ele>
        <time>2021-09-13T09:43:15Z</time>
      </trkpt>
      <trkpt lat="43.33297" lon="5.5535">
        <ele>701.89990234375</ele>
        <time>2021-09-13T09:43:31Z</time>
      </trkpt>
      <trkpt lat="43.33309" lon="5.55354">
        <ele>700.9384765625</ele>
        <time>2021-09-13T09:43:48Z</time>
      </trkpt>
      <trkpt lat="43.33319" lon="5.55357">
        <ele>699.49633789062</ele>
        <time>2021-09-13T09:44:06Z</time>
      </trkpt>
      <trkpt lat="43.33326" lon="5.55355">
        <ele>698.53491210938</ele>
        <time>2021-09-13T09:44:20Z</time>
      </trkpt>
      <trkpt lat="43.33333" lon="5.55352">
        <ele>697.09301757812</ele>
        <time>2021-09-13T09:44:33Z</time>
      </trkpt>
      <trkpt lat="43.33343" lon="5.55359">
        <ele>696.1318359375</ele>
        <time>2021-09-13T09:44:49Z</time>
      </trkpt>
      <trkpt lat="43.33352" lon="5.55358">
        <ele>695.17041015625</ele>
        <time>2021-09-13T09:45:02Z</time>
      </trkpt>
      <trkpt lat="43.33368" lon="5.55362">
        <ele>694.20922851562</ele>
        <time>2021-09-13T09:45:22Z</time>
      </trkpt>
      <trkpt lat="43.33381" lon="5.55359">
        <ele>692.76733398438</ele>
        <time>2021-09-13T09:45:41Z</time>
      </trkpt>
      <trkpt lat="43.33388" lon="5.55358">
        <ele>691.3251953125</ele>
        <time>2021-09-13T09:45:57Z</time>
      </trkpt>
      <trkpt lat="43.33395" lon="5.5535">
        <ele>688.92211914062</ele>
        <time>2021-09-13T09:46:16Z</time>
      </trkpt>
      <trkpt lat="43.33398" lon="5.55344">
        <ele>687.96069335938</ele>
        <time>2021-09-13T09:46:32Z</time>
      </trkpt>
      <trkpt lat="43.33401" lon="5.55337">
        <ele>685.55737304688</ele>
        <time>2021-09-13T09:46:53Z</time>
      </trkpt>
      <trkpt lat="43.33403" lon="5.55328">
        <ele>684.11547851562</ele>
        <time>2021-09-13T09:47:13Z</time>
      </trkpt>
      <trkpt lat="43.33406" lon="5.55325">
        <ele>683.15380859375</ele>
        <time>2021-09-13T09:47:34Z</time>
      </trkpt>
      <trkpt lat="43.33407" lon="5.55316">
        <ele>681.7119140625</ele>
        <time>2021-09-13T09:47:51Z</time>
      </trkpt>
      <trkpt lat="43.3341" lon="5.55306">
        <ele>679.78930664062</ele>
        <time>2021-09-13T09:48:10Z</time>
      </trkpt>
      <trkpt lat="43.33411" lon="5.55298">
        <ele>676.90551757812</ele>
        <time>2021-09-13T09:48:28Z</time>
      </trkpt>
      <trkpt lat="43.33415" lon="5.55294">
        <ele>674.98291015625</ele>
        <time>2021-09-13T09:48:46Z</time>
      </trkpt>
      <trkpt lat="43.33424" lon="5.55297">
        <ele>672.57958984375</ele>
        <time>2021-09-13T09:49:04Z</time>
      </trkpt>
      <trkpt lat="43.33425" lon="5.55291">
        <ele>670.65698242188</ele>
        <time>2021-09-13T09:49:18Z</time>
      </trkpt>
      <trkpt lat="43.33429" lon="5.55287">
        <ele>669.69580078125</ele>
        <time>2021-09-13T09:49:41Z</time>
      </trkpt>
      <trkpt lat="43.33428" lon="5.55282">
        <ele>668.25366210938</ele>
        <time>2021-09-13T09:49:56Z</time>
      </trkpt>
      <trkpt lat="43.33428" lon="5.55278">
        <ele>667.29223632812</ele>
        <time>2021-09-13T09:50:10Z</time>
      </trkpt>
      <trkpt lat="43.3343" lon="5.55269">
        <ele>664.408203125</ele>
        <time>2021-09-13T09:50:24Z</time>
      </trkpt>
      <trkpt lat="43.33432" lon="5.55263">
        <ele>663.92749023438</ele>
        <time>2021-09-13T09:50:29Z</time>
      </trkpt>
      <trkpt lat="43.33436" lon="5.55257">
        <ele>660.56298828125</ele>
        <time>2021-09-13T09:50:39Z</time>
      </trkpt>
      <trkpt lat="43.33438" lon="5.55256">
        <ele>659.12109375</ele>
        <time>2021-09-13T09:50:42Z</time>
      </trkpt>
      <trkpt lat="43.3344" lon="5.55257">
        <ele>658.64038085938</ele>
        <time>2021-09-13T09:50:44Z</time>
      </trkpt>
      <trkpt lat="43.33444" lon="5.55258">
        <ele>657.67919921875</ele>
        <time>2021-09-13T09:50:46Z</time>
      </trkpt>
      <trkpt lat="43.33446" lon="5.55261">
        <ele>657.19848632812</ele>
        <time>2021-09-13T09:50:48Z</time>
      </trkpt>
      <trkpt lat="43.33453" lon="5.55262">
        <ele>653.833984375</ele>
        <time>2021-09-13T09:50:55Z</time>
      </trkpt>
      <trkpt lat="43.3346" lon="5.55265">
        <ele>652.39184570312</ele>
        <time>2021-09-13T09:51:08Z</time>
      </trkpt>
      <trkpt lat="43.33464" lon="5.55264">
        <ele>651.43041992188</ele>
        <time>2021-09-13T09:51:12Z</time>
      </trkpt>
      <trkpt lat="43.33468" lon="5.55254">
        <ele>649.5078125</ele>
        <time>2021-09-13T09:51:18Z</time>
      </trkpt>
      <trkpt lat="43.33475" lon="5.55252">
        <ele>646.6240234375</ele>
        <time>2021-09-13T09:51:23Z</time>
      </trkpt>
      <trkpt lat="43.33478" lon="5.55249">
        <ele>645.66259765625</ele>
        <time>2021-09-13T09:51:26Z</time>
      </trkpt>
      <trkpt lat="43.33477" lon="5.55237">
        <ele>642.77880859375</ele>
        <time>2021-09-13T09:51:32Z</time>
      </trkpt>
      <trkpt lat="43.33473" lon="5.55232">
        <ele>640.85595703125</ele>
        <time>2021-09-13T09:51:38Z</time>
      </trkpt>
      <trkpt lat="43.33471" lon="5.5523">
        <ele>639.89477539062</ele>
        <time>2021-09-13T09:51:42Z</time>
      </trkpt>
      <trkpt lat="43.33473" lon="5.55225">
        <ele>637.97216796875</ele>
        <time>2021-09-13T09:51:46Z</time>
      </trkpt>
      <trkpt lat="43.33478" lon="5.5522">
        <ele>636.04956054688</ele>
        <time>2021-09-13T09:51:51Z</time>
      </trkpt>
      <trkpt lat="43.3348" lon="5.55219">
        <ele>635.08813476562</ele>
        <time>2021-09-13T09:51:53Z</time>
      </trkpt>
      <trkpt lat="43.33482" lon="5.55219">
        <ele>634.607421875</ele>
        <time>2021-09-13T09:51:54Z</time>
      </trkpt>
      <trkpt lat="43.3349" lon="5.55223">
        <ele>633.16528320312</ele>
        <time>2021-09-13T09:52:06Z</time>
      </trkpt>
      <trkpt lat="43.33491" lon="5.55221">
        <ele>632.2041015625</ele>
        <time>2021-09-13T09:52:35Z</time>
      </trkpt>
      <trkpt lat="43.33491" lon="5.55221">
        <ele>632.2041015625</ele>
        <time>2021-09-13T09:53:34Z</time>
      </trkpt>
      <trkpt lat="43.33491" lon="5.55222">
        <ele>632.2041015625</ele>
        <time>2021-09-13T09:54:40Z</time>
      </trkpt>
      <trkpt lat="43.33501" lon="5.55224">
        <ele>631.72338867188</ele>
        <time>2021-09-13T09:54:59Z</time>
      </trkpt>
      <trkpt lat="43.33502" lon="5.55236">
        <ele>632.68481445312</ele>
        <time>2021-09-13T09:55:13Z</time>
      </trkpt>
      <trkpt lat="43.335" lon="5.55245">
        <ele>636.04956054688</ele>
        <time>2021-09-13T09:55:29Z</time>
      </trkpt>
      <trkpt lat="43.335" lon="5.5526">
        <ele>637.49145507812</ele>
        <time>2021-09-13T09:55:42Z</time>
      </trkpt>
      <trkpt lat="43.33506" lon="5.55274">
        <ele>635.08813476562</ele>
        <time>2021-09-13T09:55:57Z</time>
      </trkpt>
      <trkpt lat="43.33512" lon="5.55289">
        <ele>636.04956054688</ele>
        <time>2021-09-13T09:56:12Z</time>
      </trkpt>
      <trkpt lat="43.33504" lon="5.55298">
        <ele>637.49145507812</ele>
        <time>2021-09-13T09:56:26Z</time>
      </trkpt>
      <trkpt lat="43.33504" lon="5.55302">
        <ele>637.0107421875</ele>
        <time>2021-09-13T09:56:39Z</time>
      </trkpt>
      <trkpt lat="43.335" lon="5.55317">
        <ele>638.45288085938</ele>
        <time>2021-09-13T09:56:53Z</time>
      </trkpt>
      <trkpt lat="43.33499" lon="5.55331">
        <ele>637.49145507812</ele>
        <time>2021-09-13T09:57:10Z</time>
      </trkpt>
      <trkpt lat="43.335" lon="5.55342">
        <ele>635.08813476562</ele>
        <time>2021-09-13T09:57:31Z</time>
      </trkpt>
      <trkpt lat="43.33502" lon="5.55345">
        <ele>634.607421875</ele>
        <time>2021-09-13T09:57:56Z</time>
      </trkpt>
      <trkpt lat="43.33502" lon="5.55354">
        <ele>631.72338867188</ele>
        <time>2021-09-13T09:58:09Z</time>
      </trkpt>
      <trkpt lat="43.33507" lon="5.55361">
        <ele>628.83959960938</ele>
        <time>2021-09-13T09:58:22Z</time>
      </trkpt>
      <trkpt lat="43.33507" lon="5.55366">
        <ele>625.95556640625</ele>
        <time>2021-09-13T09:58:37Z</time>
      </trkpt>
      <trkpt lat="43.33507" lon="5.55367">
        <ele>625.95556640625</ele>
        <time>2021-09-13T09:58:38Z</time>
      </trkpt>
      <trkpt lat="43.33515" lon="5.55372">
        <ele>622.59106445312</ele>
        <time>2021-09-13T09:58:53Z</time>
      </trkpt>
      <trkpt lat="43.33515" lon="5.55372">
        <ele>622.1103515625</ele>
        <time>2021-09-13T09:59:00Z</time>
      </trkpt>
      <trkpt lat="43.33514" lon="5.55376">
        <ele>622.1103515625</ele>
        <time>2021-09-13T09:59:17Z</time>
      </trkpt>
      <trkpt lat="43.33514" lon="5.55386">
        <ele>619.22631835938</ele>
        <time>2021-09-13T09:59:33Z</time>
      </trkpt>
      <trkpt lat="43.33515" lon="5.55393">
        <ele>616.34228515625</ele>
        <time>2021-09-13T09:59:48Z</time>
      </trkpt>
      <trkpt lat="43.33518" lon="5.55398">
        <ele>613.45849609375</ele>
        <time>2021-09-13T09:59:57Z</time>
      </trkpt>
      <trkpt lat="43.33522" lon="5.55405">
        <ele>611.05517578125</ele>
        <time>2021-09-13T10:00:10Z</time>
      </trkpt>
      <trkpt lat="43.33525" lon="5.5541">
        <ele>608.65185546875</ele>
        <time>2021-09-13T10:00:23Z</time>
      </trkpt>
      <trkpt lat="43.33524" lon="5.55422">
        <ele>606.72924804688</ele>
        <time>2021-09-13T10:00:40Z</time>
      </trkpt>
      <trkpt lat="43.33527" lon="5.55425">
        <ele>605.28735351562</ele>
        <time>2021-09-13T10:00:47Z</time>
      </trkpt>
      <trkpt lat="43.33526" lon="5.55428">
        <ele>604.326171875</ele>
        <time>2021-09-13T10:01:04Z</time>
      </trkpt>
      <trkpt lat="43.33527" lon="5.55426">
        <ele>604.326171875</ele>
        <time>2021-09-13T10:01:22Z</time>
      </trkpt>
      <trkpt lat="43.33527" lon="5.55429">
        <ele>604.806640625</ele>
        <time>2021-09-13T10:01:37Z</time>
      </trkpt>
      <trkpt lat="43.33526" lon="5.55434">
        <ele>603.36450195312</ele>
        <time>2021-09-13T10:03:49Z</time>
      </trkpt>
      <trkpt lat="43.33526" lon="5.55436">
        <ele>603.36450195312</ele>
        <time>2021-09-13T10:04:02Z</time>
      </trkpt>
      <trkpt lat="43.33523" lon="5.55447">
        <ele>601.44189453125</ele>
        <time>2021-09-13T10:04:15Z</time>
      </trkpt>
      <trkpt lat="43.33519" lon="5.55459">
        <ele>600</ele>
        <time>2021-09-13T10:04:29Z</time>
      </trkpt>
      <trkpt lat="43.33519" lon="5.55461">
        <ele>600</ele>
        <time>2021-09-13T10:04:34Z</time>
      </trkpt>
      <trkpt lat="43.33519" lon="5.55471">
        <ele>600</ele>
        <time>2021-09-13T10:04:46Z</time>
      </trkpt>
      <trkpt lat="43.33513" lon="5.55489">
        <ele>596.63549804688</ele>
        <time>2021-09-13T10:04:59Z</time>
      </trkpt>
      <trkpt lat="43.33505" lon="5.55511">
        <ele>594.71264648438</ele>
        <time>2021-09-13T10:05:16Z</time>
      </trkpt>
      <trkpt lat="43.335" lon="5.55522">
        <ele>593.75146484375</ele>
        <time>2021-09-13T10:05:24Z</time>
      </trkpt>
      <trkpt lat="43.33501" lon="5.55527">
        <ele>593.27075195312</ele>
        <time>2021-09-13T10:05:27Z</time>
      </trkpt>
      <trkpt lat="43.33495" lon="5.55553">
        <ele>590.86743164062</ele>
        <time>2021-09-13T10:05:46Z</time>
      </trkpt>
      <trkpt lat="43.33495" lon="5.55557">
        <ele>588.94506835938</ele>
        <time>2021-09-13T10:05:53Z</time>
      </trkpt>
      <trkpt lat="43.33502" lon="5.55565">
        <ele>587.9833984375</ele>
        <time>2021-09-13T10:06:03Z</time>
      </trkpt>
      <trkpt lat="43.33504" lon="5.55564">
        <ele>587.9833984375</ele>
        <time>2021-09-13T10:06:05Z</time>
      </trkpt>
      <trkpt lat="43.33507" lon="5.5556">
        <ele>587.02197265625</ele>
        <time>2021-09-13T10:06:10Z</time>
      </trkpt>
      <trkpt lat="43.33506" lon="5.55563">
        <ele>587.50268554688</ele>
        <time>2021-09-13T10:06:13Z</time>
      </trkpt>
      <trkpt lat="43.33503" lon="5.55565">
        <ele>586.54150390625</ele>
        <time>2021-09-13T10:06:16Z</time>
      </trkpt>
      <trkpt lat="43.335" lon="5.55588">
        <ele>585.099609375</ele>
        <time>2021-09-13T10:06:33Z</time>
      </trkpt>
      <trkpt lat="43.33501" lon="5.55592">
        <ele>584.61889648438</ele>
        <time>2021-09-13T10:06:37Z</time>
      </trkpt>
      <trkpt lat="43.33505" lon="5.55592">
        <ele>583.65747070312</ele>
        <time>2021-09-13T10:06:41Z</time>
      </trkpt>
      <trkpt lat="43.33508" lon="5.55589">
        <ele>583.1767578125</ele>
        <time>2021-09-13T10:06:44Z</time>
      </trkpt>
      <trkpt lat="43.33513" lon="5.55587">
        <ele>581.73486328125</ele>
        <time>2021-09-13T10:06:50Z</time>
      </trkpt>
      <trkpt lat="43.3352" lon="5.55577">
        <ele>579.81225585938</ele>
        <time>2021-09-13T10:07:02Z</time>
      </trkpt>
      <trkpt lat="43.33522" lon="5.55568">
        <ele>577.4091796875</ele>
        <time>2021-09-13T10:07:14Z</time>
      </trkpt>
      <trkpt lat="43.33526" lon="5.55563">
        <ele>575.005859375</ele>
        <time>2021-09-13T10:07:19Z</time>
      </trkpt>
      <trkpt lat="43.33534" lon="5.55553">
        <ele>571.64086914062</ele>
        <time>2021-09-13T10:07:36Z</time>
      </trkpt>
      <trkpt lat="43.33544" lon="5.55544">
        <ele>568.2763671875</ele>
        <time>2021-09-13T10:07:53Z</time>
      </trkpt>
      <trkpt lat="43.33554" lon="5.55538">
        <ele>564.91186523438</ele>
        <time>2021-09-13T10:08:09Z</time>
      </trkpt>
      <trkpt lat="43.33559" lon="5.55533">
        <ele>562.50854492188</ele>
        <time>2021-09-13T10:08:23Z</time>
      </trkpt>
      <trkpt lat="43.33564" lon="5.5553">
        <ele>560.10522460938</ele>
        <time>2021-09-13T10:08:42Z</time>
      </trkpt>
      <trkpt lat="43.33574" lon="5.55522">
        <ele>556.74072265625</ele>
        <time>2021-09-13T10:09:00Z</time>
      </trkpt>
      <trkpt lat="43.33584" lon="5.55522">
        <ele>555.29858398438</ele>
        <time>2021-09-13T10:09:19Z</time>
      </trkpt>
      <trkpt lat="43.33588" lon="5.55524">
        <ele>555.779296875</ele>
        <time>2021-09-13T10:09:45Z</time>
      </trkpt>
      <trkpt lat="43.3359" lon="5.55525">
        <ele>556.26000976562</ele>
        <time>2021-09-13T10:10:18Z</time>
      </trkpt>
      <trkpt lat="43.336" lon="5.55527">
        <ele>556.74072265625</ele>
        <time>2021-09-13T10:10:31Z</time>
      </trkpt>
      <trkpt lat="43.33615" lon="5.55529">
        <ele>553.85668945312</ele>
        <time>2021-09-13T10:10:51Z</time>
      </trkpt>
      <trkpt lat="43.33622" lon="5.55518">
        <ele>552.41455078125</ele>
        <time>2021-09-13T10:11:04Z</time>
      </trkpt>
      <trkpt lat="43.33624" lon="5.55526">
        <ele>549.05004882812</ele>
        <time>2021-09-13T10:11:19Z</time>
      </trkpt>
      <trkpt lat="43.33626" lon="5.55527">
        <ele>548.0888671875</ele>
        <time>2021-09-13T10:11:34Z</time>
      </trkpt>
      <trkpt lat="43.33632" lon="5.55527">
        <ele>545.20483398438</ele>
        <time>2021-09-13T10:11:46Z</time>
      </trkpt>
      <trkpt lat="43.33642" lon="5.55526">
        <ele>543.28210449219</ele>
        <time>2021-09-13T10:12:01Z</time>
      </trkpt>
      <trkpt lat="43.33649" lon="5.55525">
        <ele>539.91760253906</ele>
        <time>2021-09-13T10:12:16Z</time>
      </trkpt>
      <trkpt lat="43.33655" lon="5.55526">
        <ele>537.03369140625</ele>
        <time>2021-09-13T10:12:30Z</time>
      </trkpt>
      <trkpt lat="43.33667" lon="5.5552">
        <ele>533.6689453125</ele>
        <time>2021-09-13T10:12:54Z</time>
      </trkpt>
      <trkpt lat="43.33674" lon="5.55522">
        <ele>530.30444335938</ele>
        <time>2021-09-13T10:13:10Z</time>
      </trkpt>
      <trkpt lat="43.33686" lon="5.55516">
        <ele>527.90100097656</ele>
        <time>2021-09-13T10:13:27Z</time>
      </trkpt>
      <trkpt lat="43.33692" lon="5.55509">
        <ele>525.01721191406</ele>
        <time>2021-09-13T10:13:38Z</time>
      </trkpt>
      <trkpt lat="43.337" lon="5.55501">
        <ele>522.13317871094</ele>
        <time>2021-09-13T10:13:53Z</time>
      </trkpt>
      <trkpt lat="43.33706" lon="5.55496">
        <ele>518.7685546875</ele>
        <time>2021-09-13T10:14:03Z</time>
      </trkpt>
      <trkpt lat="43.3372" lon="5.55495">
        <ele>515.88464355469</ele>
        <time>2021-09-13T10:14:19Z</time>
      </trkpt>
      <trkpt lat="43.33721" lon="5.55489">
        <ele>515.40405273438</ele>
        <time>2021-09-13T10:14:33Z</time>
      </trkpt>
      <trkpt lat="43.3372" lon="5.55486">
        <ele>515.88464355469</ele>
        <time>2021-09-13T10:14:51Z</time>
      </trkpt>
      <trkpt lat="43.33719" lon="5.55492">
        <ele>515.88464355469</ele>
        <time>2021-09-13T10:15:04Z</time>
      </trkpt>
      <trkpt lat="43.33718" lon="5.55495">
        <ele>515.40405273438</ele>
        <time>2021-09-13T10:15:23Z</time>
      </trkpt>
      <trkpt lat="43.33715" lon="5.55497">
        <ele>515.40405273438</ele>
        <time>2021-09-13T10:15:48Z</time>
      </trkpt>
      <trkpt lat="43.3372" lon="5.55495">
        <ele>514.92333984375</ele>
        <time>2021-09-13T10:16:14Z</time>
      </trkpt>
      <trkpt lat="43.33724" lon="5.55497">
        <ele>514.92333984375</ele>
        <time>2021-09-13T10:16:19Z</time>
      </trkpt>
      <trkpt lat="43.33725" lon="5.55495">
        <ele>514.44262695312</ele>
        <time>2021-09-13T10:16:30Z</time>
      </trkpt>
      <trkpt lat="43.33731" lon="5.55496">
        <ele>514.44262695312</ele>
        <time>2021-09-13T10:16:47Z</time>
      </trkpt>
      <trkpt lat="43.33735" lon="5.55498">
        <ele>514.92333984375</ele>
        <time>2021-09-13T10:17:04Z</time>
      </trkpt>
      <trkpt lat="43.33745" lon="5.55503">
        <ele>515.88464355469</ele>
        <time>2021-09-13T10:17:24Z</time>
      </trkpt>
      <trkpt lat="43.33745" lon="5.55502">
        <ele>515.88464355469</ele>
        <time>2021-09-13T10:17:45Z</time>
      </trkpt>
      <trkpt lat="43.33747" lon="5.55505">
        <ele>515.88464355469</ele>
        <time>2021-09-13T10:17:53Z</time>
      </trkpt>
      <trkpt lat="43.3376" lon="5.55518">
        <ele>518.28784179688</ele>
        <time>2021-09-13T10:18:14Z</time>
      </trkpt>
      <trkpt lat="43.33772" lon="5.55527">
        <ele>520.21057128906</ele>
        <time>2021-09-13T10:18:34Z</time>
      </trkpt>
      <trkpt lat="43.33778" lon="5.55538">
        <ele>521.65258789062</ele>
        <time>2021-09-13T10:18:48Z</time>
      </trkpt>
      <trkpt lat="43.33785" lon="5.55543">
        <ele>523.5751953125</ele>
        <time>2021-09-13T10:19:03Z</time>
      </trkpt>
      <trkpt lat="43.33792" lon="5.55552">
        <ele>525.49780273438</ele>
        <time>2021-09-13T10:19:17Z</time>
      </trkpt>
      <trkpt lat="43.33798" lon="5.55563">
        <ele>526.93981933594</ele>
        <time>2021-09-13T10:19:34Z</time>
      </trkpt>
      <trkpt lat="43.33803" lon="5.55572">
        <ele>528.86254882812</ele>
        <time>2021-09-13T10:19:47Z</time>
      </trkpt>
      <trkpt lat="43.33802" lon="5.55577">
        <ele>528.3818359375</ele>
        <time>2021-09-13T10:20:08Z</time>
      </trkpt>
      <trkpt lat="43.33803" lon="5.55586">
        <ele>528.86254882812</ele>
        <time>2021-09-13T10:20:21Z</time>
      </trkpt>
      <trkpt lat="43.33808" lon="5.55608">
        <ele>530.30444335938</ele>
        <time>2021-09-13T10:20:40Z</time>
      </trkpt>
      <trkpt lat="43.33811" lon="5.55622">
        <ele>530.30444335938</ele>
        <time>2021-09-13T10:20:57Z</time>
      </trkpt>
      <trkpt lat="43.3382" lon="5.55645">
        <ele>529.34313964844</ele>
        <time>2021-09-13T10:21:15Z</time>
      </trkpt>
      <trkpt lat="43.33823" lon="5.55654">
        <ele>529.34313964844</ele>
        <time>2021-09-13T10:21:22Z</time>
      </trkpt>
      <trkpt lat="43.3383" lon="5.55664">
        <ele>529.82373046875</ele>
        <time>2021-09-13T10:21:32Z</time>
      </trkpt>
      <trkpt lat="43.33837" lon="5.55682">
        <ele>529.34313964844</ele>
        <time>2021-09-13T10:21:48Z</time>
      </trkpt>
      <trkpt lat="43.33844" lon="5.55705">
        <ele>528.86254882812</ele>
        <time>2021-09-13T10:22:07Z</time>
      </trkpt>
      <trkpt lat="43.33852" lon="5.55716">
        <ele>531.26574707031</ele>
        <time>2021-09-13T10:22:21Z</time>
      </trkpt>
      <trkpt lat="43.33857" lon="5.55739">
        <ele>530.30444335938</ele>
        <time>2021-09-13T10:22:43Z</time>
      </trkpt>
      <trkpt lat="43.33858" lon="5.55743">
        <ele>530.30444335938</ele>
        <time>2021-09-13T10:22:47Z</time>
      </trkpt>
      <trkpt lat="43.33866" lon="5.55767">
        <ele>530.78515625</ele>
        <time>2021-09-13T10:23:07Z</time>
      </trkpt>
      <trkpt lat="43.33868" lon="5.55777">
        <ele>530.78515625</ele>
        <time>2021-09-13T10:23:15Z</time>
      </trkpt>
      <trkpt lat="43.3387" lon="5.55781">
        <ele>530.78515625</ele>
        <time>2021-09-13T10:23:18Z</time>
      </trkpt>
      <trkpt lat="43.33876" lon="5.55812">
        <ele>532.22705078125</ele>
        <time>2021-09-13T10:23:42Z</time>
      </trkpt>
      <trkpt lat="43.33888" lon="5.55839">
        <ele>534.14965820312</ele>
        <time>2021-09-13T10:24:06Z</time>
      </trkpt>
      <trkpt lat="43.33896" lon="5.55851">
        <ele>534.63037109375</ele>
        <time>2021-09-13T10:24:23Z</time>
      </trkpt>
      <trkpt lat="43.33903" lon="5.55852">
        <ele>532.70776367188</ele>
        <time>2021-09-13T10:24:39Z</time>
      </trkpt>
      <trkpt lat="43.33907" lon="5.55852">
        <ele>531.26574707031</ele>
        <time>2021-09-13T10:24:52Z</time>
      </trkpt>
      <trkpt lat="43.33916" lon="5.55849">
        <ele>530.30444335938</ele>
        <time>2021-09-13T10:25:07Z</time>
      </trkpt>
      <trkpt lat="43.33919" lon="5.55845">
        <ele>529.82373046875</ele>
        <time>2021-09-13T10:25:13Z</time>
      </trkpt>
      <trkpt lat="43.33927" lon="5.55842">
        <ele>530.78515625</ele>
        <time>2021-09-13T10:25:23Z</time>
      </trkpt>
      <trkpt lat="43.33938" lon="5.55849">
        <ele>531.74633789062</ele>
        <time>2021-09-13T10:25:38Z</time>
      </trkpt>
      <trkpt lat="43.33944" lon="5.5586">
        <ele>533.18835449219</ele>
        <time>2021-09-13T10:25:55Z</time>
      </trkpt>
      <trkpt lat="43.33947" lon="5.55867">
        <ele>534.14965820312</ele>
        <time>2021-09-13T10:26:02Z</time>
      </trkpt>
      <trkpt lat="43.33955" lon="5.55874">
        <ele>535.59155273438</ele>
        <time>2021-09-13T10:26:14Z</time>
      </trkpt>
      <trkpt lat="43.33969" lon="5.55877">
        <ele>536.55310058594</ele>
        <time>2021-09-13T10:26:34Z</time>
      </trkpt>
      <trkpt lat="43.33978" lon="5.55875">
        <ele>538.95629882812</ele>
        <time>2021-09-13T10:26:46Z</time>
      </trkpt>
      <trkpt lat="43.33992" lon="5.55882">
        <ele>539.43688964844</ele>
        <time>2021-09-13T10:27:06Z</time>
      </trkpt>
      <trkpt lat="43.33998" lon="5.5588">
        <ele>539.43688964844</ele>
        <time>2021-09-13T10:27:30Z</time>
      </trkpt>
      <trkpt lat="43.34003" lon="5.55877">
        <ele>540.39831542969</ele>
        <time>2021-09-13T10:27:49Z</time>
      </trkpt>
      <trkpt lat="43.34003" lon="5.55878">
        <ele>540.87890625</ele>
        <time>2021-09-13T10:28:09Z</time>
      </trkpt>
      <trkpt lat="43.34002" lon="5.55877">
        <ele>538.95629882812</ele>
        <time>2021-09-13T10:29:01Z</time>
      </trkpt>
      <trkpt lat="43.34002" lon="5.55877">
        <ele>539.91760253906</ele>
        <time>2021-09-13T10:29:47Z</time>
      </trkpt>
      <trkpt lat="43.34008" lon="5.55868">
        <ele>541.35949707031</ele>
        <time>2021-09-13T10:30:01Z</time>
      </trkpt>
      <trkpt lat="43.34011" lon="5.55858">
        <ele>544.72424316406</ele>
        <time>2021-09-13T10:30:15Z</time>
      </trkpt>
      <trkpt lat="43.34018" lon="5.55847">
        <ele>545.685546875</ele>
        <time>2021-09-13T10:30:30Z</time>
      </trkpt>
      <trkpt lat="43.34021" lon="5.55844">
        <ele>546.16625976562</ele>
        <time>2021-09-13T10:30:34Z</time>
      </trkpt>
      <trkpt lat="43.3403" lon="5.55834">
        <ele>548.0888671875</ele>
        <time>2021-09-13T10:30:51Z</time>
      </trkpt>
      <trkpt lat="43.34043" lon="5.55817">
        <ele>550.4921875</ele>
        <time>2021-09-13T10:31:15Z</time>
      </trkpt>
      <trkpt lat="43.34051" lon="5.55806">
        <ele>552.89526367188</ele>
        <time>2021-09-13T10:31:30Z</time>
      </trkpt>
      <trkpt lat="43.34058" lon="5.55796">
        <ele>553.3759765625</ele>
        <time>2021-09-13T10:31:45Z</time>
      </trkpt>
      <trkpt lat="43.34065" lon="5.55786">
        <ele>555.779296875</ele>
        <time>2021-09-13T10:32:00Z</time>
      </trkpt>
      <trkpt lat="43.34075" lon="5.55777">
        <ele>558.18286132812</ele>
        <time>2021-09-13T10:32:19Z</time>
      </trkpt>
      <trkpt lat="43.34083" lon="5.55775">
        <ele>559.62475585938</ele>
        <time>2021-09-13T10:32:34Z</time>
      </trkpt>
      <trkpt lat="43.34095" lon="5.5577">
        <ele>561.54736328125</ele>
        <time>2021-09-13T10:32:57Z</time>
      </trkpt>
      <trkpt lat="43.34109" lon="5.55767">
        <ele>564.91186523438</ele>
        <time>2021-09-13T10:33:21Z</time>
      </trkpt>
      <trkpt lat="43.34118" lon="5.55763">
        <ele>567.31518554688</ele>
        <time>2021-09-13T10:33:41Z</time>
      </trkpt>
      <trkpt lat="43.34132" lon="5.55757">
        <ele>569.23779296875</ele>
        <time>2021-09-13T10:34:03Z</time>
      </trkpt>
      <trkpt lat="43.34144" lon="5.5575">
        <ele>572.6025390625</ele>
        <time>2021-09-13T10:34:26Z</time>
      </trkpt>
      <trkpt lat="43.34155" lon="5.55743">
        <ele>574.52514648438</ele>
        <time>2021-09-13T10:34:47Z</time>
      </trkpt>
      <trkpt lat="43.34161" lon="5.55737">
        <ele>576.44775390625</ele>
        <time>2021-09-13T10:35:00Z</time>
      </trkpt>
      <trkpt lat="43.34166" lon="5.5573">
        <ele>577.4091796875</ele>
        <time>2021-09-13T10:35:17Z</time>
      </trkpt>
      <trkpt lat="43.34173" lon="5.55724">
        <ele>579.33154296875</ele>
        <time>2021-09-13T10:35:35Z</time>
      </trkpt>
      <trkpt lat="43.3418" lon="5.55718">
        <ele>580.77368164062</ele>
        <time>2021-09-13T10:35:48Z</time>
      </trkpt>
      <trkpt lat="43.34182" lon="5.55719">
        <ele>581.25439453125</ele>
        <time>2021-09-13T10:36:10Z</time>
      </trkpt>
      <trkpt lat="43.34192" lon="5.55712">
        <ele>583.1767578125</ele>
        <time>2021-09-13T10:37:17Z</time>
      </trkpt>
      <trkpt lat="43.34207" lon="5.55711">
        <ele>585.099609375</ele>
        <time>2021-09-13T10:37:39Z</time>
      </trkpt>
      <trkpt lat="43.34218" lon="5.55708">
        <ele>587.50268554688</ele>
        <time>2021-09-13T10:37:58Z</time>
      </trkpt>
      <trkpt lat="43.34225" lon="5.55707">
        <ele>589.90625</ele>
        <time>2021-09-13T10:38:20Z</time>
      </trkpt>
      <trkpt lat="43.34225" lon="5.55707">
        <ele>590.38696289062</ele>
        <time>2021-09-13T10:39:01Z</time>
      </trkpt>
      <trkpt lat="43.34232" lon="5.55703">
        <ele>592.3095703125</ele>
        <time>2021-09-13T10:39:26Z</time>
      </trkpt>
      <trkpt lat="43.34244" lon="5.55697">
        <ele>594.71264648438</ele>
        <time>2021-09-13T10:39:47Z</time>
      </trkpt>
      <trkpt lat="43.34254" lon="5.55699">
        <ele>596.15478515625</ele>
        <time>2021-09-13T10:40:08Z</time>
      </trkpt>
      <trkpt lat="43.34255" lon="5.55705">
        <ele>595.193359375</ele>
        <time>2021-09-13T10:40:22Z</time>
      </trkpt>
      <trkpt lat="43.34256" lon="5.55707">
        <ele>594.23217773438</ele>
        <time>2021-09-13T10:40:40Z</time>
      </trkpt>
      <trkpt lat="43.34255" lon="5.55707">
        <ele>593.75146484375</ele>
        <time>2021-09-13T10:41:51Z</time>
      </trkpt>
      <trkpt lat="43.34256" lon="5.55708">
        <ele>593.75146484375</ele>
        <time>2021-09-13T10:42:43Z</time>
      </trkpt>
      <trkpt lat="43.34258" lon="5.55707">
        <ele>593.75146484375</ele>
        <time>2021-09-13T11:19:01Z</time>
      </trkpt>
      <trkpt lat="43.34258" lon="5.55707">
        <ele>595.193359375</ele>
        <time>2021-09-13T11:25:52Z</time>
      </trkpt>
      <trkpt lat="43.34257" lon="5.55707">
        <ele>595.193359375</ele>
        <time>2021-09-13T11:26:29Z</time>
      </trkpt>
      <trkpt lat="43.34256" lon="5.55704">
        <ele>595.193359375</ele>
        <time>2021-09-13T11:27:06Z</time>
      </trkpt>
      <trkpt lat="43.34257" lon="5.55705">
        <ele>595.67407226562</ele>
        <time>2021-09-13T11:27:58Z</time>
      </trkpt>
      <trkpt lat="43.34262" lon="5.55703">
        <ele>596.15478515625</ele>
        <time>2021-09-13T11:28:25Z</time>
      </trkpt>
      <trkpt lat="43.34265" lon="5.55696">
        <ele>598.55786132812</ele>
        <time>2021-09-13T11:28:41Z</time>
      </trkpt>
      <trkpt lat="43.34268" lon="5.55695">
        <ele>599.03857421875</ele>
        <time>2021-09-13T11:28:54Z</time>
      </trkpt>
      <trkpt lat="43.34284" lon="5.55693">
        <ele>599.03857421875</ele>
        <time>2021-09-13T11:29:15Z</time>
      </trkpt>
      <trkpt lat="43.34298" lon="5.55684">
        <ele>600.48071289062</ele>
        <time>2021-09-13T11:29:31Z</time>
      </trkpt>
      <trkpt lat="43.34309" lon="5.55678">
        <ele>600.96118164062</ele>
        <time>2021-09-13T11:29:43Z</time>
      </trkpt>
      <trkpt lat="43.34324" lon="5.55669">
        <ele>601.44189453125</ele>
        <time>2021-09-13T11:30:02Z</time>
      </trkpt>
      <trkpt lat="43.3434" lon="5.55649">
        <ele>601.92260742188</ele>
        <time>2021-09-13T11:30:25Z</time>
      </trkpt>
      <trkpt lat="43.34354" lon="5.55642">
        <ele>605.28735351562</ele>
        <time>2021-09-13T11:30:46Z</time>
      </trkpt>
      <trkpt lat="43.34364" lon="5.55646">
        <ele>608.65185546875</ele>
        <time>2021-09-13T11:31:05Z</time>
      </trkpt>
      <trkpt lat="43.34371" lon="5.55662">
        <ele>611.53588867188</ele>
        <time>2021-09-13T11:31:23Z</time>
      </trkpt>
      <trkpt lat="43.34385" lon="5.55692">
        <ele>612.97778320312</ele>
        <time>2021-09-13T11:31:50Z</time>
      </trkpt>
      <trkpt lat="43.34386" lon="5.55699">
        <ele>613.45849609375</ele>
        <time>2021-09-13T11:31:57Z</time>
      </trkpt>
      <trkpt lat="43.34387" lon="5.55715">
        <ele>614.900390625</ele>
        <time>2021-09-13T11:32:24Z</time>
      </trkpt>
      <trkpt lat="43.34389" lon="5.55747">
        <ele>616.82299804688</ele>
        <time>2021-09-13T11:32:57Z</time>
      </trkpt>
      <trkpt lat="43.3439" lon="5.55757">
        <ele>617.3037109375</ele>
        <time>2021-09-13T11:33:14Z</time>
      </trkpt>
      <trkpt lat="43.34392" lon="5.55779">
        <ele>618.74560546875</ele>
        <time>2021-09-13T11:33:37Z</time>
      </trkpt>
      <trkpt lat="43.34396" lon="5.55798">
        <ele>622.1103515625</ele>
        <time>2021-09-13T11:34:01Z</time>
      </trkpt>
      <trkpt lat="43.34399" lon="5.55814">
        <ele>624.513671875</ele>
        <time>2021-09-13T11:34:18Z</time>
      </trkpt>
      <trkpt lat="43.34402" lon="5.55829">
        <ele>627.39770507812</ele>
        <time>2021-09-13T11:34:37Z</time>
      </trkpt>
      <trkpt lat="43.34402" lon="5.55832">
        <ele>627.87817382812</ele>
        <time>2021-09-13T11:34:51Z</time>
      </trkpt>
      <trkpt lat="43.34401" lon="5.55834">
        <ele>628.35888671875</ele>
        <time>2021-09-13T11:35:18Z</time>
      </trkpt>
      <trkpt lat="43.34401" lon="5.55848">
        <ele>629.32006835938</ele>
        <time>2021-09-13T11:35:36Z</time>
      </trkpt>
      <trkpt lat="43.34403" lon="5.55861">
        <ele>629.80078125</ele>
        <time>2021-09-13T11:35:56Z</time>
      </trkpt>
      <trkpt lat="43.34401" lon="5.5589">
        <ele>631.24291992188</ele>
        <time>2021-09-13T11:36:21Z</time>
      </trkpt>
      <trkpt lat="43.34404" lon="5.55913">
        <ele>634.12670898438</ele>
        <time>2021-09-13T11:36:41Z</time>
      </trkpt>
      <trkpt lat="43.34415" lon="5.5594">
        <ele>636.04956054688</ele>
        <time>2021-09-13T11:37:07Z</time>
      </trkpt>
      <trkpt lat="43.34417" lon="5.55942">
        <ele>636.04956054688</ele>
        <time>2021-09-13T11:37:09Z</time>
      </trkpt>
      <trkpt lat="43.34435" lon="5.55956">
        <ele>638.45288085938</ele>
        <time>2021-09-13T11:37:32Z</time>
      </trkpt>
      <trkpt lat="43.34449" lon="5.55956">
        <ele>641.33666992188</ele>
        <time>2021-09-13T11:37:52Z</time>
      </trkpt>
      <trkpt lat="43.34462" lon="5.55947">
        <ele>644.701171875</ele>
        <time>2021-09-13T11:38:15Z</time>
      </trkpt>
      <trkpt lat="43.34464" lon="5.55936">
        <ele>648.06591796875</ele>
        <time>2021-09-13T11:38:29Z</time>
      </trkpt>
      <trkpt lat="43.34464" lon="5.55924">
        <ele>649.98852539062</ele>
        <time>2021-09-13T11:38:44Z</time>
      </trkpt>
      <trkpt lat="43.34465" lon="5.55921">
        <ele>651.43041992188</ele>
        <time>2021-09-13T11:38:47Z</time>
      </trkpt>
      <trkpt lat="43.3447" lon="5.55906">
        <ele>654.31469726562</ele>
        <time>2021-09-13T11:39:06Z</time>
      </trkpt>
      <trkpt lat="43.34478" lon="5.55882">
        <ele>657.19848632812</ele>
        <time>2021-09-13T11:39:32Z</time>
      </trkpt>
      <trkpt lat="43.3449" lon="5.55859">
        <ele>659.60180664062</ele>
        <time>2021-09-13T11:40:00Z</time>
      </trkpt>
      <trkpt lat="43.34497" lon="5.5583">
        <ele>662.00512695312</ele>
        <time>2021-09-13T11:40:27Z</time>
      </trkpt>
      <trkpt lat="43.34497" lon="5.55829">
        <ele>662.00512695312</ele>
        <time>2021-09-13T11:40:28Z</time>
      </trkpt>
      <trkpt lat="43.345" lon="5.55805">
        <ele>663.44702148438</ele>
        <time>2021-09-13T11:40:48Z</time>
      </trkpt>
      <trkpt lat="43.34502" lon="5.55786">
        <ele>663.44702148438</ele>
        <time>2021-09-13T11:41:05Z</time>
      </trkpt>
      <trkpt lat="43.34504" lon="5.55778">
        <ele>664.408203125</ele>
        <time>2021-09-13T11:41:12Z</time>
      </trkpt>
      <trkpt lat="43.34501" lon="5.55762">
        <ele>664.408203125</ele>
        <time>2021-09-13T11:41:28Z</time>
      </trkpt>
      <trkpt lat="43.34496" lon="5.55743">
        <ele>665.36962890625</ele>
        <time>2021-09-13T11:41:43Z</time>
      </trkpt>
      <trkpt lat="43.34492" lon="5.55713">
        <ele>667.29223632812</ele>
        <time>2021-09-13T11:42:08Z</time>
      </trkpt>
      <trkpt lat="43.3449" lon="5.55695">
        <ele>667.77270507812</ele>
        <time>2021-09-13T11:42:23Z</time>
      </trkpt>
      <trkpt lat="43.34489" lon="5.55675">
        <ele>669.69580078125</ele>
        <time>2021-09-13T11:42:41Z</time>
      </trkpt>
      <trkpt lat="43.34486" lon="5.55656">
        <ele>671.1376953125</ele>
        <time>2021-09-13T11:42:57Z</time>
      </trkpt>
      <trkpt lat="43.34486" lon="5.55629">
        <ele>673.541015625</ele>
        <time>2021-09-13T11:43:20Z</time>
      </trkpt>
      <trkpt lat="43.34487" lon="5.55609">
        <ele>675.46337890625</ele>
        <time>2021-09-13T11:43:39Z</time>
      </trkpt>
      <trkpt lat="43.34485" lon="5.55582">
        <ele>677.86669921875</ele>
        <time>2021-09-13T11:44:03Z</time>
      </trkpt>
      <trkpt lat="43.34483" lon="5.5556">
        <ele>679.30859375</ele>
        <time>2021-09-13T11:44:22Z</time>
      </trkpt>
      <trkpt lat="43.34485" lon="5.5554">
        <ele>680.75073242188</ele>
        <time>2021-09-13T11:44:40Z</time>
      </trkpt>
      <trkpt lat="43.34486" lon="5.55522">
        <ele>682.67333984375</ele>
        <time>2021-09-13T11:44:58Z</time>
      </trkpt>
      <trkpt lat="43.34491" lon="5.55499">
        <ele>685.07690429688</ele>
        <time>2021-09-13T11:45:20Z</time>
      </trkpt>
      <trkpt lat="43.34493" lon="5.5548">
        <ele>686.99926757812</ele>
        <time>2021-09-13T11:45:39Z</time>
      </trkpt>
      <trkpt lat="43.34496" lon="5.55461">
        <ele>689.40258789062</ele>
        <time>2021-09-13T11:46:00Z</time>
      </trkpt>
      <trkpt lat="43.34497" lon="5.55437">
        <ele>691.80590820312</ele>
        <time>2021-09-13T11:46:22Z</time>
      </trkpt>
      <trkpt lat="43.34494" lon="5.5542">
        <ele>693.24780273438</ele>
        <time>2021-09-13T11:46:40Z</time>
      </trkpt>
      <trkpt lat="43.34497" lon="5.55398">
        <ele>694.20922851562</ele>
        <time>2021-09-13T11:46:58Z</time>
      </trkpt>
      <trkpt lat="43.34499" lon="5.55393">
        <ele>694.68969726562</ele>
        <time>2021-09-13T11:47:03Z</time>
      </trkpt>
      <trkpt lat="43.34505" lon="5.55387">
        <ele>695.65112304688</ele>
        <time>2021-09-13T11:47:12Z</time>
      </trkpt>
      <trkpt lat="43.34518" lon="5.55394">
        <ele>694.20922851562</ele>
        <time>2021-09-13T11:47:28Z</time>
      </trkpt>
      <trkpt lat="43.34521" lon="5.55397">
        <ele>694.20922851562</ele>
        <time>2021-09-13T11:47:41Z</time>
      </trkpt>
      <trkpt lat="43.34521" lon="5.55394">
        <ele>694.68969726562</ele>
        <time>2021-09-13T11:48:15Z</time>
      </trkpt>
      <trkpt lat="43.34522" lon="5.55396">
        <ele>694.20922851562</ele>
        <time>2021-09-13T11:48:32Z</time>
      </trkpt>
      <trkpt lat="43.34522" lon="5.55396">
        <ele>694.68969726562</ele>
        <time>2021-09-13T11:48:54Z</time>
      </trkpt>
      <trkpt lat="43.34521" lon="5.55398">
        <ele>694.68969726562</ele>
        <time>2021-09-13T11:49:19Z</time>
      </trkpt>
      <trkpt lat="43.3452" lon="5.55397">
        <ele>694.68969726562</ele>
        <time>2021-09-13T11:50:28Z</time>
      </trkpt>
      <trkpt lat="43.3452" lon="5.55397">
        <ele>695.17041015625</ele>
        <time>2021-09-13T11:51:09Z</time>
      </trkpt>
      <trkpt lat="43.34521" lon="5.55397">
        <ele>695.17041015625</ele>
        <time>2021-09-13T11:52:04Z</time>
      </trkpt>
      <trkpt lat="43.34521" lon="5.55397">
        <ele>695.65112304688</ele>
        <time>2021-09-13T11:55:42Z</time>
      </trkpt>
      <trkpt lat="43.34516" lon="5.55403">
        <ele>696.1318359375</ele>
        <time>2021-09-13T11:56:27Z</time>
      </trkpt>
      <trkpt lat="43.34508" lon="5.55394">
        <ele>697.09301757812</ele>
        <time>2021-09-13T11:56:37Z</time>
      </trkpt>
      <trkpt lat="43.34505" lon="5.55389">
        <ele>697.57373046875</ele>
        <time>2021-09-13T11:56:41Z</time>
      </trkpt>
      <trkpt lat="43.34506" lon="5.55385">
        <ele>697.57373046875</ele>
        <time>2021-09-13T11:56:43Z</time>
      </trkpt>
      <trkpt lat="43.34509" lon="5.5536">
        <ele>699.015625</ele>
        <time>2021-09-13T11:57:04Z</time>
      </trkpt>
      <trkpt lat="43.3451" lon="5.55338">
        <ele>702.38037109375</ele>
        <time>2021-09-13T11:57:22Z</time>
      </trkpt>
      <trkpt lat="43.34505" lon="5.55316">
        <ele>705.26440429688</ele>
        <time>2021-09-13T11:57:40Z</time>
      </trkpt>
      <trkpt lat="43.34502" lon="5.55301">
        <ele>706.2255859375</ele>
        <time>2021-09-13T11:57:51Z</time>
      </trkpt>
      <trkpt lat="43.34519" lon="5.55294">
        <ele>706.2255859375</ele>
        <time>2021-09-13T11:58:08Z</time>
      </trkpt>
      <trkpt lat="43.3452" lon="5.55293">
        <ele>706.2255859375</ele>
        <time>2021-09-13T11:58:09Z</time>
      </trkpt>
      <trkpt lat="43.34531" lon="5.55287">
        <ele>705.7451171875</ele>
        <time>2021-09-13T11:58:26Z</time>
      </trkpt>
      <trkpt lat="43.34538" lon="5.55264">
        <ele>707.66772460938</ele>
        <time>2021-09-13T11:58:43Z</time>
      </trkpt>
      <trkpt lat="43.34548" lon="5.5525">
        <ele>708.1484375</ele>
        <time>2021-09-13T11:58:57Z</time>
      </trkpt>
      <trkpt lat="43.34555" lon="5.55236">
        <ele>708.62890625</ele>
        <time>2021-09-13T11:59:13Z</time>
      </trkpt>
      <trkpt lat="43.34556" lon="5.55222">
        <ele>709.10961914062</ele>
        <time>2021-09-13T11:59:26Z</time>
      </trkpt>
      <trkpt lat="43.34553" lon="5.55214">
        <ele>710.07080078125</ele>
        <time>2021-09-13T11:59:40Z</time>
      </trkpt>
      <trkpt lat="43.34548" lon="5.55206">
        <ele>711.51293945312</ele>
        <time>2021-09-13T11:59:53Z</time>
      </trkpt>
      <trkpt lat="43.34544" lon="5.55201">
        <ele>711.51293945312</ele>
        <time>2021-09-13T12:00:09Z</time>
      </trkpt>
      <trkpt lat="43.34534" lon="5.55178">
        <ele>713.435546875</ele>
        <time>2021-09-13T12:00:31Z</time>
      </trkpt>
      <trkpt lat="43.34533" lon="5.55172">
        <ele>713.435546875</ele>
        <time>2021-09-13T12:00:36Z</time>
      </trkpt>
      <trkpt lat="43.34532" lon="5.55162">
        <ele>713.435546875</ele>
        <time>2021-09-13T12:00:55Z</time>
      </trkpt>
      <trkpt lat="43.34531" lon="5.55159">
        <ele>713.916015625</ele>
        <time>2021-09-13T12:00:58Z</time>
      </trkpt>
      <trkpt lat="43.34526" lon="5.5514">
        <ele>714.87744140625</ele>
        <time>2021-09-13T12:01:16Z</time>
      </trkpt>
      <trkpt lat="43.34519" lon="5.55125">
        <ele>715.35815429688</ele>
        <time>2021-09-13T12:01:30Z</time>
      </trkpt>
      <trkpt lat="43.34515" lon="5.55117">
        <ele>715.8388671875</ele>
        <time>2021-09-13T12:01:46Z</time>
      </trkpt>
      <trkpt lat="43.34515" lon="5.55117">
        <ele>716.31958007812</ele>
        <time>2021-09-13T12:01:56Z</time>
      </trkpt>
      <trkpt lat="43.34512" lon="5.55113">
        <ele>716.31958007812</ele>
        <time>2021-09-13T12:02:03Z</time>
      </trkpt>
      <trkpt lat="43.34511" lon="5.55104">
        <ele>716.31958007812</ele>
        <time>2021-09-13T12:02:14Z</time>
      </trkpt>
      <trkpt lat="43.34509" lon="5.55099">
        <ele>716.80029296875</ele>
        <time>2021-09-13T12:02:18Z</time>
      </trkpt>
      <trkpt lat="43.34498" lon="5.55078">
        <ele>716.80029296875</ele>
        <time>2021-09-13T12:02:36Z</time>
      </trkpt>
      <trkpt lat="43.34495" lon="5.55072">
        <ele>716.31958007812</ele>
        <time>2021-09-13T12:02:41Z</time>
      </trkpt>
      <trkpt lat="43.34494" lon="5.55069">
        <ele>716.80029296875</ele>
        <time>2021-09-13T12:02:43Z</time>
      </trkpt>
      <trkpt lat="43.34492" lon="5.55068">
        <ele>716.31958007812</ele>
        <time>2021-09-13T12:02:45Z</time>
      </trkpt>
      <trkpt lat="43.34487" lon="5.55061">
        <ele>717.76147460938</ele>
        <time>2021-09-13T12:02:53Z</time>
      </trkpt>
      <trkpt lat="43.34481" lon="5.55057">
        <ele>717.76147460938</ele>
        <time>2021-09-13T12:03:08Z</time>
      </trkpt>
      <trkpt lat="43.34465" lon="5.55035">
        <ele>716.80029296875</ele>
        <time>2021-09-13T12:03:31Z</time>
      </trkpt>
      <trkpt lat="43.34463" lon="5.55031">
        <ele>716.80029296875</ele>
        <time>2021-09-13T12:03:36Z</time>
      </trkpt>
      <trkpt lat="43.3445" lon="5.55">
        <ele>716.31958007812</ele>
        <time>2021-09-13T12:04:00Z</time>
      </trkpt>
      <trkpt lat="43.34444" lon="5.54985">
        <ele>715.8388671875</ele>
        <time>2021-09-13T12:04:14Z</time>
      </trkpt>
      <trkpt lat="43.34427" lon="5.5498">
        <ele>715.35815429688</ele>
        <time>2021-09-13T12:04:32Z</time>
      </trkpt>
      <trkpt lat="43.34422" lon="5.54976">
        <ele>715.8388671875</ele>
        <time>2021-09-13T12:04:38Z</time>
      </trkpt>
      <trkpt lat="43.34407" lon="5.54965">
        <ele>716.31958007812</ele>
        <time>2021-09-13T12:04:55Z</time>
      </trkpt>
      <trkpt lat="43.34402" lon="5.54943">
        <ele>716.31958007812</ele>
        <time>2021-09-13T12:05:12Z</time>
      </trkpt>
      <trkpt lat="43.34399" lon="5.54916">
        <ele>715.8388671875</ele>
        <time>2021-09-13T12:05:33Z</time>
      </trkpt>
      <trkpt lat="43.34401" lon="5.54893">
        <ele>715.8388671875</ele>
        <time>2021-09-13T12:05:50Z</time>
      </trkpt>
      <trkpt lat="43.344" lon="5.5486">
        <ele>714.87744140625</ele>
        <time>2021-09-13T12:06:13Z</time>
      </trkpt>
      <trkpt lat="43.34402" lon="5.54842">
        <ele>712.95483398438</ele>
        <time>2021-09-13T12:06:27Z</time>
      </trkpt>
      <trkpt lat="43.34405" lon="5.54837">
        <ele>713.435546875</ele>
        <time>2021-09-13T12:06:31Z</time>
      </trkpt>
      <trkpt lat="43.34414" lon="5.5484">
        <ele>713.435546875</ele>
        <time>2021-09-13T12:06:41Z</time>
      </trkpt>
      <trkpt lat="43.34426" lon="5.54864">
        <ele>713.435546875</ele>
        <time>2021-09-13T12:06:59Z</time>
      </trkpt>
      <trkpt lat="43.34446" lon="5.54897">
        <ele>713.435546875</ele>
        <time>2021-09-13T12:07:28Z</time>
      </trkpt>
      <trkpt lat="43.34454" lon="5.54893">
        <ele>711.99365234375</ele>
        <time>2021-09-13T12:07:39Z</time>
      </trkpt>
      <trkpt lat="43.34455" lon="5.54882">
        <ele>711.51293945312</ele>
        <time>2021-09-13T12:07:48Z</time>
      </trkpt>
      <trkpt lat="43.34449" lon="5.54855">
        <ele>709.59033203125</ele>
        <time>2021-09-13T12:08:08Z</time>
      </trkpt>
      <trkpt lat="43.34448" lon="5.54821">
        <ele>706.2255859375</ele>
        <time>2021-09-13T12:08:31Z</time>
      </trkpt>
      <trkpt lat="43.3445" lon="5.54789">
        <ele>704.30322265625</ele>
        <time>2021-09-13T12:08:53Z</time>
      </trkpt>
      <trkpt lat="43.34461" lon="5.54754">
        <ele>702.38037109375</ele>
        <time>2021-09-13T12:09:19Z</time>
      </trkpt>
      <trkpt lat="43.34473" lon="5.54734">
        <ele>699.49633789062</ele>
        <time>2021-09-13T12:09:38Z</time>
      </trkpt>
      <trkpt lat="43.34474" lon="5.54731">
        <ele>699.49633789062</ele>
        <time>2021-09-13T12:09:40Z</time>
      </trkpt>
      <trkpt lat="43.34492" lon="5.547">
        <ele>696.61254882812</ele>
        <time>2021-09-13T12:10:08Z</time>
      </trkpt>
      <trkpt lat="43.34504" lon="5.54678">
        <ele>693.24780273438</ele>
        <time>2021-09-13T12:10:29Z</time>
      </trkpt>
      <trkpt lat="43.34516" lon="5.54646">
        <ele>690.84448242188</ele>
        <time>2021-09-13T12:10:53Z</time>
      </trkpt>
      <trkpt lat="43.3453" lon="5.54618">
        <ele>687.96069335938</ele>
        <time>2021-09-13T12:11:17Z</time>
      </trkpt>
      <trkpt lat="43.34546" lon="5.54597">
        <ele>686.99926757812</ele>
        <time>2021-09-13T12:11:36Z</time>
      </trkpt>
      <trkpt lat="43.34566" lon="5.54566">
        <ele>683.15380859375</ele>
        <time>2021-09-13T12:12:04Z</time>
      </trkpt>
      <trkpt lat="43.34566" lon="5.54566">
        <ele>683.15380859375</ele>
        <time>2021-09-13T12:12:05Z</time>
      </trkpt>
      <trkpt lat="43.34562" lon="5.54571">
        <ele>684.11547851562</ele>
        <time>2021-09-13T12:12:14Z</time>
      </trkpt>
      <trkpt lat="43.34555" lon="5.54587">
        <ele>685.07690429688</ele>
        <time>2021-09-13T12:12:28Z</time>
      </trkpt>
      <trkpt lat="43.34542" lon="5.54601">
        <ele>687.47998046875</ele>
        <time>2021-09-13T12:12:46Z</time>
      </trkpt>
      <trkpt lat="43.34541" lon="5.54602">
        <ele>686.99926757812</ele>
        <time>2021-09-13T12:12:56Z</time>
      </trkpt>
      <trkpt lat="43.34536" lon="5.54601">
        <ele>686.51879882812</ele>
        <time>2021-09-13T12:13:00Z</time>
      </trkpt>
      <trkpt lat="43.34524" lon="5.54598">
        <ele>686.51879882812</ele>
        <time>2021-09-13T12:13:11Z</time>
      </trkpt>
      <trkpt lat="43.34522" lon="5.54596">
        <ele>686.0380859375</ele>
        <time>2021-09-13T12:13:13Z</time>
      </trkpt>
      <trkpt lat="43.3452" lon="5.54578">
        <ele>683.63452148438</ele>
        <time>2021-09-13T12:13:26Z</time>
      </trkpt>
      <trkpt lat="43.34517" lon="5.54551">
        <ele>680.27001953125</ele>
        <time>2021-09-13T12:13:43Z</time>
      </trkpt>
      <trkpt lat="43.34516" lon="5.54546">
        <ele>679.78930664062</ele>
        <time>2021-09-13T12:13:46Z</time>
      </trkpt>
      <trkpt lat="43.34514" lon="5.5454">
        <ele>679.78930664062</ele>
        <time>2021-09-13T12:13:50Z</time>
      </trkpt>
      <trkpt lat="43.34514" lon="5.54519">
        <ele>676.4248046875</ele>
        <time>2021-09-13T12:14:06Z</time>
      </trkpt>
      <trkpt lat="43.34512" lon="5.54497">
        <ele>673.541015625</ele>
        <time>2021-09-13T12:14:23Z</time>
      </trkpt>
      <trkpt lat="43.34514" lon="5.54475">
        <ele>670.17626953125</ele>
        <time>2021-09-13T12:14:43Z</time>
      </trkpt>
      <trkpt lat="43.34509" lon="5.54456">
        <ele>666.8115234375</ele>
        <time>2021-09-13T12:15:00Z</time>
      </trkpt>
      <trkpt lat="43.3451" lon="5.54435">
        <ele>664.408203125</ele>
        <time>2021-09-13T12:15:18Z</time>
      </trkpt>
      <trkpt lat="43.34505" lon="5.54415">
        <ele>661.5244140625</ele>
        <time>2021-09-13T12:15:35Z</time>
      </trkpt>
      <trkpt lat="43.34502" lon="5.54398">
        <ele>657.67919921875</ele>
        <time>2021-09-13T12:15:53Z</time>
      </trkpt>
      <trkpt lat="43.34492" lon="5.54399">
        <ele>653.833984375</ele>
        <time>2021-09-13T12:16:09Z</time>
      </trkpt>
      <trkpt lat="43.34491" lon="5.54398">
        <ele>653.833984375</ele>
        <time>2021-09-13T12:16:10Z</time>
      </trkpt>
      <trkpt lat="43.3448" lon="5.54391">
        <ele>649.98852539062</ele>
        <time>2021-09-13T12:16:24Z</time>
      </trkpt>
      <trkpt lat="43.34483" lon="5.54373">
        <ele>646.14331054688</ele>
        <time>2021-09-13T12:16:39Z</time>
      </trkpt>
      <trkpt lat="43.34484" lon="5.54369">
        <ele>645.18188476562</ele>
        <time>2021-09-13T12:16:43Z</time>
      </trkpt>
      <trkpt lat="43.34486" lon="5.5436">
        <ele>643.73999023438</ele>
        <time>2021-09-13T12:16:50Z</time>
      </trkpt>
      <trkpt lat="43.34486" lon="5.5435">
        <ele>642.29809570312</ele>
        <time>2021-09-13T12:17:08Z</time>
      </trkpt>
      <trkpt lat="43.34482" lon="5.54348">
        <ele>641.33666992188</ele>
        <time>2021-09-13T12:17:18Z</time>
      </trkpt>
      <trkpt lat="43.34476" lon="5.54333">
        <ele>637.97216796875</ele>
        <time>2021-09-13T12:17:33Z</time>
      </trkpt>
      <trkpt lat="43.34476" lon="5.54327">
        <ele>637.0107421875</ele>
        <time>2021-09-13T12:17:38Z</time>
      </trkpt>
      <trkpt lat="43.34476" lon="5.54321">
        <ele>635.56860351562</ele>
        <time>2021-09-13T12:17:41Z</time>
      </trkpt>
      <trkpt lat="43.34476" lon="5.54319">
        <ele>635.08813476562</ele>
        <time>2021-09-13T12:17:42Z</time>
      </trkpt>
      <trkpt lat="43.34471" lon="5.54307">
        <ele>633.16528320312</ele>
        <time>2021-09-13T12:17:53Z</time>
      </trkpt>
      <trkpt lat="43.34472" lon="5.54304">
        <ele>631.72338867188</ele>
        <time>2021-09-13T12:17:55Z</time>
      </trkpt>
      <trkpt lat="43.34476" lon="5.54288">
        <ele>628.83959960938</ele>
        <time>2021-09-13T12:18:09Z</time>
      </trkpt>
      <trkpt lat="43.3448" lon="5.54275">
        <ele>625.47485351562</ele>
        <time>2021-09-13T12:18:23Z</time>
      </trkpt>
      <trkpt lat="43.34485" lon="5.54257">
        <ele>622.1103515625</ele>
        <time>2021-09-13T12:18:37Z</time>
      </trkpt>
      <trkpt lat="43.34485" lon="5.54252">
        <ele>622.1103515625</ele>
        <time>2021-09-13T12:18:41Z</time>
      </trkpt>
      <trkpt lat="43.34493" lon="5.54242">
        <ele>618.74560546875</ele>
        <time>2021-09-13T12:18:54Z</time>
      </trkpt>
      <trkpt lat="43.34492" lon="5.54236">
        <ele>618.74560546875</ele>
        <time>2021-09-13T12:18:59Z</time>
      </trkpt>
      <trkpt lat="43.3449" lon="5.54234">
        <ele>617.7841796875</ele>
        <time>2021-09-13T12:19:02Z</time>
      </trkpt>
      <trkpt lat="43.34484" lon="5.54217">
        <ele>614.900390625</ele>
        <time>2021-09-13T12:19:19Z</time>
      </trkpt>
      <trkpt lat="43.34477" lon="5.54195">
        <ele>612.0166015625</ele>
        <time>2021-09-13T12:19:37Z</time>
      </trkpt>
      <trkpt lat="43.34474" lon="5.54187">
        <ele>611.53588867188</ele>
        <time>2021-09-13T12:19:43Z</time>
      </trkpt>
      <trkpt lat="43.34469" lon="5.54165">
        <ele>609.61328125</ele>
        <time>2021-09-13T12:20:01Z</time>
      </trkpt>
      <trkpt lat="43.3447" lon="5.54165">
        <ele>609.13256835938</ele>
        <time>2021-09-13T12:21:39Z</time>
      </trkpt>
      <trkpt lat="43.3447" lon="5.54166">
        <ele>609.61328125</ele>
        <time>2021-09-13T12:23:11Z</time>
      </trkpt>
      <trkpt lat="43.3447" lon="5.54166">
        <ele>609.61328125</ele>
        <time>2021-09-13T12:25:03Z</time>
      </trkpt>
      <trkpt lat="43.34468" lon="5.54155">
        <ele>609.13256835938</ele>
        <time>2021-09-13T12:25:33Z</time>
      </trkpt>
      <trkpt lat="43.34462" lon="5.54128">
        <ele>607.2099609375</ele>
        <time>2021-09-13T12:25:56Z</time>
      </trkpt>
      <trkpt lat="43.34462" lon="5.54118">
        <ele>606.72924804688</ele>
        <time>2021-09-13T12:26:03Z</time>
      </trkpt>
      <trkpt lat="43.34467" lon="5.54101">
        <ele>605.76806640625</ele>
        <time>2021-09-13T12:26:17Z</time>
      </trkpt>
      <trkpt lat="43.34458" lon="5.54086">
        <ele>604.326171875</ele>
        <time>2021-09-13T12:26:32Z</time>
      </trkpt>
      <trkpt lat="43.34452" lon="5.54059">
        <ele>603.84521484375</ele>
        <time>2021-09-13T12:26:53Z</time>
      </trkpt>
      <trkpt lat="43.34448" lon="5.54036">
        <ele>602.40307617188</ele>
        <time>2021-09-13T12:27:16Z</time>
      </trkpt>
      <trkpt lat="43.34433" lon="5.54013">
        <ele>600.96118164062</ele>
        <time>2021-09-13T12:27:37Z</time>
      </trkpt>
      <trkpt lat="43.34423" lon="5.5398">
        <ele>600.96118164062</ele>
        <time>2021-09-13T12:28:04Z</time>
      </trkpt>
      <trkpt lat="43.34424" lon="5.53968">
        <ele>600.96118164062</ele>
        <time>2021-09-13T12:28:14Z</time>
      </trkpt>
      <trkpt lat="43.34427" lon="5.53966">
        <ele>600.48071289062</ele>
        <time>2021-09-13T12:28:17Z</time>
      </trkpt>
      <trkpt lat="43.34432" lon="5.53957">
        <ele>599.51928710938</ele>
        <time>2021-09-13T12:28:31Z</time>
      </trkpt>
      <trkpt lat="43.34434" lon="5.53955">
        <ele>600</ele>
        <time>2021-09-13T12:28:45Z</time>
      </trkpt>
      <trkpt lat="43.34431" lon="5.53958">
        <ele>599.51928710938</ele>
        <time>2021-09-13T12:29:03Z</time>
      </trkpt>
      <trkpt lat="43.34432" lon="5.53957">
        <ele>599.03857421875</ele>
        <time>2021-09-13T12:29:14Z</time>
      </trkpt>
      <trkpt lat="43.34436" lon="5.53954">
        <ele>599.51928710938</ele>
        <time>2021-09-13T12:29:33Z</time>
      </trkpt>
      <trkpt lat="43.34436" lon="5.53955">
        <ele>599.51928710938</ele>
        <time>2021-09-13T12:29:52Z</time>
      </trkpt>
      <trkpt lat="43.34433" lon="5.53959">
        <ele>599.03857421875</ele>
        <time>2021-09-13T12:30:09Z</time>
      </trkpt>
      <trkpt lat="43.34432" lon="5.53957">
        <ele>599.51928710938</ele>
        <time>2021-09-13T12:30:32Z</time>
      </trkpt>
      <trkpt lat="43.34431" lon="5.53958">
        <ele>599.03857421875</ele>
        <time>2021-09-13T12:30:47Z</time>
      </trkpt>
      <trkpt lat="43.34432" lon="5.53957">
        <ele>599.03857421875</ele>
        <time>2021-09-13T12:31:18Z</time>
      </trkpt>
      <trkpt lat="43.34431" lon="5.53949">
        <ele>598.55786132812</ele>
        <time>2021-09-13T12:31:31Z</time>
      </trkpt>
      <trkpt lat="43.34418" lon="5.53918">
        <ele>596.63549804688</ele>
        <time>2021-09-13T12:31:57Z</time>
      </trkpt>
      <trkpt lat="43.34417" lon="5.53907">
        <ele>597.5966796875</ele>
        <time>2021-09-13T12:32:11Z</time>
      </trkpt>
      <trkpt lat="43.34418" lon="5.53894">
        <ele>601.44189453125</ele>
        <time>2021-09-13T12:32:27Z</time>
      </trkpt>
      <trkpt lat="43.34417" lon="5.5388">
        <ele>603.36450195312</ele>
        <time>2021-09-13T12:32:42Z</time>
      </trkpt>
      <trkpt lat="43.34418" lon="5.53848">
        <ele>604.326171875</ele>
        <time>2021-09-13T12:33:05Z</time>
      </trkpt>
      <trkpt lat="43.34426" lon="5.53819">
        <ele>604.806640625</ele>
        <time>2021-09-13T12:33:27Z</time>
      </trkpt>
      <trkpt lat="43.34429" lon="5.53797">
        <ele>604.806640625</ele>
        <time>2021-09-13T12:33:43Z</time>
      </trkpt>
      <trkpt lat="43.34429" lon="5.53792">
        <ele>604.806640625</ele>
        <time>2021-09-13T12:33:47Z</time>
      </trkpt>
      <trkpt lat="43.34429" lon="5.53787">
        <ele>604.326171875</ele>
        <time>2021-09-13T12:33:50Z</time>
      </trkpt>
      <trkpt lat="43.34429" lon="5.53779">
        <ele>603.36450195312</ele>
        <time>2021-09-13T12:33:56Z</time>
      </trkpt>
      <trkpt lat="43.34444" lon="5.53761">
        <ele>603.36450195312</ele>
        <time>2021-09-13T12:34:15Z</time>
      </trkpt>
      <trkpt lat="43.34451" lon="5.53764">
        <ele>603.36450195312</ele>
        <time>2021-09-13T12:34:21Z</time>
      </trkpt>
      <trkpt lat="43.34454" lon="5.53762">
        <ele>603.84521484375</ele>
        <time>2021-09-13T12:34:24Z</time>
      </trkpt>
      <trkpt lat="43.34467" lon="5.53767">
        <ele>604.806640625</ele>
        <time>2021-09-13T12:34:43Z</time>
      </trkpt>
      <trkpt lat="43.34474" lon="5.53775">
        <ele>604.806640625</ele>
        <time>2021-09-13T12:34:56Z</time>
      </trkpt>
      <trkpt lat="43.34477" lon="5.53771">
        <ele>603.84521484375</ele>
        <time>2021-09-13T12:35:10Z</time>
      </trkpt>
      <trkpt lat="43.34488" lon="5.53767">
        <ele>600.96118164062</ele>
        <time>2021-09-13T12:35:23Z</time>
      </trkpt>
      <trkpt lat="43.34494" lon="5.53764">
        <ele>599.03857421875</ele>
        <time>2021-09-13T12:35:37Z</time>
      </trkpt>
      <trkpt lat="43.34495" lon="5.53763">
        <ele>598.55786132812</ele>
        <time>2021-09-13T12:35:40Z</time>
      </trkpt>
      <trkpt lat="43.34504" lon="5.53761">
        <ele>595.193359375</ele>
        <time>2021-09-13T12:35:57Z</time>
      </trkpt>
      <trkpt lat="43.34521" lon="5.53751">
        <ele>594.23217773438</ele>
        <time>2021-09-13T12:36:13Z</time>
      </trkpt>
      <trkpt lat="43.34524" lon="5.53743">
        <ele>595.193359375</ele>
        <time>2021-09-13T12:36:28Z</time>
      </trkpt>
      <trkpt lat="43.34524" lon="5.53743">
        <ele>595.193359375</ele>
        <time>2021-09-13T12:37:24Z</time>
      </trkpt>
      <trkpt lat="43.34525" lon="5.53743">
        <ele>594.71264648438</ele>
        <time>2021-09-13T12:38:22Z</time>
      </trkpt>
      <trkpt lat="43.34525" lon="5.53707">
        <ele>594.23217773438</ele>
        <time>2021-09-13T12:38:46Z</time>
      </trkpt>
      <trkpt lat="43.34527" lon="5.53688">
        <ele>594.71264648438</ele>
        <time>2021-09-13T12:38:58Z</time>
      </trkpt>
      <trkpt lat="43.34527" lon="5.53668">
        <ele>595.67407226562</ele>
        <time>2021-09-13T12:39:18Z</time>
      </trkpt>
      <trkpt lat="43.34529" lon="5.53667">
        <ele>596.63549804688</ele>
        <time>2021-09-13T12:39:30Z</time>
      </trkpt>
      <trkpt lat="43.3453" lon="5.53666">
        <ele>596.15478515625</ele>
        <time>2021-09-13T12:39:45Z</time>
      </trkpt>
      <trkpt lat="43.34536" lon="5.53681">
        <ele>594.71264648438</ele>
        <time>2021-09-13T12:40:35Z</time>
      </trkpt>
      <trkpt lat="43.3458" lon="5.53632">
        <ele>595.67407226562</ele>
        <time>2021-09-13T12:47:06Z</time>
      </trkpt>
      <trkpt lat="43.34558" lon="5.53653">
        <ele>597.11596679688</ele>
        <time>2021-09-13T12:47:27Z</time>
      </trkpt>
      <trkpt lat="43.34559" lon="5.53656">
        <ele>596.63549804688</ele>
        <time>2021-09-13T12:47:31Z</time>
      </trkpt>
      <trkpt lat="43.34548" lon="5.53654">
        <ele>597.11596679688</ele>
        <time>2021-09-13T12:47:45Z</time>
      </trkpt>
      <trkpt lat="43.34539" lon="5.53647">
        <ele>599.03857421875</ele>
        <time>2021-09-13T12:48:11Z</time>
      </trkpt>
      <trkpt lat="43.34534" lon="5.5365">
        <ele>599.03857421875</ele>
        <time>2021-09-13T12:48:30Z</time>
      </trkpt>
      <trkpt lat="43.34532" lon="5.53653">
        <ele>598.55786132812</ele>
        <time>2021-09-13T12:49:14Z</time>
      </trkpt>
      <trkpt lat="43.34531" lon="5.5365">
        <ele>598.55786132812</ele>
        <time>2021-09-13T12:49:25Z</time>
      </trkpt>
      <trkpt lat="43.34531" lon="5.53633">
        <ele>602.40307617188</ele>
        <time>2021-09-13T12:49:42Z</time>
      </trkpt>
      <trkpt lat="43.34534" lon="5.5362">
        <ele>605.28735351562</ele>
        <time>2021-09-13T12:50:00Z</time>
      </trkpt>
      <trkpt lat="43.34538" lon="5.53602">
        <ele>608.17138671875</ele>
        <time>2021-09-13T12:50:19Z</time>
      </trkpt>
      <trkpt lat="43.34544" lon="5.53583">
        <ele>609.61328125</ele>
        <time>2021-09-13T12:50:37Z</time>
      </trkpt>
      <trkpt lat="43.3455" lon="5.53566">
        <ele>610.09375</ele>
        <time>2021-09-13T12:50:53Z</time>
      </trkpt>
      <trkpt lat="43.34551" lon="5.53546">
        <ele>610.57446289062</ele>
        <time>2021-09-13T12:51:10Z</time>
      </trkpt>
      <trkpt lat="43.34562" lon="5.53517">
        <ele>612.4970703125</ele>
        <time>2021-09-13T12:51:32Z</time>
      </trkpt>
      <trkpt lat="43.34571" lon="5.53503">
        <ele>615.86181640625</ele>
        <time>2021-09-13T12:51:50Z</time>
      </trkpt>
      <trkpt lat="43.3458" lon="5.53479">
        <ele>618.74560546875</ele>
        <time>2021-09-13T12:52:12Z</time>
      </trkpt>
      <trkpt lat="43.34586" lon="5.53459">
        <ele>620.18774414062</ele>
        <time>2021-09-13T12:52:34Z</time>
      </trkpt>
      <trkpt lat="43.34586" lon="5.53462">
        <ele>620.66845703125</ele>
        <time>2021-09-13T12:53:44Z</time>
      </trkpt>
      <trkpt lat="43.34586" lon="5.53463">
        <ele>620.18774414062</ele>
        <time>2021-09-13T12:55:18Z</time>
      </trkpt>
      <trkpt lat="43.34587" lon="5.53463">
        <ele>619.70703125</ele>
        <time>2021-09-13T12:56:47Z</time>
      </trkpt>
      <trkpt lat="43.34588" lon="5.53464">
        <ele>620.18774414062</ele>
        <time>2021-09-13T12:57:24Z</time>
      </trkpt>
      <trkpt lat="43.3459" lon="5.53464">
        <ele>619.70703125</ele>
        <time>2021-09-13T12:57:59Z</time>
      </trkpt>
      <trkpt lat="43.34592" lon="5.53452">
        <ele>619.70703125</ele>
        <time>2021-09-13T12:58:32Z</time>
      </trkpt>
      <trkpt lat="43.3459" lon="5.53429">
        <ele>620.66845703125</ele>
        <time>2021-09-13T12:58:48Z</time>
      </trkpt>
      <trkpt lat="43.34591" lon="5.53407">
        <ele>621.62963867188</ele>
        <time>2021-09-13T12:59:06Z</time>
      </trkpt>
      <trkpt lat="43.34587" lon="5.53396">
        <ele>623.07177734375</ele>
        <time>2021-09-13T12:59:20Z</time>
      </trkpt>
      <trkpt lat="43.34587" lon="5.53372">
        <ele>624.99438476562</ele>
        <time>2021-09-13T12:59:40Z</time>
      </trkpt>
      <trkpt lat="43.34583" lon="5.53362">
        <ele>626.43627929688</ele>
        <time>2021-09-13T12:59:51Z</time>
      </trkpt>
      <trkpt lat="43.34578" lon="5.53352">
        <ele>628.83959960938</ele>
        <time>2021-09-13T13:00:05Z</time>
      </trkpt>
      <trkpt lat="43.34567" lon="5.53341">
        <ele>631.72338867188</ele>
        <time>2021-09-13T13:00:21Z</time>
      </trkpt>
      <trkpt lat="43.34565" lon="5.53326">
        <ele>634.12670898438</ele>
        <time>2021-09-13T13:00:35Z</time>
      </trkpt>
      <trkpt lat="43.34558" lon="5.53318">
        <ele>635.08813476562</ele>
        <time>2021-09-13T13:00:51Z</time>
      </trkpt>
      <trkpt lat="43.34551" lon="5.53315">
        <ele>636.5302734375</ele>
        <time>2021-09-13T13:01:07Z</time>
      </trkpt>
      <trkpt lat="43.34547" lon="5.53307">
        <ele>639.4140625</ele>
        <time>2021-09-13T13:01:23Z</time>
      </trkpt>
      <trkpt lat="43.34549" lon="5.53294">
        <ele>641.33666992188</ele>
        <time>2021-09-13T13:01:40Z</time>
      </trkpt>
      <trkpt lat="43.34549" lon="5.53293">
        <ele>641.8173828125</ele>
        <time>2021-09-13T13:01:53Z</time>
      </trkpt>
      <trkpt lat="43.34546" lon="5.53286">
        <ele>644.220703125</ele>
        <time>2021-09-13T13:02:10Z</time>
      </trkpt>
      <trkpt lat="43.34539" lon="5.53288">
        <ele>646.6240234375</ele>
        <time>2021-09-13T13:02:24Z</time>
      </trkpt>
      <trkpt lat="43.34535" lon="5.53284">
        <ele>648.06591796875</ele>
        <time>2021-09-13T13:02:34Z</time>
      </trkpt>
      <trkpt lat="43.3453" lon="5.53279">
        <ele>649.98852539062</ele>
        <time>2021-09-13T13:02:47Z</time>
      </trkpt>
      <trkpt lat="43.34523" lon="5.53274">
        <ele>651.9111328125</ele>
        <time>2021-09-13T13:03:02Z</time>
      </trkpt>
      <trkpt lat="43.3452" lon="5.53269">
        <ele>654.31469726562</ele>
        <time>2021-09-13T13:03:16Z</time>
      </trkpt>
      <trkpt lat="43.34521" lon="5.53255">
        <ele>656.7177734375</ele>
        <time>2021-09-13T13:03:32Z</time>
      </trkpt>
      <trkpt lat="43.34513" lon="5.53246">
        <ele>659.12109375</ele>
        <time>2021-09-13T13:03:47Z</time>
      </trkpt>
      <trkpt lat="43.34508" lon="5.53239">
        <ele>660.56298828125</ele>
        <time>2021-09-13T13:03:59Z</time>
      </trkpt>
      <trkpt lat="43.34502" lon="5.53224">
        <ele>662.48559570312</ele>
        <time>2021-09-13T13:04:14Z</time>
      </trkpt>
      <trkpt lat="43.34489" lon="5.532">
        <ele>663.44702148438</ele>
        <time>2021-09-13T13:04:36Z</time>
      </trkpt>
      <trkpt lat="43.34481" lon="5.5319">
        <ele>664.408203125</ele>
        <time>2021-09-13T13:04:47Z</time>
      </trkpt>
      <trkpt lat="43.34473" lon="5.53175">
        <ele>664.408203125</ele>
        <time>2021-09-13T13:05:04Z</time>
      </trkpt>
      <trkpt lat="43.34472" lon="5.53172">
        <ele>663.92749023438</ele>
        <time>2021-09-13T13:05:24Z</time>
      </trkpt>
      <trkpt lat="43.34472" lon="5.53165">
        <ele>663.92749023438</ele>
        <time>2021-09-13T13:05:52Z</time>
      </trkpt>
      <trkpt lat="43.34472" lon="5.53161">
        <ele>663.44702148438</ele>
        <time>2021-09-13T13:06:11Z</time>
      </trkpt>
      <trkpt lat="43.34472" lon="5.53161">
        <ele>663.92749023438</ele>
        <time>2021-09-13T13:06:39Z</time>
      </trkpt>
      <trkpt lat="43.34472" lon="5.53162">
        <ele>663.92749023438</ele>
        <time>2021-09-13T13:06:58Z</time>
      </trkpt>
      <trkpt lat="43.34472" lon="5.53163">
        <ele>663.44702148438</ele>
        <time>2021-09-13T13:07:57Z</time>
      </trkpt>
      <trkpt lat="43.3447" lon="5.53162">
        <ele>663.44702148438</ele>
        <time>2021-09-13T13:09:33Z</time>
      </trkpt>
      <trkpt lat="43.34463" lon="5.53153">
        <ele>662.48559570312</ele>
        <time>2021-09-13T13:09:47Z</time>
      </trkpt>
      <trkpt lat="43.3445" lon="5.53139">
        <ele>662.00512695312</ele>
        <time>2021-09-13T13:10:07Z</time>
      </trkpt>
      <trkpt lat="43.34447" lon="5.53135">
        <ele>661.5244140625</ele>
        <time>2021-09-13T13:10:13Z</time>
      </trkpt>
      <trkpt lat="43.3443" lon="5.53123">
        <ele>660.56298828125</ele>
        <time>2021-09-13T13:10:34Z</time>
      </trkpt>
      <trkpt lat="43.3442" lon="5.53117">
        <ele>658.64038085938</ele>
        <time>2021-09-13T13:10:49Z</time>
      </trkpt>
      <trkpt lat="43.344" lon="5.53108">
        <ele>656.7177734375</ele>
        <time>2021-09-13T13:11:10Z</time>
      </trkpt>
      <trkpt lat="43.34375" lon="5.53097">
        <ele>655.27587890625</ele>
        <time>2021-09-13T13:11:36Z</time>
      </trkpt>
      <trkpt lat="43.34359" lon="5.5309">
        <ele>653.35327148438</ele>
        <time>2021-09-13T13:11:56Z</time>
      </trkpt>
      <trkpt lat="43.3434" lon="5.53068">
        <ele>651.43041992188</ele>
        <time>2021-09-13T13:12:22Z</time>
      </trkpt>
      <trkpt lat="43.34334" lon="5.53063">
        <ele>650.46923828125</ele>
        <time>2021-09-13T13:12:30Z</time>
      </trkpt>
      <trkpt lat="43.3433" lon="5.53054">
        <ele>649.5078125</ele>
        <time>2021-09-13T13:12:38Z</time>
      </trkpt>
      <trkpt lat="43.34317" lon="5.53036">
        <ele>648.54638671875</ele>
        <time>2021-09-13T13:12:58Z</time>
      </trkpt>
      <trkpt lat="43.34305" lon="5.53008">
        <ele>648.54638671875</ele>
        <time>2021-09-13T13:13:20Z</time>
      </trkpt>
      <trkpt lat="43.34296" lon="5.52974">
        <ele>649.98852539062</ele>
        <time>2021-09-13T13:13:46Z</time>
      </trkpt>
      <trkpt lat="43.34289" lon="5.52949">
        <ele>650.94970703125</ele>
        <time>2021-09-13T13:14:07Z</time>
      </trkpt>
      <trkpt lat="43.34283" lon="5.52926">
        <ele>650.94970703125</ele>
        <time>2021-09-13T13:14:26Z</time>
      </trkpt>
      <trkpt lat="43.34282" lon="5.52921">
        <ele>650.94970703125</ele>
        <time>2021-09-13T13:14:30Z</time>
      </trkpt>
      <trkpt lat="43.34282" lon="5.52896">
        <ele>651.9111328125</ele>
        <time>2021-09-13T13:14:50Z</time>
      </trkpt>
      <trkpt lat="43.34277" lon="5.52882">
        <ele>652.87255859375</ele>
        <time>2021-09-13T13:15:03Z</time>
      </trkpt>
      <trkpt lat="43.34266" lon="5.52861">
        <ele>653.833984375</ele>
        <time>2021-09-13T13:15:25Z</time>
      </trkpt>
      <trkpt lat="43.34251" lon="5.52842">
        <ele>652.87255859375</ele>
        <time>2021-09-13T13:15:47Z</time>
      </trkpt>
      <trkpt lat="43.34237" lon="5.52819">
        <ele>652.39184570312</ele>
        <time>2021-09-13T13:16:10Z</time>
      </trkpt>
      <trkpt lat="43.34226" lon="5.52807">
        <ele>650.46923828125</ele>
        <time>2021-09-13T13:16:26Z</time>
      </trkpt>
      <trkpt lat="43.34215" lon="5.52786">
        <ele>650.46923828125</ele>
        <time>2021-09-13T13:16:45Z</time>
      </trkpt>
      <trkpt lat="43.34213" lon="5.52781">
        <ele>650.46923828125</ele>
        <time>2021-09-13T13:16:51Z</time>
      </trkpt>
      <trkpt lat="43.34209" lon="5.52759">
        <ele>648.06591796875</ele>
        <time>2021-09-13T13:17:09Z</time>
      </trkpt>
      <trkpt lat="43.34207" lon="5.52759">
        <ele>648.06591796875</ele>
        <time>2021-09-13T13:17:25Z</time>
      </trkpt>
      <trkpt lat="43.34207" lon="5.52756">
        <ele>648.06591796875</ele>
        <time>2021-09-13T13:17:44Z</time>
      </trkpt>
      <trkpt lat="43.342" lon="5.52737">
        <ele>646.14331054688</ele>
        <time>2021-09-13T13:18:01Z</time>
      </trkpt>
      <trkpt lat="43.34193" lon="5.52731">
        <ele>645.18188476562</ele>
        <time>2021-09-13T13:18:14Z</time>
      </trkpt>
      <trkpt lat="43.3419" lon="5.5274">
        <ele>648.06591796875</ele>
        <time>2021-09-13T13:18:27Z</time>
      </trkpt>
      <trkpt lat="43.34186" lon="5.52736">
        <ele>647.58520507812</ele>
        <time>2021-09-13T13:18:41Z</time>
      </trkpt>
      <trkpt lat="43.3417" lon="5.52735">
        <ele>645.18188476562</ele>
        <time>2021-09-13T13:18:57Z</time>
      </trkpt>
      <trkpt lat="43.34159" lon="5.52728">
        <ele>642.29809570312</ele>
        <time>2021-09-13T13:19:14Z</time>
      </trkpt>
      <trkpt lat="43.34159" lon="5.52722">
        <ele>640.37548828125</ele>
        <time>2021-09-13T13:19:30Z</time>
      </trkpt>
      <trkpt lat="43.34162" lon="5.52719">
        <ele>639.4140625</ele>
        <time>2021-09-13T13:19:45Z</time>
      </trkpt>
      <trkpt lat="43.34159" lon="5.52725">
        <ele>639.89477539062</ele>
        <time>2021-09-13T13:20:26Z</time>
      </trkpt>
      <trkpt lat="43.34162" lon="5.52723">
        <ele>639.4140625</ele>
        <time>2021-09-13T13:20:49Z</time>
      </trkpt>
      <trkpt lat="43.34161" lon="5.52717">
        <ele>637.97216796875</ele>
        <time>2021-09-13T13:21:05Z</time>
      </trkpt>
      <trkpt lat="43.34148" lon="5.52715">
        <ele>635.56860351562</ele>
        <time>2021-09-13T13:21:21Z</time>
      </trkpt>
      <trkpt lat="43.3413" lon="5.5272">
        <ele>635.56860351562</ele>
        <time>2021-09-13T13:21:36Z</time>
      </trkpt>
      <trkpt lat="43.34121" lon="5.52722">
        <ele>634.607421875</ele>
        <time>2021-09-13T13:21:46Z</time>
      </trkpt>
      <trkpt lat="43.34118" lon="5.52726">
        <ele>634.607421875</ele>
        <time>2021-09-13T13:21:59Z</time>
      </trkpt>
      <trkpt lat="43.34119" lon="5.52727">
        <ele>633.64599609375</ele>
        <time>2021-09-13T13:22:18Z</time>
      </trkpt>
      <trkpt lat="43.34122" lon="5.52722">
        <ele>634.12670898438</ele>
        <time>2021-09-13T13:22:27Z</time>
      </trkpt>
      <trkpt lat="43.34123" lon="5.52723">
        <ele>634.12670898438</ele>
        <time>2021-09-13T13:22:42Z</time>
      </trkpt>
      <trkpt lat="43.34124" lon="5.52726">
        <ele>634.607421875</ele>
        <time>2021-09-13T13:22:57Z</time>
      </trkpt>
      <trkpt lat="43.34126" lon="5.52719">
        <ele>635.08813476562</ele>
        <time>2021-09-13T13:23:56Z</time>
      </trkpt>
      <trkpt lat="43.34117" lon="5.52715">
        <ele>631.72338867188</ele>
        <time>2021-09-13T13:24:09Z</time>
      </trkpt>
      <trkpt lat="43.3411" lon="5.52709">
        <ele>628.35888671875</ele>
        <time>2021-09-13T13:24:23Z</time>
      </trkpt>
      <trkpt lat="43.34108" lon="5.52708">
        <ele>625.95556640625</ele>
        <time>2021-09-13T13:24:44Z</time>
      </trkpt>
      <trkpt lat="43.34106" lon="5.52707">
        <ele>624.99438476562</ele>
        <time>2021-09-13T13:25:01Z</time>
      </trkpt>
      <trkpt lat="43.34101" lon="5.52693">
        <ele>621.14916992188</ele>
        <time>2021-09-13T13:25:16Z</time>
      </trkpt>
      <trkpt lat="43.34096" lon="5.52681">
        <ele>619.22631835938</ele>
        <time>2021-09-13T13:25:32Z</time>
      </trkpt>
      <trkpt lat="43.34083" lon="5.52662">
        <ele>615.86181640625</ele>
        <time>2021-09-13T13:25:55Z</time>
      </trkpt>
      <trkpt lat="43.34083" lon="5.52661">
        <ele>615.38110351562</ele>
        <time>2021-09-13T13:26:32Z</time>
      </trkpt>
      <trkpt lat="43.34078" lon="5.52656">
        <ele>613.45849609375</ele>
        <time>2021-09-13T13:26:45Z</time>
      </trkpt>
      <trkpt lat="43.34072" lon="5.52648">
        <ele>611.53588867188</ele>
        <time>2021-09-13T13:27:01Z</time>
      </trkpt>
      <trkpt lat="43.34063" lon="5.52635">
        <ele>608.17138671875</ele>
        <time>2021-09-13T13:27:17Z</time>
      </trkpt>
      <trkpt lat="43.34061" lon="5.52635">
        <ele>608.17138671875</ele>
        <time>2021-09-13T13:27:19Z</time>
      </trkpt>
      <trkpt lat="43.34046" lon="5.5262">
        <ele>604.806640625</ele>
        <time>2021-09-13T13:27:42Z</time>
      </trkpt>
      <trkpt lat="43.34038" lon="5.52612">
        <ele>601.92260742188</ele>
        <time>2021-09-13T13:27:58Z</time>
      </trkpt>
      <trkpt lat="43.34039" lon="5.52607">
        <ele>601.44189453125</ele>
        <time>2021-09-13T13:28:12Z</time>
      </trkpt>
      <trkpt lat="43.34043" lon="5.52602">
        <ele>600</ele>
        <time>2021-09-13T13:28:34Z</time>
      </trkpt>
      <trkpt lat="43.34033" lon="5.52591">
        <ele>596.63549804688</ele>
        <time>2021-09-13T13:28:50Z</time>
      </trkpt>
      <trkpt lat="43.34028" lon="5.52589">
        <ele>595.67407226562</ele>
        <time>2021-09-13T13:29:09Z</time>
      </trkpt>
      <trkpt lat="43.34029" lon="5.52591">
        <ele>594.71264648438</ele>
        <time>2021-09-13T13:29:34Z</time>
      </trkpt>
      <trkpt lat="43.34027" lon="5.52584">
        <ele>593.27075195312</ele>
        <time>2021-09-13T13:30:18Z</time>
      </trkpt>
      <trkpt lat="43.3402" lon="5.52567">
        <ele>591.34814453125</ele>
        <time>2021-09-13T13:30:32Z</time>
      </trkpt>
      <trkpt lat="43.34004" lon="5.52554">
        <ele>588.46435546875</ele>
        <time>2021-09-13T13:30:51Z</time>
      </trkpt>
      <trkpt lat="43.34001" lon="5.5255">
        <ele>588.94506835938</ele>
        <time>2021-09-13T13:30:55Z</time>
      </trkpt>
      <trkpt lat="43.33996" lon="5.52544">
        <ele>587.9833984375</ele>
        <time>2021-09-13T13:31:03Z</time>
      </trkpt>
      <trkpt lat="43.33992" lon="5.52541">
        <ele>587.02197265625</ele>
        <time>2021-09-13T13:31:08Z</time>
      </trkpt>
      <trkpt lat="43.33981" lon="5.52527">
        <ele>583.65747070312</ele>
        <time>2021-09-13T13:31:27Z</time>
      </trkpt>
      <trkpt lat="43.33968" lon="5.52518">
        <ele>580.29296875</ele>
        <time>2021-09-13T13:31:45Z</time>
      </trkpt>
      <trkpt lat="43.33961" lon="5.52512">
        <ele>576.92846679688</ele>
        <time>2021-09-13T13:31:57Z</time>
      </trkpt>
      <trkpt lat="43.33954" lon="5.52502">
        <ele>573.56396484375</ele>
        <time>2021-09-13T13:32:13Z</time>
      </trkpt>
      <trkpt lat="43.33951" lon="5.52494">
        <ele>569.71850585938</ele>
        <time>2021-09-13T13:32:25Z</time>
      </trkpt>
      <trkpt lat="43.33949" lon="5.52493">
        <ele>569.71850585938</ele>
        <time>2021-09-13T13:32:27Z</time>
      </trkpt>
      <trkpt lat="43.33948" lon="5.52488">
        <ele>568.75708007812</ele>
        <time>2021-09-13T13:32:33Z</time>
      </trkpt>
      <trkpt lat="43.33942" lon="5.52482">
        <ele>567.31518554688</ele>
        <time>2021-09-13T13:32:42Z</time>
      </trkpt>
      <trkpt lat="43.33936" lon="5.52477">
        <ele>565.87329101562</ele>
        <time>2021-09-13T13:32:50Z</time>
      </trkpt>
      <trkpt lat="43.33922" lon="5.5247">
        <ele>562.50854492188</ele>
        <time>2021-09-13T13:33:07Z</time>
      </trkpt>
      <trkpt lat="43.33911" lon="5.52464">
        <ele>560.5859375</ele>
        <time>2021-09-13T13:33:22Z</time>
      </trkpt>
      <trkpt lat="43.33902" lon="5.52457">
        <ele>558.18286132812</ele>
        <time>2021-09-13T13:33:38Z</time>
      </trkpt>
      <trkpt lat="43.33903" lon="5.52458">
        <ele>558.66333007812</ele>
        <time>2021-09-13T13:34:14Z</time>
      </trkpt>
      <trkpt lat="43.33903" lon="5.52457">
        <ele>558.18286132812</ele>
        <time>2021-09-13T13:35:02Z</time>
      </trkpt>
      <trkpt lat="43.33908" lon="5.52457">
        <ele>557.7021484375</ele>
        <time>2021-09-13T13:35:31Z</time>
      </trkpt>
      <trkpt lat="43.33905" lon="5.52451">
        <ele>554.81787109375</ele>
        <time>2021-09-13T13:35:47Z</time>
      </trkpt>
      <trkpt lat="43.33903" lon="5.5245">
        <ele>553.85668945312</ele>
        <time>2021-09-13T13:35:50Z</time>
      </trkpt>
      <trkpt lat="43.33887" lon="5.52442">
        <ele>550.01147460938</ele>
        <time>2021-09-13T13:36:09Z</time>
      </trkpt>
      <trkpt lat="43.33879" lon="5.52438">
        <ele>548.0888671875</ele>
        <time>2021-09-13T13:36:20Z</time>
      </trkpt>
      <trkpt lat="43.33876" lon="5.52434">
        <ele>547.12744140625</ele>
        <time>2021-09-13T13:36:24Z</time>
      </trkpt>
      <trkpt lat="43.33861" lon="5.52438">
        <ele>544.24365234375</ele>
        <time>2021-09-13T13:36:38Z</time>
      </trkpt>
      <trkpt lat="43.33855" lon="5.52439">
        <ele>543.76281738281</ele>
        <time>2021-09-13T13:36:43Z</time>
      </trkpt>
      <trkpt lat="43.33841" lon="5.52429">
        <ele>540.87890625</ele>
        <time>2021-09-13T13:37:00Z</time>
      </trkpt>
      <trkpt lat="43.33835" lon="5.52425">
        <ele>539.91760253906</ele>
        <time>2021-09-13T13:37:06Z</time>
      </trkpt>
      <trkpt lat="43.33834" lon="5.5242">
        <ele>538.95629882812</ele>
        <time>2021-09-13T13:37:09Z</time>
      </trkpt>
      <trkpt lat="43.33831" lon="5.52418">
        <ele>538.95629882812</ele>
        <time>2021-09-13T13:37:19Z</time>
      </trkpt>
      <trkpt lat="43.33825" lon="5.52419">
        <ele>538.95629882812</ele>
        <time>2021-09-13T13:37:27Z</time>
      </trkpt>
      <trkpt lat="43.33822" lon="5.52422">
        <ele>538.47570800781</ele>
        <time>2021-09-13T13:37:31Z</time>
      </trkpt>
      <trkpt lat="43.33823" lon="5.5243">
        <ele>538.47570800781</ele>
        <time>2021-09-13T13:37:38Z</time>
      </trkpt>
      <trkpt lat="43.33833" lon="5.52447">
        <ele>538.95629882812</ele>
        <time>2021-09-13T13:37:55Z</time>
      </trkpt>
      <trkpt lat="43.33838" lon="5.5246">
        <ele>537.03369140625</ele>
        <time>2021-09-13T13:38:06Z</time>
      </trkpt>
      <trkpt lat="43.33839" lon="5.52462">
        <ele>536.07238769531</ele>
        <time>2021-09-13T13:38:08Z</time>
      </trkpt>
      <trkpt lat="43.33849" lon="5.52495">
        <ele>534.14965820312</ele>
        <time>2021-09-13T13:38:32Z</time>
      </trkpt>
      <trkpt lat="43.33854" lon="5.52517">
        <ele>532.70776367188</ele>
        <time>2021-09-13T13:38:47Z</time>
      </trkpt>
      <trkpt lat="43.33857" lon="5.52534">
        <ele>531.26574707031</ele>
        <time>2021-09-13T13:39:00Z</time>
      </trkpt>
      <trkpt lat="43.3387" lon="5.52571">
        <ele>531.74633789062</ele>
        <time>2021-09-13T13:39:26Z</time>
      </trkpt>
      <trkpt lat="43.33881" lon="5.52595">
        <ele>532.22705078125</ele>
        <time>2021-09-13T13:39:47Z</time>
      </trkpt>
      <trkpt lat="43.33883" lon="5.52598">
        <ele>532.22705078125</ele>
        <time>2021-09-13T13:39:49Z</time>
      </trkpt>
      <trkpt lat="43.33889" lon="5.52607">
        <ele>532.70776367188</ele>
        <time>2021-09-13T13:40:07Z</time>
      </trkpt>
      <trkpt lat="43.33888" lon="5.52605">
        <ele>532.70776367188</ele>
        <time>2021-09-13T13:40:10Z</time>
      </trkpt>
      <trkpt lat="43.33881" lon="5.52594">
        <ele>532.22705078125</ele>
        <time>2021-09-13T13:40:24Z</time>
      </trkpt>
      <trkpt lat="43.33877" lon="5.52584">
        <ele>531.74633789062</ele>
        <time>2021-09-13T13:40:36Z</time>
      </trkpt>
      <trkpt lat="43.33862" lon="5.52546">
        <ele>530.78515625</ele>
        <time>2021-09-13T13:40:56Z</time>
      </trkpt>
      <trkpt lat="43.33846" lon="5.52485">
        <ele>533.18835449219</ele>
        <time>2021-09-13T13:41:14Z</time>
      </trkpt>
      <trkpt lat="43.33834" lon="5.52456">
        <ele>536.07238769531</ele>
        <time>2021-09-13T13:41:29Z</time>
      </trkpt>
      <trkpt lat="43.33821" lon="5.52429">
        <ele>538.47570800781</ele>
        <time>2021-09-13T13:41:49Z</time>
      </trkpt>
      <trkpt lat="43.3382" lon="5.52427">
        <ele>537.99499511719</ele>
        <time>2021-09-13T13:42:09Z</time>
      </trkpt>
      <trkpt lat="43.33821" lon="5.52428">
        <ele>537.99499511719</ele>
        <time>2021-09-13T13:42:42Z</time>
      </trkpt>
      <trkpt lat="43.33819" lon="5.52426">
        <ele>537.99499511719</ele>
        <time>2021-09-13T13:43:02Z</time>
      </trkpt>
      <trkpt lat="43.33818" lon="5.52421">
        <ele>537.99499511719</ele>
        <time>2021-09-13T13:43:51Z</time>
      </trkpt>
      <trkpt lat="43.33819" lon="5.5242">
        <ele>537.99499511719</ele>
        <time>2021-09-13T13:44:10Z</time>
      </trkpt>
      <trkpt lat="43.33819" lon="5.52424">
        <ele>537.99499511719</ele>
        <time>2021-09-13T13:44:29Z</time>
      </trkpt>
      <trkpt lat="43.3382" lon="5.52426">
        <ele>538.47570800781</ele>
        <time>2021-09-13T13:44:46Z</time>
      </trkpt>
      <trkpt lat="43.3382" lon="5.52426">
        <ele>538.47570800781</ele>
        <time>2021-09-13T13:45:13Z</time>
      </trkpt>
      <trkpt lat="43.3382" lon="5.52427">
        <ele>538.47570800781</ele>
        <time>2021-09-13T13:45:38Z</time>
      </trkpt>
      <trkpt lat="43.33823" lon="5.52431">
        <ele>538.47570800781</ele>
        <time>2021-09-13T13:45:54Z</time>
      </trkpt>
      <trkpt lat="43.33831" lon="5.52444">
        <ele>538.95629882812</ele>
        <time>2021-09-13T13:46:13Z</time>
      </trkpt>
      <trkpt lat="43.33837" lon="5.52455">
        <ele>537.03369140625</ele>
        <time>2021-09-13T13:46:27Z</time>
      </trkpt>
      <trkpt lat="43.33842" lon="5.52466">
        <ele>535.59155273438</ele>
        <time>2021-09-13T13:46:38Z</time>
      </trkpt>
      <trkpt lat="43.33847" lon="5.52482">
        <ele>533.6689453125</ele>
        <time>2021-09-13T13:46:58Z</time>
      </trkpt>
      <trkpt lat="43.33854" lon="5.52509">
        <ele>532.70776367188</ele>
        <time>2021-09-13T13:47:19Z</time>
      </trkpt>
      <trkpt lat="43.33861" lon="5.52541">
        <ele>530.78515625</ele>
        <time>2021-09-13T13:47:42Z</time>
      </trkpt>
      <trkpt lat="43.33864" lon="5.52552">
        <ele>530.30444335938</ele>
        <time>2021-09-13T13:48:00Z</time>
      </trkpt>
      <trkpt lat="43.33869" lon="5.52565">
        <ele>530.78515625</ele>
        <time>2021-09-13T13:48:20Z</time>
      </trkpt>
      <trkpt lat="43.33877" lon="5.52582">
        <ele>531.74633789062</ele>
        <time>2021-09-13T13:48:40Z</time>
      </trkpt>
      <trkpt lat="43.33885" lon="5.52599">
        <ele>531.74633789062</ele>
        <time>2021-09-13T13:48:54Z</time>
      </trkpt>
      <trkpt lat="43.33893" lon="5.5261">
        <ele>531.74633789062</ele>
        <time>2021-09-13T13:49:12Z</time>
      </trkpt>
      <trkpt lat="43.33896" lon="5.52618">
        <ele>531.74633789062</ele>
        <time>2021-09-13T13:49:18Z</time>
      </trkpt>
      <trkpt lat="43.33899" lon="5.52633">
        <ele>530.78515625</ele>
        <time>2021-09-13T13:49:27Z</time>
      </trkpt>
      <trkpt lat="43.33913" lon="5.52661">
        <ele>527.90100097656</ele>
        <time>2021-09-13T13:49:47Z</time>
      </trkpt>
      <trkpt lat="43.33923" lon="5.52692">
        <ele>526.93981933594</ele>
        <time>2021-09-13T13:50:09Z</time>
      </trkpt>
      <trkpt lat="43.33927" lon="5.52699">
        <ele>526.45910644531</ele>
        <time>2021-09-13T13:50:15Z</time>
      </trkpt>
      <trkpt lat="43.33929" lon="5.52706">
        <ele>526.45910644531</ele>
        <time>2021-09-13T13:50:26Z</time>
      </trkpt>
      <trkpt lat="43.33927" lon="5.52708">
        <ele>525.97839355469</ele>
        <time>2021-09-13T13:50:28Z</time>
      </trkpt>
      <trkpt lat="43.33925" lon="5.52708">
        <ele>525.01721191406</ele>
        <time>2021-09-13T13:50:30Z</time>
      </trkpt>
      <trkpt lat="43.3391" lon="5.52704">
        <ele>522.13317871094</ele>
        <time>2021-09-13T13:50:45Z</time>
      </trkpt>
      <trkpt lat="43.33905" lon="5.52713">
        <ele>518.7685546875</ele>
        <time>2021-09-13T13:50:58Z</time>
      </trkpt>
      <trkpt lat="43.33901" lon="5.52713">
        <ele>517.32666015625</ele>
        <time>2021-09-13T13:51:03Z</time>
      </trkpt>
      <trkpt lat="43.33898" lon="5.52711">
        <ele>516.365234375</ele>
        <time>2021-09-13T13:51:06Z</time>
      </trkpt>
      <trkpt lat="43.33884" lon="5.52709">
        <ele>513.00073242188</ele>
        <time>2021-09-13T13:51:21Z</time>
      </trkpt>
      <trkpt lat="43.33874" lon="5.52709">
        <ele>510.11669921875</ele>
        <time>2021-09-13T13:51:31Z</time>
      </trkpt>
      <trkpt lat="43.33868" lon="5.52708">
        <ele>508.19409179688</ele>
        <time>2021-09-13T13:51:39Z</time>
      </trkpt>
      <trkpt lat="43.33861" lon="5.52705">
        <ele>505.79089355469</ele>
        <time>2021-09-13T13:51:44Z</time>
      </trkpt>
      <trkpt lat="43.33855" lon="5.52702">
        <ele>502.42614746094</ele>
        <time>2021-09-13T13:51:52Z</time>
      </trkpt>
      <trkpt lat="43.3385" lon="5.527">
        <ele>500.50354003906</ele>
        <time>2021-09-13T13:51:59Z</time>
      </trkpt>
      <trkpt lat="43.33848" lon="5.52705">
        <ele>499.0615234375</ele>
        <time>2021-09-13T13:52:03Z</time>
      </trkpt>
      <trkpt lat="43.3384" lon="5.52704">
        <ele>496.177734375</ele>
        <time>2021-09-13T13:52:13Z</time>
      </trkpt>
      <trkpt lat="43.33839" lon="5.52703">
        <ele>496.177734375</ele>
        <time>2021-09-13T13:52:14Z</time>
      </trkpt>
      <trkpt lat="43.33836" lon="5.52699">
        <ele>495.21618652344</ele>
        <time>2021-09-13T13:52:18Z</time>
      </trkpt>
      <trkpt lat="43.33828" lon="5.527">
        <ele>491.37097167969</ele>
        <time>2021-09-13T13:52:30Z</time>
      </trkpt>
      <trkpt lat="43.33823" lon="5.52704">
        <ele>489.44836425781</ele>
        <time>2021-09-13T13:52:35Z</time>
      </trkpt>
      <trkpt lat="43.33815" lon="5.52712">
        <ele>486.08374023438</ele>
        <time>2021-09-13T13:52:42Z</time>
      </trkpt>
      <trkpt lat="43.3381" lon="5.52715">
        <ele>483.68041992188</ele>
        <time>2021-09-13T13:52:55Z</time>
      </trkpt>
      <trkpt lat="43.33802" lon="5.52717">
        <ele>480.31591796875</ele>
        <time>2021-09-13T13:53:06Z</time>
      </trkpt>
      <trkpt lat="43.33801" lon="5.52717">
        <ele>480.31591796875</ele>
        <time>2021-09-13T13:53:07Z</time>
      </trkpt>
      <trkpt lat="43.33798" lon="5.5272">
        <ele>478.87390136719</ele>
        <time>2021-09-13T13:53:30Z</time>
      </trkpt>
      <trkpt lat="43.33798" lon="5.5272">
        <ele>478.39318847656</ele>
        <time>2021-09-13T13:53:55Z</time>
      </trkpt>
      <trkpt lat="43.33788" lon="5.52726">
        <ele>476.47058105469</ele>
        <time>2021-09-13T13:54:21Z</time>
      </trkpt>
      <trkpt lat="43.3378" lon="5.52733">
        <ele>473.10607910156</ele>
        <time>2021-09-13T13:54:34Z</time>
      </trkpt>
      <trkpt lat="43.33772" lon="5.52726">
        <ele>470.22192382812</ele>
        <time>2021-09-13T13:54:46Z</time>
      </trkpt>
      <trkpt lat="43.33767" lon="5.52722">
        <ele>467.81872558594</ele>
        <time>2021-09-13T13:55:02Z</time>
      </trkpt>
      <trkpt lat="43.33767" lon="5.52721">
        <ele>467.81872558594</ele>
        <time>2021-09-13T13:55:23Z</time>
      </trkpt>
      <trkpt lat="43.33758" lon="5.5272">
        <ele>464.93481445312</ele>
        <time>2021-09-13T13:55:41Z</time>
      </trkpt>
      <trkpt lat="43.33748" lon="5.52715">
        <ele>462.05078125</ele>
        <time>2021-09-13T13:55:58Z</time>
      </trkpt>
      <trkpt lat="43.33746" lon="5.52718">
        <ele>461.08947753906</ele>
        <time>2021-09-13T13:56:23Z</time>
      </trkpt>
      <trkpt lat="43.33737" lon="5.52715">
        <ele>457.72497558594</ele>
        <time>2021-09-13T13:56:37Z</time>
      </trkpt>
      <trkpt lat="43.33736" lon="5.52715">
        <ele>457.72497558594</ele>
        <time>2021-09-13T13:56:38Z</time>
      </trkpt>
      <trkpt lat="43.33726" lon="5.52716">
        <ele>455.80224609375</ele>
        <time>2021-09-13T13:56:56Z</time>
      </trkpt>
      <trkpt lat="43.33716" lon="5.5271">
        <ele>451.95703125</ele>
        <time>2021-09-13T13:57:13Z</time>
      </trkpt>
      <trkpt lat="43.33705" lon="5.52709">
        <ele>448.59240722656</ele>
        <time>2021-09-13T13:57:27Z</time>
      </trkpt>
      <trkpt lat="43.33698" lon="5.52706">
        <ele>446.66967773438</ele>
        <time>2021-09-13T13:57:42Z</time>
      </trkpt>
      <trkpt lat="43.3369" lon="5.52711">
        <ele>444.7470703125</ele>
        <time>2021-09-13T13:57:51Z</time>
      </trkpt>
      <trkpt lat="43.3368" lon="5.52709">
        <ele>441.86315917969</ele>
        <time>2021-09-13T13:58:04Z</time>
      </trkpt>
      <trkpt lat="43.33676" lon="5.52708">
        <ele>439.9404296875</ele>
        <time>2021-09-13T13:58:09Z</time>
      </trkpt>
      <trkpt lat="43.33666" lon="5.52706">
        <ele>436.57592773438</ele>
        <time>2021-09-13T13:58:21Z</time>
      </trkpt>
      <trkpt lat="43.33657" lon="5.52706">
        <ele>433.21130371094</ele>
        <time>2021-09-13T13:58:34Z</time>
      </trkpt>
      <trkpt lat="43.33654" lon="5.52706">
        <ele>432.73071289062</ele>
        <time>2021-09-13T13:58:37Z</time>
      </trkpt>
      <trkpt lat="43.33642" lon="5.52704">
        <ele>429.36596679688</ele>
        <time>2021-09-13T13:58:49Z</time>
      </trkpt>
      <trkpt lat="43.33637" lon="5.52705">
        <ele>428.40466308594</ele>
        <time>2021-09-13T13:58:55Z</time>
      </trkpt>
      <trkpt lat="43.33635" lon="5.52705">
        <ele>427.443359375</ele>
        <time>2021-09-13T13:58:57Z</time>
      </trkpt>
      <trkpt lat="43.33632" lon="5.52705">
        <ele>427.443359375</ele>
        <time>2021-09-13T13:59:00Z</time>
      </trkpt>
      <trkpt lat="43.33622" lon="5.52703">
        <ele>424.55944824219</ele>
        <time>2021-09-13T13:59:10Z</time>
      </trkpt>
      <trkpt lat="43.33614" lon="5.52708">
        <ele>423.11743164062</ele>
        <time>2021-09-13T13:59:18Z</time>
      </trkpt>
      <trkpt lat="43.33599" lon="5.52698">
        <ele>419.75280761719</ele>
        <time>2021-09-13T13:59:33Z</time>
      </trkpt>
      <trkpt lat="43.33588" lon="5.52683">
        <ele>416.38818359375</ele>
        <time>2021-09-13T13:59:47Z</time>
      </trkpt>
      <trkpt lat="43.33585" lon="5.52675">
        <ele>414.94616699219</ele>
        <time>2021-09-13T13:59:54Z</time>
      </trkpt>
      <trkpt lat="43.33579" lon="5.5267">
        <ele>414.94616699219</ele>
        <time>2021-09-13T14:00:02Z</time>
      </trkpt>
      <trkpt lat="43.33568" lon="5.5265">
        <ele>412.06225585938</ele>
        <time>2021-09-13T14:00:20Z</time>
      </trkpt>
      <trkpt lat="43.33567" lon="5.52649">
        <ele>411.10095214844</ele>
        <time>2021-09-13T14:00:21Z</time>
      </trkpt>
      <trkpt lat="43.33565" lon="5.52647">
        <ele>411.58166503906</ele>
        <time>2021-09-13T14:00:26Z</time>
      </trkpt>
      <trkpt lat="43.33565" lon="5.52642">
        <ele>410.62023925781</ele>
        <time>2021-09-13T14:00:30Z</time>
      </trkpt>
      <trkpt lat="43.33563" lon="5.52633">
        <ele>410.62023925781</ele>
        <time>2021-09-13T14:00:37Z</time>
      </trkpt>
      <trkpt lat="43.3356" lon="5.5263">
        <ele>410.62023925781</ele>
        <time>2021-09-13T14:00:40Z</time>
      </trkpt>
      <trkpt lat="43.33555" lon="5.52625">
        <ele>410.62023925781</ele>
        <time>2021-09-13T14:00:45Z</time>
      </trkpt>
      <trkpt lat="43.33532" lon="5.52624">
        <ele>408.69763183594</ele>
        <time>2021-09-13T14:01:05Z</time>
      </trkpt>
      <trkpt lat="43.33526" lon="5.52623">
        <ele>407.25561523438</ele>
        <time>2021-09-13T14:01:12Z</time>
      </trkpt>
      <trkpt lat="43.33505" lon="5.52633">
        <ele>403.89111328125</ele>
        <time>2021-09-13T14:01:31Z</time>
      </trkpt>
      <trkpt lat="43.33496" lon="5.52636">
        <ele>402.9296875</ele>
        <time>2021-09-13T14:01:48Z</time>
      </trkpt>
      <trkpt lat="43.335" lon="5.52633">
        <ele>402.9296875</ele>
        <time>2021-09-13T14:02:09Z</time>
      </trkpt>
      <trkpt lat="43.33502" lon="5.52634">
        <ele>402.9296875</ele>
        <time>2021-09-13T14:02:28Z</time>
      </trkpt>
      <trkpt lat="43.33503" lon="5.52634">
        <ele>402.9296875</ele>
        <time>2021-09-13T14:03:15Z</time>
      </trkpt>
      <trkpt lat="43.33505" lon="5.52634">
        <ele>402.9296875</ele>
        <time>2021-09-13T14:03:39Z</time>
      </trkpt>
      <trkpt lat="43.33505" lon="5.52634">
        <ele>403.41040039062</ele>
        <time>2021-09-13T14:04:08Z</time>
      </trkpt>
      <trkpt lat="43.33498" lon="5.52637">
        <ele>402.9296875</ele>
        <time>2021-09-13T14:04:36Z</time>
      </trkpt>
      <trkpt lat="43.33499" lon="5.52637">
        <ele>402.9296875</ele>
        <time>2021-09-13T14:04:56Z</time>
      </trkpt>
      <trkpt lat="43.33499" lon="5.52637">
        <ele>402.44909667969</ele>
        <time>2021-09-13T14:05:22Z</time>
      </trkpt>
      <trkpt lat="43.335" lon="5.52637">
        <ele>401.96850585938</ele>
        <time>2021-09-13T14:05:53Z</time>
      </trkpt>
      <trkpt lat="43.33498" lon="5.5264">
        <ele>401.96850585938</ele>
        <time>2021-09-13T14:06:13Z</time>
      </trkpt>
      <trkpt lat="43.33499" lon="5.52639">
        <ele>401.96850585938</ele>
        <time>2021-09-13T14:06:50Z</time>
      </trkpt>
      <trkpt lat="43.33489" lon="5.52636">
        <ele>401.00708007812</ele>
        <time>2021-09-13T14:07:08Z</time>
      </trkpt>
      <trkpt lat="43.33465" lon="5.5264">
        <ele>400.0458984375</ele>
        <time>2021-09-13T14:07:35Z</time>
      </trkpt>
      <trkpt lat="43.33443" lon="5.52634">
        <ele>396.68115234375</ele>
        <time>2021-09-13T14:07:57Z</time>
      </trkpt>
      <trkpt lat="43.33434" lon="5.52634">
        <ele>394.75854492188</ele>
        <time>2021-09-13T14:08:07Z</time>
      </trkpt>
      <trkpt lat="43.33416" lon="5.52621">
        <ele>392.35534667969</ele>
        <time>2021-09-13T14:08:30Z</time>
      </trkpt>
      <trkpt lat="43.33401" lon="5.52607">
        <ele>389.47119140625</ele>
        <time>2021-09-13T14:08:50Z</time>
      </trkpt>
      <trkpt lat="43.33386" lon="5.52586">
        <ele>386.10668945312</ele>
        <time>2021-09-13T14:09:11Z</time>
      </trkpt>
      <trkpt lat="43.33374" lon="5.52567">
        <ele>385.14538574219</ele>
        <time>2021-09-13T14:09:28Z</time>
      </trkpt>
      <trkpt lat="43.33373" lon="5.52569">
        <ele>385.14538574219</ele>
        <time>2021-09-13T14:09:34Z</time>
      </trkpt>
      <trkpt lat="43.33375" lon="5.52573">
        <ele>385.14538574219</ele>
        <time>2021-09-13T14:09:39Z</time>
      </trkpt>
      <trkpt lat="43.33373" lon="5.52583">
        <ele>383.70324707031</ele>
        <time>2021-09-13T14:09:48Z</time>
      </trkpt>
      <trkpt lat="43.33369" lon="5.52593">
        <ele>380.81945800781</ele>
        <time>2021-09-13T14:09:59Z</time>
      </trkpt>
      <trkpt lat="43.33363" lon="5.52605">
        <ele>380.81945800781</ele>
        <time>2021-09-13T14:10:12Z</time>
      </trkpt>
      <trkpt lat="43.33347" lon="5.52601">
        <ele>378.89685058594</ele>
        <time>2021-09-13T14:10:31Z</time>
      </trkpt>
      <trkpt lat="43.33338" lon="5.52603">
        <ele>376.01281738281</ele>
        <time>2021-09-13T14:10:45Z</time>
      </trkpt>
      <trkpt lat="43.33332" lon="5.52608">
        <ele>374.09008789062</ele>
        <time>2021-09-13T14:10:57Z</time>
      </trkpt>
      <trkpt lat="43.33329" lon="5.5261">
        <ele>373.60949707031</ele>
        <time>2021-09-13T14:11:01Z</time>
      </trkpt>
      <trkpt lat="43.33322" lon="5.52622">
        <ele>374.57080078125</ele>
        <time>2021-09-13T14:11:15Z</time>
      </trkpt>
      <trkpt lat="43.33308" lon="5.52631">
        <ele>375.53210449219</ele>
        <time>2021-09-13T14:11:31Z</time>
      </trkpt>
      <trkpt lat="43.333" lon="5.52626">
        <ele>376.49353027344</ele>
        <time>2021-09-13T14:11:50Z</time>
      </trkpt>
      <trkpt lat="43.33286" lon="5.52624">
        <ele>377.93542480469</ele>
        <time>2021-09-13T14:12:09Z</time>
      </trkpt>
      <trkpt lat="43.33267" lon="5.52632">
        <ele>375.05151367188</ele>
        <time>2021-09-13T14:12:33Z</time>
      </trkpt>
      <trkpt lat="43.3326" lon="5.52635">
        <ele>372.16748046875</ele>
        <time>2021-09-13T14:12:47Z</time>
      </trkpt>
      <trkpt lat="43.33255" lon="5.52633">
        <ele>370.24487304688</ele>
        <time>2021-09-13T14:12:52Z</time>
      </trkpt>
      <trkpt lat="43.33247" lon="5.52632">
        <ele>369.28369140625</ele>
        <time>2021-09-13T14:13:03Z</time>
      </trkpt>
      <trkpt lat="43.33233" lon="5.52626">
        <ele>365.9189453125</ele>
        <time>2021-09-13T14:13:21Z</time>
      </trkpt>
      <trkpt lat="43.33226" lon="5.52618">
        <ele>363.99633789062</ele>
        <time>2021-09-13T14:13:34Z</time>
      </trkpt>
      <trkpt lat="43.33216" lon="5.52609">
        <ele>361.11242675781</ele>
        <time>2021-09-13T14:13:51Z</time>
      </trkpt>
      <trkpt lat="43.33205" lon="5.52601">
        <ele>358.22839355469</ele>
        <time>2021-09-13T14:14:06Z</time>
      </trkpt>
      <trkpt lat="43.33192" lon="5.52592">
        <ele>355.34448242188</ele>
        <time>2021-09-13T14:14:22Z</time>
      </trkpt>
      <trkpt lat="43.33181" lon="5.52583">
        <ele>351.97985839844</ele>
        <time>2021-09-13T14:14:38Z</time>
      </trkpt>
      <trkpt lat="43.33179" lon="5.52579">
        <ele>351.49914550781</ele>
        <time>2021-09-13T14:14:42Z</time>
      </trkpt>
      <trkpt lat="43.33177" lon="5.52577">
        <ele>350.53784179688</ele>
        <time>2021-09-13T14:14:44Z</time>
      </trkpt>
      <trkpt lat="43.33172" lon="5.5256">
        <ele>348.615234375</ele>
        <time>2021-09-13T14:14:58Z</time>
      </trkpt>
      <trkpt lat="43.33172" lon="5.52533">
        <ele>345.25061035156</ele>
        <time>2021-09-13T14:15:19Z</time>
      </trkpt>
      <trkpt lat="43.33168" lon="5.52517">
        <ele>341.88598632812</ele>
        <time>2021-09-13T14:15:36Z</time>
      </trkpt>
      <trkpt lat="43.33165" lon="5.52511">
        <ele>340.44409179688</ele>
        <time>2021-09-13T14:15:42Z</time>
      </trkpt>
      <trkpt lat="43.33162" lon="5.52496">
        <ele>337.56005859375</ele>
        <time>2021-09-13T14:15:57Z</time>
      </trkpt>
      <trkpt lat="43.33161" lon="5.52496">
        <ele>337.56005859375</ele>
        <time>2021-09-13T14:15:58Z</time>
      </trkpt>
      <trkpt lat="43.3315" lon="5.52489">
        <ele>334.19543457031</ele>
        <time>2021-09-13T14:16:13Z</time>
      </trkpt>
      <trkpt lat="43.33141" lon="5.52486">
        <ele>330.83093261719</ele>
        <time>2021-09-13T14:16:25Z</time>
      </trkpt>
      <trkpt lat="43.33129" lon="5.52485">
        <ele>327.46618652344</ele>
        <time>2021-09-13T14:16:40Z</time>
      </trkpt>
      <trkpt lat="43.33118" lon="5.52483">
        <ele>324.1015625</ele>
        <time>2021-09-13T14:16:57Z</time>
      </trkpt>
      <trkpt lat="43.33109" lon="5.5248">
        <ele>321.69836425781</ele>
        <time>2021-09-13T14:17:25Z</time>
      </trkpt>
      <trkpt lat="43.33101" lon="5.52473">
        <ele>318.33361816406</ele>
        <time>2021-09-13T14:17:38Z</time>
      </trkpt>
      <trkpt lat="43.331" lon="5.52471">
        <ele>317.85302734375</ele>
        <time>2021-09-13T14:17:41Z</time>
      </trkpt>
      <trkpt lat="43.33092" lon="5.52466">
        <ele>314.48840332031</ele>
        <time>2021-09-13T14:17:52Z</time>
      </trkpt>
      <trkpt lat="43.33086" lon="5.52464">
        <ele>312.08520507812</ele>
        <time>2021-09-13T14:18:03Z</time>
      </trkpt>
      <trkpt lat="43.3308" lon="5.52458">
        <ele>309.68188476562</ele>
        <time>2021-09-13T14:18:26Z</time>
      </trkpt>
      <trkpt lat="43.33071" lon="5.52459">
        <ele>307.27856445312</ele>
        <time>2021-09-13T14:18:44Z</time>
      </trkpt>
      <trkpt lat="43.33059" lon="5.5245">
        <ele>304.39465332031</ele>
        <time>2021-09-13T14:18:57Z</time>
      </trkpt>
      <trkpt lat="43.33058" lon="5.52451">
        <ele>303.43322753906</ele>
        <time>2021-09-13T14:19:21Z</time>
      </trkpt>
      <trkpt lat="43.33059" lon="5.52448">
        <ele>303.91394042969</ele>
        <time>2021-09-13T14:20:22Z</time>
      </trkpt>
      <trkpt lat="43.33059" lon="5.52447">
        <ele>303.91394042969</ele>
        <time>2021-09-13T14:21:05Z</time>
      </trkpt>
      <trkpt lat="43.33061" lon="5.52448">
        <ele>304.39465332031</ele>
        <time>2021-09-13T14:21:28Z</time>
      </trkpt>
      <trkpt lat="43.33061" lon="5.52449">
        <ele>304.39465332031</ele>
        <time>2021-09-13T14:22:07Z</time>
      </trkpt>
      <trkpt lat="43.33056" lon="5.52463">
        <ele>303.91394042969</ele>
        <time>2021-09-13T14:22:23Z</time>
      </trkpt>
      <trkpt lat="43.33051" lon="5.5247">
        <ele>303.43322753906</ele>
        <time>2021-09-13T14:22:31Z</time>
      </trkpt>
      <trkpt lat="43.33031" lon="5.52472">
        <ele>300.06872558594</ele>
        <time>2021-09-13T14:22:53Z</time>
      </trkpt>
      <trkpt lat="43.33022" lon="5.52471">
        <ele>298.14611816406</ele>
        <time>2021-09-13T14:23:05Z</time>
      </trkpt>
      <trkpt lat="43.33016" lon="5.52473">
        <ele>297.18469238281</ele>
        <time>2021-09-13T14:23:11Z</time>
      </trkpt>
      <trkpt lat="43.33002" lon="5.52483">
        <ele>293.33935546875</ele>
        <time>2021-09-13T14:23:28Z</time>
      </trkpt>
      <trkpt lat="43.32992" lon="5.52493">
        <ele>290.45556640625</ele>
        <time>2021-09-13T14:23:42Z</time>
      </trkpt>
      <trkpt lat="43.32977" lon="5.52499">
        <ele>287.0908203125</ele>
        <time>2021-09-13T14:24:01Z</time>
      </trkpt>
      <trkpt lat="43.32971" lon="5.5251">
        <ele>283.72619628906</ele>
        <time>2021-09-13T14:24:17Z</time>
      </trkpt>
      <trkpt lat="43.3296" lon="5.52516">
        <ele>280.36169433594</ele>
        <time>2021-09-13T14:24:33Z</time>
      </trkpt>
      <trkpt lat="43.3295" lon="5.52523">
        <ele>276.9970703125</ele>
        <time>2021-09-13T14:24:47Z</time>
      </trkpt>
      <trkpt lat="43.32944" lon="5.52526">
        <ele>275.55505371094</ele>
        <time>2021-09-13T14:24:54Z</time>
      </trkpt>
      <trkpt lat="43.32934" lon="5.52528">
        <ele>273.63244628906</ele>
        <time>2021-09-13T14:25:04Z</time>
      </trkpt>
      <trkpt lat="43.32917" lon="5.52538">
        <ele>271.70971679688</ele>
        <time>2021-09-13T14:25:23Z</time>
      </trkpt>
      <trkpt lat="43.32911" lon="5.52552">
        <ele>270.74841308594</ele>
        <time>2021-09-13T14:25:39Z</time>
      </trkpt>
      <trkpt lat="43.3291" lon="5.52552">
        <ele>269.787109375</ele>
        <time>2021-09-13T14:25:58Z</time>
      </trkpt>
      <trkpt lat="43.3291" lon="5.52552">
        <ele>269.787109375</ele>
        <time>2021-09-13T14:26:03Z</time>
      </trkpt>
      <trkpt lat="43.32913" lon="5.5255">
        <ele>269.787109375</ele>
        <time>2021-09-13T14:26:06Z</time>
      </trkpt>
      <trkpt lat="43.32915" lon="5.52527">
        <ele>271.22912597656</ele>
        <time>2021-09-13T14:26:21Z</time>
      </trkpt>
      <trkpt lat="43.32913" lon="5.52499">
        <ele>271.22912597656</ele>
        <time>2021-09-13T14:26:38Z</time>
      </trkpt>
      <trkpt lat="43.32912" lon="5.52501">
        <ele>271.22912597656</ele>
        <time>2021-09-13T14:26:51Z</time>
      </trkpt>
      <trkpt lat="43.32914" lon="5.52508">
        <ele>271.22912597656</ele>
        <time>2021-09-13T14:26:56Z</time>
      </trkpt>
      <trkpt lat="43.32917" lon="5.52537">
        <ele>270.74841308594</ele>
        <time>2021-09-13T14:27:16Z</time>
      </trkpt>
      <trkpt lat="43.32916" lon="5.5255">
        <ele>269.30651855469</ele>
        <time>2021-09-13T14:27:30Z</time>
      </trkpt>
      <trkpt lat="43.32902" lon="5.52548">
        <ele>266.90319824219</ele>
        <time>2021-09-13T14:27:49Z</time>
      </trkpt>
      <trkpt lat="43.32893" lon="5.52554">
        <ele>265.46130371094</ele>
        <time>2021-09-13T14:27:59Z</time>
      </trkpt>
      <trkpt lat="43.32885" lon="5.52556">
        <ele>264.01928710938</ele>
        <time>2021-09-13T14:28:06Z</time>
      </trkpt>
      <trkpt lat="43.32867" lon="5.52559">
        <ele>263.05786132812</ele>
        <time>2021-09-13T14:28:27Z</time>
      </trkpt>
      <trkpt lat="43.32867" lon="5.52559">
        <ele>263.05786132812</ele>
        <time>2021-09-13T14:28:28Z</time>
      </trkpt>
      <trkpt lat="43.32863" lon="5.5254">
        <ele>262.09655761719</ele>
        <time>2021-09-13T14:28:42Z</time>
      </trkpt>
      <trkpt lat="43.32861" lon="5.52534">
        <ele>262.5771484375</ele>
        <time>2021-09-13T14:28:46Z</time>
      </trkpt>
      <trkpt lat="43.3285" lon="5.52533">
        <ele>262.5771484375</ele>
        <time>2021-09-13T14:28:59Z</time>
      </trkpt>
      <trkpt lat="43.32849" lon="5.52536">
        <ele>262.09655761719</ele>
        <time>2021-09-13T14:29:01Z</time>
      </trkpt>
      <trkpt lat="43.32843" lon="5.52537">
        <ele>262.09655761719</ele>
        <time>2021-09-13T14:29:08Z</time>
      </trkpt>
      <trkpt lat="43.3284" lon="5.5254">
        <ele>262.09655761719</ele>
        <time>2021-09-13T14:29:11Z</time>
      </trkpt>
      <trkpt lat="43.32831" lon="5.5254">
        <ele>260.17395019531</ele>
        <time>2021-09-13T14:29:21Z</time>
      </trkpt>
      <trkpt lat="43.32829" lon="5.52542">
        <ele>260.17395019531</ele>
        <time>2021-09-13T14:29:24Z</time>
      </trkpt>
      <trkpt lat="43.32827" lon="5.52552">
        <ele>261.61596679688</ele>
        <time>2021-09-13T14:29:38Z</time>
      </trkpt>
      <trkpt lat="43.3283" lon="5.52565">
        <ele>264.49987792969</ele>
        <time>2021-09-13T14:29:53Z</time>
      </trkpt>
      <trkpt lat="43.32836" lon="5.52577">
        <ele>267.86450195312</ele>
        <time>2021-09-13T14:30:11Z</time>
      </trkpt>
      <trkpt lat="43.32839" lon="5.52581">
        <ele>269.30651855469</ele>
        <time>2021-09-13T14:30:22Z</time>
      </trkpt>
      <trkpt lat="43.32842" lon="5.52588">
        <ele>271.22912597656</ele>
        <time>2021-09-13T14:30:35Z</time>
      </trkpt>
      <trkpt lat="43.32844" lon="5.52598">
        <ele>273.15185546875</ele>
        <time>2021-09-13T14:30:49Z</time>
      </trkpt>
      <trkpt lat="43.32847" lon="5.52607">
        <ele>275.07446289062</ele>
        <time>2021-09-13T14:31:03Z</time>
      </trkpt>
      <trkpt lat="43.32845" lon="5.52617">
        <ele>277.47766113281</ele>
        <time>2021-09-13T14:31:19Z</time>
      </trkpt>
      <trkpt lat="43.32845" lon="5.52629">
        <ele>280.36169433594</ele>
        <time>2021-09-13T14:31:37Z</time>
      </trkpt>
      <trkpt lat="43.32849" lon="5.52638">
        <ele>282.76501464844</ele>
        <time>2021-09-13T14:31:51Z</time>
      </trkpt>
      <trkpt lat="43.32854" lon="5.52643">
        <ele>285.16821289062</ele>
        <time>2021-09-13T14:32:06Z</time>
      </trkpt>
      <trkpt lat="43.32859" lon="5.52654">
        <ele>287.57141113281</ele>
        <time>2021-09-13T14:32:21Z</time>
      </trkpt>
      <trkpt lat="43.32861" lon="5.52661">
        <ele>289.494140625</ele>
        <time>2021-09-13T14:32:34Z</time>
      </trkpt>
      <trkpt lat="43.32856" lon="5.52669">
        <ele>290.93615722656</ele>
        <time>2021-09-13T14:32:48Z</time>
      </trkpt>
      <trkpt lat="43.32847" lon="5.52673">
        <ele>293.33935546875</ele>
        <time>2021-09-13T14:33:03Z</time>
      </trkpt>
      <trkpt lat="43.32842" lon="5.5268">
        <ele>295.26196289062</ele>
        <time>2021-09-13T14:33:28Z</time>
      </trkpt>
      <trkpt lat="43.32832" lon="5.52682">
        <ele>298.62670898438</ele>
        <time>2021-09-13T14:33:47Z</time>
      </trkpt>
      <trkpt lat="43.32824" lon="5.52684">
        <ele>301.02990722656</ele>
        <time>2021-09-13T14:34:05Z</time>
      </trkpt>
      <trkpt lat="43.32824" lon="5.52684">
        <ele>301.02990722656</ele>
        <time>2021-09-13T14:34:42Z</time>
      </trkpt>
      <trkpt lat="43.32825" lon="5.52683">
        <ele>300.54931640625</ele>
        <time>2021-09-13T14:36:01Z</time>
      </trkpt>
      <trkpt lat="43.32822" lon="5.52684">
        <ele>301.02990722656</ele>
        <time>2021-09-13T14:36:18Z</time>
      </trkpt>
      <trkpt lat="43.32818" lon="5.52686">
        <ele>302.95251464844</ele>
        <time>2021-09-13T14:36:33Z</time>
      </trkpt>
      <trkpt lat="43.32812" lon="5.52686">
        <ele>303.91394042969</ele>
        <time>2021-09-13T14:36:49Z</time>
      </trkpt>
      <trkpt lat="43.32807" lon="5.52683">
        <ele>305.35595703125</ele>
        <time>2021-09-13T14:37:08Z</time>
      </trkpt>
      <trkpt lat="43.32803" lon="5.52683">
        <ele>306.31726074219</ele>
        <time>2021-09-13T14:37:20Z</time>
      </trkpt>
      <trkpt lat="43.32797" lon="5.52682">
        <ele>306.7978515625</ele>
        <time>2021-09-13T14:37:45Z</time>
      </trkpt>
      <trkpt lat="43.32799" lon="5.52682">
        <ele>306.31726074219</ele>
        <time>2021-09-13T14:38:04Z</time>
      </trkpt>
      <trkpt lat="43.32793" lon="5.52681">
        <ele>306.7978515625</ele>
        <time>2021-09-13T14:41:59Z</time>
      </trkpt>
      <trkpt lat="43.3278" lon="5.52673">
        <ele>308.23986816406</ele>
        <time>2021-09-13T14:42:22Z</time>
      </trkpt>
      <trkpt lat="43.32764" lon="5.52673">
        <ele>309.201171875</ele>
        <time>2021-09-13T14:42:44Z</time>
      </trkpt>
      <trkpt lat="43.32753" lon="5.52678">
        <ele>311.6044921875</ele>
        <time>2021-09-13T14:43:04Z</time>
      </trkpt>
      <trkpt lat="43.32741" lon="5.52686">
        <ele>313.52722167969</ele>
        <time>2021-09-13T14:43:25Z</time>
      </trkpt>
      <trkpt lat="43.32724" lon="5.52684">
        <ele>314.0078125</ele>
        <time>2021-09-13T14:43:47Z</time>
      </trkpt>
      <trkpt lat="43.32712" lon="5.52693">
        <ele>314.96911621094</ele>
        <time>2021-09-13T14:44:04Z</time>
      </trkpt>
      <trkpt lat="43.32699" lon="5.52705">
        <ele>313.04650878906</ele>
        <time>2021-09-13T14:44:23Z</time>
      </trkpt>
      <trkpt lat="43.32684" lon="5.52713">
        <ele>312.56579589844</ele>
        <time>2021-09-13T14:44:40Z</time>
      </trkpt>
      <trkpt lat="43.32668" lon="5.5271">
        <ele>314.48840332031</ele>
        <time>2021-09-13T14:45:01Z</time>
      </trkpt>
      <trkpt lat="43.32656" lon="5.52719">
        <ele>316.41101074219</ele>
        <time>2021-09-13T14:45:22Z</time>
      </trkpt>
      <trkpt lat="43.32645" lon="5.52722">
        <ele>318.81433105469</ele>
        <time>2021-09-13T14:45:39Z</time>
      </trkpt>
      <trkpt lat="43.32637" lon="5.5272">
        <ele>319.77563476562</ele>
        <time>2021-09-13T14:45:48Z</time>
      </trkpt>
      <trkpt lat="43.32626" lon="5.52713">
        <ele>319.77563476562</ele>
        <time>2021-09-13T14:46:00Z</time>
      </trkpt>
      <trkpt lat="43.32623" lon="5.52712">
        <ele>319.77563476562</ele>
        <time>2021-09-13T14:46:03Z</time>
      </trkpt>
      <trkpt lat="43.3262" lon="5.5271">
        <ele>319.77563476562</ele>
        <time>2021-09-13T14:46:07Z</time>
      </trkpt>
      <trkpt lat="43.32601" lon="5.52701">
        <ele>321.2177734375</ele>
        <time>2021-09-13T14:46:28Z</time>
      </trkpt>
      <trkpt lat="43.32587" lon="5.52697">
        <ele>321.2177734375</ele>
        <time>2021-09-13T14:46:43Z</time>
      </trkpt>
      <trkpt lat="43.32571" lon="5.52692">
        <ele>322.65966796875</ele>
        <time>2021-09-13T14:47:00Z</time>
      </trkpt>
      <trkpt lat="43.32558" lon="5.52691">
        <ele>324.1015625</ele>
        <time>2021-09-13T14:47:16Z</time>
      </trkpt>
      <trkpt lat="43.32553" lon="5.52687">
        <ele>323.62097167969</ele>
        <time>2021-09-13T14:47:22Z</time>
      </trkpt>
      <trkpt lat="43.32532" lon="5.52675">
        <ele>322.65966796875</ele>
        <time>2021-09-13T14:47:45Z</time>
      </trkpt>
      <trkpt lat="43.32531" lon="5.52674">
        <ele>322.65966796875</ele>
        <time>2021-09-13T14:48:14Z</time>
      </trkpt>
      <trkpt lat="43.32531" lon="5.52673">
        <ele>322.65966796875</ele>
        <time>2021-09-13T14:48:57Z</time>
      </trkpt>
      <trkpt lat="43.32526" lon="5.52675">
        <ele>322.65966796875</ele>
        <time>2021-09-13T14:49:26Z</time>
      </trkpt>
      <trkpt lat="43.32512" lon="5.52673">
        <ele>323.14038085938</ele>
        <time>2021-09-13T14:49:47Z</time>
      </trkpt>
      <trkpt lat="43.32511" lon="5.52673">
        <ele>324.1015625</ele>
        <time>2021-09-13T14:50:07Z</time>
      </trkpt>
      <trkpt lat="43.32502" lon="5.52675">
        <ele>325.06298828125</ele>
        <time>2021-09-13T14:50:37Z</time>
      </trkpt>
      <trkpt lat="43.32488" lon="5.5268">
        <ele>326.02416992188</ele>
        <time>2021-09-13T14:50:53Z</time>
      </trkpt>
      <trkpt lat="43.32484" lon="5.52682">
        <ele>326.02416992188</ele>
        <time>2021-09-13T14:50:58Z</time>
      </trkpt>
      <trkpt lat="43.32471" lon="5.52688">
        <ele>324.58227539062</ele>
        <time>2021-09-13T14:51:11Z</time>
      </trkpt>
      <trkpt lat="43.32451" lon="5.52711">
        <ele>323.62097167969</ele>
        <time>2021-09-13T14:51:33Z</time>
      </trkpt>
      <trkpt lat="43.32436" lon="5.52714">
        <ele>325.54357910156</ele>
        <time>2021-09-13T14:51:51Z</time>
      </trkpt>
      <trkpt lat="43.32414" lon="5.52718">
        <ele>325.06298828125</ele>
        <time>2021-09-13T14:52:13Z</time>
      </trkpt>
      <trkpt lat="43.32398" lon="5.5272">
        <ele>327.46618652344</ele>
        <time>2021-09-13T14:52:32Z</time>
      </trkpt>
      <trkpt lat="43.32377" lon="5.52729">
        <ele>326.5048828125</ele>
        <time>2021-09-13T14:52:53Z</time>
      </trkpt>
      <trkpt lat="43.32372" lon="5.52732">
        <ele>326.98559570312</ele>
        <time>2021-09-13T14:52:59Z</time>
      </trkpt>
      <trkpt lat="43.3236" lon="5.52736">
        <ele>328.90832519531</ele>
        <time>2021-09-13T14:53:14Z</time>
      </trkpt>
      <trkpt lat="43.32342" lon="5.52752">
        <ele>328.42761230469</ele>
        <time>2021-09-13T14:53:36Z</time>
      </trkpt>
      <trkpt lat="43.32326" lon="5.52766">
        <ele>326.5048828125</ele>
        <time>2021-09-13T14:53:58Z</time>
      </trkpt>
      <trkpt lat="43.32322" lon="5.52772">
        <ele>325.54357910156</ele>
        <time>2021-09-13T14:54:04Z</time>
      </trkpt>
      <trkpt lat="43.32306" lon="5.52791">
        <ele>324.58227539062</ele>
        <time>2021-09-13T14:54:25Z</time>
      </trkpt>
      <trkpt lat="43.32283" lon="5.52797">
        <ele>321.2177734375</ele>
        <time>2021-09-13T14:54:48Z</time>
      </trkpt>
      <trkpt lat="43.32278" lon="5.52799">
        <ele>320.73706054688</ele>
        <time>2021-09-13T14:54:54Z</time>
      </trkpt>
      <trkpt lat="43.32275" lon="5.52801">
        <ele>319.77563476562</ele>
        <time>2021-09-13T14:54:57Z</time>
      </trkpt>
      <trkpt lat="43.32261" lon="5.52809">
        <ele>316.89172363281</ele>
        <time>2021-09-13T14:55:12Z</time>
      </trkpt>
      <trkpt lat="43.32259" lon="5.52813">
        <ele>316.41101074219</ele>
        <time>2021-09-13T14:55:29Z</time>
      </trkpt>
      <trkpt lat="43.32243" lon="5.52834">
        <ele>314.48840332031</ele>
        <time>2021-09-13T14:55:52Z</time>
      </trkpt>
      <trkpt lat="43.32237" lon="5.52864">
        <ele>312.08520507812</ele>
        <time>2021-09-13T14:56:15Z</time>
      </trkpt>
      <trkpt lat="43.32227" lon="5.52877">
        <ele>311.6044921875</ele>
        <time>2021-09-13T14:56:29Z</time>
      </trkpt>
      <trkpt lat="43.32209" lon="5.52881">
        <ele>311.6044921875</ele>
        <time>2021-09-13T14:56:49Z</time>
      </trkpt>
      <trkpt lat="43.32203" lon="5.5288">
        <ele>312.08520507812</ele>
        <time>2021-09-13T14:56:55Z</time>
      </trkpt>
      <trkpt lat="43.32182" lon="5.52883">
        <ele>314.0078125</ele>
        <time>2021-09-13T14:57:16Z</time>
      </trkpt>
      <trkpt lat="43.32165" lon="5.52889">
        <ele>314.0078125</ele>
        <time>2021-09-13T14:57:34Z</time>
      </trkpt>
      <trkpt lat="43.32151" lon="5.529">
        <ele>314.48840332031</ele>
        <time>2021-09-13T14:57:49Z</time>
      </trkpt>
      <trkpt lat="43.32138" lon="5.52911">
        <ele>315.93041992188</ele>
        <time>2021-09-13T14:58:04Z</time>
      </trkpt>
      <trkpt lat="43.32134" lon="5.52915">
        <ele>316.41101074219</ele>
        <time>2021-09-13T14:58:08Z</time>
      </trkpt>
      <trkpt lat="43.32126" lon="5.52924">
        <ele>317.37243652344</ele>
        <time>2021-09-13T14:58:18Z</time>
      </trkpt>
      <trkpt lat="43.32113" lon="5.5294">
        <ele>317.85302734375</ele>
        <time>2021-09-13T14:58:35Z</time>
      </trkpt>
      <trkpt lat="43.32101" lon="5.52948">
        <ele>319.29504394531</ele>
        <time>2021-09-13T14:58:47Z</time>
      </trkpt>
      <trkpt lat="43.32093" lon="5.52966">
        <ele>320.73706054688</ele>
        <time>2021-09-13T14:59:01Z</time>
      </trkpt>
      <trkpt lat="43.32092" lon="5.52966">
        <ele>320.73706054688</ele>
        <time>2021-09-13T14:59:02Z</time>
      </trkpt>
      <trkpt lat="43.32082" lon="5.52988">
        <ele>323.14038085938</ele>
        <time>2021-09-13T14:59:19Z</time>
      </trkpt>
      <trkpt lat="43.32071" lon="5.53012">
        <ele>324.1015625</ele>
        <time>2021-09-13T14:59:36Z</time>
      </trkpt>
      <trkpt lat="43.32065" lon="5.53029">
        <ele>322.65966796875</ele>
        <time>2021-09-13T14:59:51Z</time>
      </trkpt>
      <trkpt lat="43.32044" lon="5.53048">
        <ele>319.29504394531</ele>
        <time>2021-09-13T15:00:12Z</time>
      </trkpt>
      <trkpt lat="43.3204" lon="5.5305">
        <ele>318.81433105469</ele>
        <time>2021-09-13T15:00:17Z</time>
      </trkpt>
      <trkpt lat="43.32036" lon="5.5305">
        <ele>317.85302734375</ele>
        <time>2021-09-13T15:00:22Z</time>
      </trkpt>
      <trkpt lat="43.32023" lon="5.53055">
        <ele>316.89172363281</ele>
        <time>2021-09-13T15:00:34Z</time>
      </trkpt>
      <trkpt lat="43.32018" lon="5.53054">
        <ele>315.44982910156</ele>
        <time>2021-09-13T15:00:40Z</time>
      </trkpt>
      <trkpt lat="43.32016" lon="5.53055">
        <ele>315.44982910156</ele>
        <time>2021-09-13T15:00:42Z</time>
      </trkpt>
      <trkpt lat="43.32009" lon="5.53054">
        <ele>314.96911621094</ele>
        <time>2021-09-13T15:00:48Z</time>
      </trkpt>
      <trkpt lat="43.3199" lon="5.53041">
        <ele>312.08520507812</ele>
        <time>2021-09-13T15:01:08Z</time>
      </trkpt>
      <trkpt lat="43.31977" lon="5.53038">
        <ele>310.16247558594</ele>
        <time>2021-09-13T15:01:21Z</time>
      </trkpt>
      <trkpt lat="43.31969" lon="5.53043">
        <ele>309.68188476562</ele>
        <time>2021-09-13T15:01:28Z</time>
      </trkpt>
      <trkpt lat="43.31956" lon="5.53046">
        <ele>306.31726074219</ele>
        <time>2021-09-13T15:01:43Z</time>
      </trkpt>
      <trkpt lat="43.31938" lon="5.53056">
        <ele>303.43322753906</ele>
        <time>2021-09-13T15:02:06Z</time>
      </trkpt>
      <trkpt lat="43.31935" lon="5.53059">
        <ele>302.95251464844</ele>
        <time>2021-09-13T15:02:11Z</time>
      </trkpt>
      <trkpt lat="43.31927" lon="5.53054">
        <ele>301.51062011719</ele>
        <time>2021-09-13T15:02:19Z</time>
      </trkpt>
      <trkpt lat="43.31916" lon="5.53047">
        <ele>301.02990722656</ele>
        <time>2021-09-13T15:02:35Z</time>
      </trkpt>
      <trkpt lat="43.31912" lon="5.53045">
        <ele>301.02990722656</ele>
        <time>2021-09-13T15:02:59Z</time>
      </trkpt>
      <trkpt lat="43.31912" lon="5.53044">
        <ele>300.54931640625</ele>
        <time>2021-09-13T15:04:15Z</time>
      </trkpt>
      <trkpt lat="43.31907" lon="5.53042">
        <ele>300.06872558594</ele>
        <time>2021-09-13T15:04:20Z</time>
      </trkpt>
      <trkpt lat="43.31895" lon="5.53052">
        <ele>299.10729980469</ele>
        <time>2021-09-13T15:04:38Z</time>
      </trkpt>
      <trkpt lat="43.31881" lon="5.53074">
        <ele>296.22351074219</ele>
        <time>2021-09-13T15:05:00Z</time>
      </trkpt>
      <trkpt lat="43.31877" lon="5.53079">
        <ele>296.22351074219</ele>
        <time>2021-09-13T15:05:04Z</time>
      </trkpt>
      <trkpt lat="43.31866" lon="5.531">
        <ele>293.82006835938</ele>
        <time>2021-09-13T15:05:20Z</time>
      </trkpt>
      <trkpt lat="43.31863" lon="5.5311">
        <ele>293.33935546875</ele>
        <time>2021-09-13T15:05:27Z</time>
      </trkpt>
      <trkpt lat="43.3186" lon="5.53131">
        <ele>291.41674804688</ele>
        <time>2021-09-13T15:05:41Z</time>
      </trkpt>
      <trkpt lat="43.31857" lon="5.5314">
        <ele>290.45556640625</ele>
        <time>2021-09-13T15:05:50Z</time>
      </trkpt>
      <trkpt lat="43.31846" lon="5.53152">
        <ele>287.57141113281</ele>
        <time>2021-09-13T15:06:09Z</time>
      </trkpt>
      <trkpt lat="43.31845" lon="5.53152">
        <ele>287.57141113281</ele>
        <time>2021-09-13T15:06:10Z</time>
      </trkpt>
      <trkpt lat="43.31837" lon="5.53147">
        <ele>285.64880371094</ele>
        <time>2021-09-13T15:06:21Z</time>
      </trkpt>
      <trkpt lat="43.31825" lon="5.53126">
        <ele>285.16821289062</ele>
        <time>2021-09-13T15:06:38Z</time>
      </trkpt>
      <trkpt lat="43.31794" lon="5.53091">
        <ele>283.24560546875</ele>
        <time>2021-09-13T15:07:14Z</time>
      </trkpt>
      <trkpt lat="43.3179" lon="5.53092">
        <ele>283.24560546875</ele>
        <time>2021-09-13T15:07:17Z</time>
      </trkpt>
      <trkpt lat="43.31765" lon="5.53105">
        <ele>283.72619628906</ele>
        <time>2021-09-13T15:07:43Z</time>
      </trkpt>
      <trkpt lat="43.31758" lon="5.53123">
        <ele>284.20690917969</ele>
        <time>2021-09-13T15:07:56Z</time>
      </trkpt>
      <trkpt lat="43.31741" lon="5.53169">
        <ele>285.16821289062</ele>
        <time>2021-09-13T15:08:29Z</time>
      </trkpt>
      <trkpt lat="43.31723" lon="5.53203">
        <ele>285.16821289062</ele>
        <time>2021-09-13T15:08:59Z</time>
      </trkpt>
      <trkpt lat="43.31709" lon="5.53218">
        <ele>284.68762207031</ele>
        <time>2021-09-13T15:09:09Z</time>
      </trkpt>
      <trkpt lat="43.31701" lon="5.53242">
        <ele>285.16821289062</ele>
        <time>2021-09-13T15:09:28Z</time>
      </trkpt>
      <trkpt lat="43.317" lon="5.53243">
        <ele>285.16821289062</ele>
        <time>2021-09-13T15:09:29Z</time>
      </trkpt>
      <trkpt lat="43.31687" lon="5.53255">
        <ele>285.16821289062</ele>
        <time>2021-09-13T15:09:43Z</time>
      </trkpt>
      <trkpt lat="43.31685" lon="5.53258">
        <ele>285.64880371094</ele>
        <time>2021-09-13T15:09:45Z</time>
      </trkpt>
      <trkpt lat="43.31667" lon="5.53273">
        <ele>286.12951660156</ele>
        <time>2021-09-13T15:10:04Z</time>
      </trkpt>
      <trkpt lat="43.3166" lon="5.53293">
        <ele>286.61022949219</ele>
        <time>2021-09-13T15:10:19Z</time>
      </trkpt>
      <trkpt lat="43.3166" lon="5.53323">
        <ele>287.0908203125</ele>
        <time>2021-09-13T15:10:35Z</time>
      </trkpt>
      <trkpt lat="43.31665" lon="5.53352">
        <ele>287.57141113281</ele>
        <time>2021-09-13T15:10:53Z</time>
      </trkpt>
      <trkpt lat="43.31671" lon="5.53379">
        <ele>288.53295898438</ele>
        <time>2021-09-13T15:11:09Z</time>
      </trkpt>
      <trkpt lat="43.3168" lon="5.534">
        <ele>288.53295898438</ele>
        <time>2021-09-13T15:11:24Z</time>
      </trkpt>
      <trkpt lat="43.31681" lon="5.53408">
        <ele>288.53295898438</ele>
        <time>2021-09-13T15:11:29Z</time>
      </trkpt>
      <trkpt lat="43.31684" lon="5.53434">
        <ele>289.01354980469</ele>
        <time>2021-09-13T15:11:45Z</time>
      </trkpt>
      <trkpt lat="43.31684" lon="5.53436">
        <ele>289.01354980469</ele>
        <time>2021-09-13T15:11:46Z</time>
      </trkpt>
      <trkpt lat="43.31684" lon="5.53443">
        <ele>289.01354980469</ele>
        <time>2021-09-13T15:11:50Z</time>
      </trkpt>
      <trkpt lat="43.31678" lon="5.53467">
        <ele>289.01354980469</ele>
        <time>2021-09-13T15:12:05Z</time>
      </trkpt>
      <trkpt lat="43.31672" lon="5.53485">
        <ele>288.53295898438</ele>
        <time>2021-09-13T15:12:21Z</time>
      </trkpt>
      <trkpt lat="43.31664" lon="5.53497">
        <ele>288.53295898438</ele>
        <time>2021-09-13T15:12:33Z</time>
      </trkpt>
      <trkpt lat="43.31649" lon="5.53498">
        <ele>286.61022949219</ele>
        <time>2021-09-13T15:12:48Z</time>
      </trkpt>
      <trkpt lat="43.31639" lon="5.53488">
        <ele>285.64880371094</ele>
        <time>2021-09-13T15:12:57Z</time>
      </trkpt>
      <trkpt lat="43.31617" lon="5.53475">
        <ele>283.72619628906</ele>
        <time>2021-09-13T15:13:19Z</time>
      </trkpt>
      <trkpt lat="43.31593" lon="5.53465">
        <ele>280.84240722656</ele>
        <time>2021-09-13T15:13:45Z</time>
      </trkpt>
      <trkpt lat="43.31579" lon="5.53467">
        <ele>280.36169433594</ele>
        <time>2021-09-13T15:13:57Z</time>
      </trkpt>
      <trkpt lat="43.31565" lon="5.53488">
        <ele>279.880859375</ele>
        <time>2021-09-13T15:14:15Z</time>
      </trkpt>
      <trkpt lat="43.31566" lon="5.53492">
        <ele>279.40026855469</ele>
        <time>2021-09-13T15:14:17Z</time>
      </trkpt>
      <trkpt lat="43.31564" lon="5.53505">
        <ele>278.91967773438</ele>
        <time>2021-09-13T15:14:25Z</time>
      </trkpt>
      <trkpt lat="43.31566" lon="5.53524">
        <ele>278.91967773438</ele>
        <time>2021-09-13T15:14:40Z</time>
      </trkpt>
      <trkpt lat="43.31566" lon="5.53546">
        <ele>278.43896484375</ele>
        <time>2021-09-13T15:14:54Z</time>
      </trkpt>
      <trkpt lat="43.31563" lon="5.5357">
        <ele>278.91967773438</ele>
        <time>2021-09-13T15:15:09Z</time>
      </trkpt>
      <trkpt lat="43.3156" lon="5.53593">
        <ele>278.43896484375</ele>
        <time>2021-09-13T15:15:24Z</time>
      </trkpt>
      <trkpt lat="43.31558" lon="5.53619">
        <ele>278.91967773438</ele>
        <time>2021-09-13T15:15:38Z</time>
      </trkpt>
      <trkpt lat="43.31558" lon="5.53629">
        <ele>278.43896484375</ele>
        <time>2021-09-13T15:15:44Z</time>
      </trkpt>
      <trkpt lat="43.31557" lon="5.53655">
        <ele>278.43896484375</ele>
        <time>2021-09-13T15:16:00Z</time>
      </trkpt>
      <trkpt lat="43.31553" lon="5.53662">
        <ele>277.95825195312</ele>
        <time>2021-09-13T15:16:07Z</time>
      </trkpt>
      <trkpt lat="43.31538" lon="5.53667">
        <ele>277.95825195312</ele>
        <time>2021-09-13T15:16:22Z</time>
      </trkpt>
      <trkpt lat="43.31535" lon="5.53668">
        <ele>277.95825195312</ele>
        <time>2021-09-13T15:16:25Z</time>
      </trkpt>
      <trkpt lat="43.31518" lon="5.53674">
        <ele>278.43896484375</ele>
        <time>2021-09-13T15:16:40Z</time>
      </trkpt>
      <trkpt lat="43.31517" lon="5.53676">
        <ele>278.43896484375</ele>
        <time>2021-09-13T15:16:42Z</time>
      </trkpt>
      <trkpt lat="43.31502" lon="5.5368">
        <ele>278.91967773438</ele>
        <time>2021-09-13T15:16:53Z</time>
      </trkpt>
      <trkpt lat="43.31496" lon="5.53685">
        <ele>278.91967773438</ele>
        <time>2021-09-13T15:16:58Z</time>
      </trkpt>
    </trkseg>
  </trk>
</gpx>